<?xml version="1.0" encoding="UTF-8" standalone="no" ?>
<gpx xmlns="http://www.topografix.com/GPX/1/1" xmlns:xsi="http://www.w3.org/2001/XMLSchema-instance" xsi:schemaLocation="http://www.topografix.com/GPX/1/1 http://www.topografix.com/GPX/1/1/gpx.xsd" version="1.1" creator="VisuGPX - https://www.visugpx.com">
  <metadata>
    <name>54 kms nord bois joli</name>
  </metadata>
  <trk>
    <name><![CDATA[54 kms nord bois joli]]></name>
    <extensions>
      <line xmlns="http://www.topografix.com/GPX/gpx_style/0/2">
        <color>0000FF</color>
        <width>4</width>
      </line>
    </extensions>
    <trkseg>
      <trkpt lat="47.12713" lon="-1.43071">
        <ele>58</ele>
        <time>2022-08-29T19:07:13.000Z</time>
      </trkpt>
      <trkpt lat="47.12698" lon="-1.43039">
        <ele>58</ele>
        <time>2022-08-29T19:07:13.004Z</time>
      </trkpt>
      <trkpt lat="47.12694" lon="-1.43038">
        <ele>58</ele>
        <time>2022-08-29T19:07:13.009Z</time>
      </trkpt>
      <trkpt lat="47.12657" lon="-1.43074">
        <ele>58</ele>
        <time>2022-08-29T19:07:13.021Z</time>
      </trkpt>
      <trkpt lat="47.12627" lon="-1.43106">
        <ele>58</ele>
        <time>2022-08-29T19:07:13.039Z</time>
      </trkpt>
      <trkpt lat="47.12622" lon="-1.43112">
        <ele>57</ele>
        <time>2022-08-29T19:07:13.058Z</time>
      </trkpt>
      <trkpt lat="47.12636" lon="-1.43152">
        <ele>57</ele>
        <time>2022-08-29T19:07:13.082Z</time>
      </trkpt>
      <trkpt lat="47.12648" lon="-1.43191">
        <ele>56</ele>
        <time>2022-08-29T19:07:13.111Z</time>
      </trkpt>
      <trkpt lat="47.12654" lon="-1.43219">
        <ele>56</ele>
        <time>2022-08-29T19:07:13.143Z</time>
      </trkpt>
      <trkpt lat="47.12657" lon="-1.43244">
        <ele>55</ele>
        <time>2022-08-29T19:07:13.178Z</time>
      </trkpt>
      <trkpt lat="47.12677" lon="-1.43297">
        <ele>55</ele>
        <time>2022-08-29T19:07:13.219Z</time>
      </trkpt>
      <trkpt lat="47.1274" lon="-1.4345">
        <ele>54</ele>
        <time>2022-08-29T19:07:13.280Z</time>
      </trkpt>
      <trkpt lat="47.12761" lon="-1.43501">
        <ele>54</ele>
        <time>2022-08-29T19:07:13.347Z</time>
      </trkpt>
      <trkpt lat="47.12795" lon="-1.43614">
        <ele>53</ele>
        <time>2022-08-29T19:07:13.428Z</time>
      </trkpt>
      <trkpt lat="47.12833" lon="-1.43719">
        <ele>53</ele>
        <time>2022-08-29T19:07:13.522Z</time>
      </trkpt>
      <trkpt lat="47.12833" lon="-1.43719">
        <ele>52</ele>
        <time>2022-08-29T19:07:13.616Z</time>
      </trkpt>
      <trkpt lat="47.12844" lon="-1.43755">
        <ele>52</ele>
        <time>2022-08-29T19:07:13.714Z</time>
      </trkpt>
      <trkpt lat="47.12878" lon="-1.43864">
        <ele>51</ele>
        <time>2022-08-29T19:07:13.825Z</time>
      </trkpt>
      <trkpt lat="47.1289" lon="-1.43896">
        <ele>51</ele>
        <time>2022-08-29T19:07:13.940Z</time>
      </trkpt>
      <trkpt lat="47.1294" lon="-1.44019">
        <ele>50</ele>
        <time>2022-08-29T19:07:14.071Z</time>
      </trkpt>
      <trkpt lat="47.12973" lon="-1.441">
        <ele>50</ele>
        <time>2022-08-29T19:07:14.212Z</time>
      </trkpt>
      <trkpt lat="47.13008" lon="-1.44191">
        <ele>50</ele>
        <time>2022-08-29T19:07:14.364Z</time>
      </trkpt>
      <trkpt lat="47.13036" lon="-1.44314">
        <ele>50</ele>
        <time>2022-08-29T19:07:14.531Z</time>
      </trkpt>
      <trkpt lat="47.13036" lon="-1.44314">
        <ele>50</ele>
        <time>2022-08-29T19:07:14.698Z</time>
      </trkpt>
      <trkpt lat="47.13047" lon="-1.44395">
        <ele>49</ele>
        <time>2022-08-29T19:07:14.874Z</time>
      </trkpt>
      <trkpt lat="47.13091" lon="-1.44536">
        <ele>49</ele>
        <time>2022-08-29T19:07:15.067Z</time>
      </trkpt>
      <trkpt lat="47.13096" lon="-1.44563">
        <ele>50</ele>
        <time>2022-08-29T19:07:15.263Z</time>
      </trkpt>
      <trkpt lat="47.13098" lon="-1.44591">
        <ele>50</ele>
        <time>2022-08-29T19:07:15.462Z</time>
      </trkpt>
      <trkpt lat="47.13106" lon="-1.44703">
        <ele>50</ele>
        <time>2022-08-29T19:07:15.673Z</time>
      </trkpt>
      <trkpt lat="47.13114" lon="-1.44748">
        <ele>50</ele>
        <time>2022-08-29T19:07:15.889Z</time>
      </trkpt>
      <trkpt lat="47.13129" lon="-1.4481">
        <ele>50</ele>
        <time>2022-08-29T19:07:16.112Z</time>
      </trkpt>
      <trkpt lat="47.13129" lon="-1.4485">
        <ele>51</ele>
        <time>2022-08-29T19:07:16.340Z</time>
      </trkpt>
      <trkpt lat="47.1311" lon="-1.44996">
        <ele>51</ele>
        <time>2022-08-29T19:07:16.584Z</time>
      </trkpt>
      <trkpt lat="47.13096" lon="-1.45116">
        <ele>52</ele>
        <time>2022-08-29T19:07:16.841Z</time>
      </trkpt>
      <trkpt lat="47.1308" lon="-1.45191">
        <ele>52</ele>
        <time>2022-08-29T19:07:17.107Z</time>
      </trkpt>
      <trkpt lat="47.13075" lon="-1.45255">
        <ele>53</ele>
        <time>2022-08-29T19:07:17.380Z</time>
      </trkpt>
      <trkpt lat="47.13074" lon="-1.45281">
        <ele>53</ele>
        <time>2022-08-29T19:07:17.656Z</time>
      </trkpt>
      <trkpt lat="47.13157" lon="-1.45351">
        <ele>53</ele>
        <time>2022-08-29T19:07:17.947Z</time>
      </trkpt>
      <trkpt lat="47.13157" lon="-1.45351">
        <ele>54</ele>
        <time>2022-08-29T19:07:18.238Z</time>
      </trkpt>
      <trkpt lat="47.13178" lon="-1.45375">
        <ele>54</ele>
        <time>2022-08-29T19:07:18.533Z</time>
      </trkpt>
      <trkpt lat="47.13218" lon="-1.45429">
        <ele>54</ele>
        <time>2022-08-29T19:07:18.837Z</time>
      </trkpt>
      <trkpt lat="47.13365" lon="-1.45664">
        <ele>55</ele>
        <time>2022-08-29T19:07:19.176Z</time>
      </trkpt>
      <trkpt lat="47.13532" lon="-1.45909">
        <ele>55</ele>
        <time>2022-08-29T19:07:19.553Z</time>
      </trkpt>
      <trkpt lat="47.13558" lon="-1.45955">
        <ele>56</ele>
        <time>2022-08-29T19:07:19.936Z</time>
      </trkpt>
      <trkpt lat="47.13564" lon="-1.4597">
        <ele>56</ele>
        <time>2022-08-29T19:07:20.321Z</time>
      </trkpt>
      <trkpt lat="47.1361" lon="-1.46115">
        <ele>56</ele>
        <time>2022-08-29T19:07:20.724Z</time>
      </trkpt>
      <trkpt lat="47.13665" lon="-1.46296">
        <ele>57</ele>
        <time>2022-08-29T19:07:21.148Z</time>
      </trkpt>
      <trkpt lat="47.13666" lon="-1.46305">
        <ele>57</ele>
        <time>2022-08-29T19:07:21.573Z</time>
      </trkpt>
      <trkpt lat="47.13673" lon="-1.4634">
        <ele>57</ele>
        <time>2022-08-29T19:07:22.002Z</time>
      </trkpt>
      <trkpt lat="47.13674" lon="-1.46356">
        <ele>57</ele>
        <time>2022-08-29T19:07:22.433Z</time>
      </trkpt>
      <trkpt lat="47.1367" lon="-1.46414">
        <ele>58</ele>
        <time>2022-08-29T19:07:22.870Z</time>
      </trkpt>
      <trkpt lat="47.13669" lon="-1.46437">
        <ele>57</ele>
        <time>2022-08-29T19:07:23.310Z</time>
      </trkpt>
      <trkpt lat="47.13671" lon="-1.46466">
        <ele>57</ele>
        <time>2022-08-29T19:07:23.753Z</time>
      </trkpt>
      <trkpt lat="47.13684" lon="-1.46508">
        <ele>57</ele>
        <time>2022-08-29T19:07:24.201Z</time>
      </trkpt>
      <trkpt lat="47.13695" lon="-1.46536">
        <ele>56</ele>
        <time>2022-08-29T19:07:24.653Z</time>
      </trkpt>
      <trkpt lat="47.13701" lon="-1.46552">
        <ele>56</ele>
        <time>2022-08-29T19:07:25.107Z</time>
      </trkpt>
      <trkpt lat="47.13705" lon="-1.46565">
        <ele>55</ele>
        <time>2022-08-29T19:07:25.562Z</time>
      </trkpt>
      <trkpt lat="47.13715" lon="-1.46597">
        <ele>54</ele>
        <time>2022-08-29T19:07:26.021Z</time>
      </trkpt>
      <trkpt lat="47.13723" lon="-1.46632">
        <ele>53</ele>
        <time>2022-08-29T19:07:26.484Z</time>
      </trkpt>
      <trkpt lat="47.13741" lon="-1.4673">
        <ele>52</ele>
        <time>2022-08-29T19:07:26.958Z</time>
      </trkpt>
      <trkpt lat="47.13749" lon="-1.46767">
        <ele>51</ele>
        <time>2022-08-29T19:07:27.436Z</time>
      </trkpt>
      <trkpt lat="47.13935" lon="-1.46728">
        <ele>49</ele>
        <time>2022-08-29T19:07:27.945Z</time>
      </trkpt>
      <trkpt lat="47.13951" lon="-1.46725">
        <ele>47</ele>
        <time>2022-08-29T19:07:28.456Z</time>
      </trkpt>
      <trkpt lat="47.13951" lon="-1.46725">
        <ele>46</ele>
        <time>2022-08-29T19:07:28.967Z</time>
      </trkpt>
      <trkpt lat="47.13982" lon="-1.46725">
        <ele>44</ele>
        <time>2022-08-29T19:07:29.483Z</time>
      </trkpt>
      <trkpt lat="47.14008" lon="-1.46729">
        <ele>42</ele>
        <time>2022-08-29T19:07:30.003Z</time>
      </trkpt>
      <trkpt lat="47.14178" lon="-1.46762">
        <ele>39</ele>
        <time>2022-08-29T19:07:30.551Z</time>
      </trkpt>
      <trkpt lat="47.14244" lon="-1.46772">
        <ele>37</ele>
        <time>2022-08-29T19:07:31.109Z</time>
      </trkpt>
      <trkpt lat="47.14341" lon="-1.4679">
        <ele>35</ele>
        <time>2022-08-29T19:07:31.683Z</time>
      </trkpt>
      <trkpt lat="47.14433" lon="-1.46812">
        <ele>33</ele>
        <time>2022-08-29T19:07:32.272Z</time>
      </trkpt>
      <trkpt lat="47.14572" lon="-1.46882">
        <ele>30</ele>
        <time>2022-08-29T19:07:32.885Z</time>
      </trkpt>
      <trkpt lat="47.14586" lon="-1.46885">
        <ele>27</ele>
        <time>2022-08-29T19:07:33.500Z</time>
      </trkpt>
      <trkpt lat="47.14601" lon="-1.46886">
        <ele>25</ele>
        <time>2022-08-29T19:07:34.117Z</time>
      </trkpt>
      <trkpt lat="47.14703" lon="-1.46869">
        <ele>23</ele>
        <time>2022-08-29T19:07:34.751Z</time>
      </trkpt>
      <trkpt lat="47.14703" lon="-1.46869">
        <ele>21</ele>
        <time>2022-08-29T19:07:35.385Z</time>
      </trkpt>
      <trkpt lat="47.14711" lon="-1.46869">
        <ele>18</ele>
        <time>2022-08-29T19:07:36.020Z</time>
      </trkpt>
      <trkpt lat="47.14761" lon="-1.4687">
        <ele>16</ele>
        <time>2022-08-29T19:07:36.663Z</time>
      </trkpt>
      <trkpt lat="47.14791" lon="-1.4687">
        <ele>14</ele>
        <time>2022-08-29T19:07:37.311Z</time>
      </trkpt>
      <trkpt lat="47.14852" lon="-1.46869">
        <ele>12</ele>
        <time>2022-08-29T19:07:37.968Z</time>
      </trkpt>
      <trkpt lat="47.14916" lon="-1.46868">
        <ele>11</ele>
        <time>2022-08-29T19:07:38.636Z</time>
      </trkpt>
      <trkpt lat="47.14917" lon="-1.46862">
        <ele>9</ele>
        <time>2022-08-29T19:07:39.304Z</time>
      </trkpt>
      <trkpt lat="47.14922" lon="-1.46857">
        <ele>8</ele>
        <time>2022-08-29T19:07:39.973Z</time>
      </trkpt>
      <trkpt lat="47.14928" lon="-1.46861">
        <ele>7</ele>
        <time>2022-08-29T19:07:40.643Z</time>
      </trkpt>
      <trkpt lat="47.1493" lon="-1.46867">
        <ele>6</ele>
        <time>2022-08-29T19:07:41.314Z</time>
      </trkpt>
      <trkpt lat="47.14996" lon="-1.46863">
        <ele>5</ele>
        <time>2022-08-29T19:07:41.996Z</time>
      </trkpt>
      <trkpt lat="47.15034" lon="-1.46862">
        <ele>5</ele>
        <time>2022-08-29T19:07:42.684Z</time>
      </trkpt>
      <trkpt lat="47.15119" lon="-1.46857">
        <ele>4</ele>
        <time>2022-08-29T19:07:43.385Z</time>
      </trkpt>
      <trkpt lat="47.15205" lon="-1.46851">
        <ele>5</ele>
        <time>2022-08-29T19:07:44.100Z</time>
      </trkpt>
      <trkpt lat="47.15237" lon="-1.46847">
        <ele>5</ele>
        <time>2022-08-29T19:07:44.820Z</time>
      </trkpt>
      <trkpt lat="47.15318" lon="-1.46816">
        <ele>6</ele>
        <time>2022-08-29T19:07:45.554Z</time>
      </trkpt>
      <trkpt lat="47.15349" lon="-1.46802">
        <ele>7</ele>
        <time>2022-08-29T19:07:46.293Z</time>
      </trkpt>
      <trkpt lat="47.15367" lon="-1.46793">
        <ele>8</ele>
        <time>2022-08-29T19:07:47.035Z</time>
      </trkpt>
      <trkpt lat="47.15394" lon="-1.46777">
        <ele>9</ele>
        <time>2022-08-29T19:07:47.782Z</time>
      </trkpt>
      <trkpt lat="47.15444" lon="-1.46739">
        <ele>10</ele>
        <time>2022-08-29T19:07:48.538Z</time>
      </trkpt>
      <trkpt lat="47.15493" lon="-1.46701">
        <ele>12</ele>
        <time>2022-08-29T19:07:49.302Z</time>
      </trkpt>
      <trkpt lat="47.15533" lon="-1.46677">
        <ele>13</ele>
        <time>2022-08-29T19:07:50.073Z</time>
      </trkpt>
      <trkpt lat="47.15571" lon="-1.46655">
        <ele>15</ele>
        <time>2022-08-29T19:07:50.851Z</time>
      </trkpt>
      <trkpt lat="47.15608" lon="-1.46641">
        <ele>16</ele>
        <time>2022-08-29T19:07:51.635Z</time>
      </trkpt>
      <trkpt lat="47.15649" lon="-1.46632">
        <ele>18</ele>
        <time>2022-08-29T19:07:52.426Z</time>
      </trkpt>
      <trkpt lat="47.15785" lon="-1.46626">
        <ele>19</ele>
        <time>2022-08-29T19:07:53.238Z</time>
      </trkpt>
      <trkpt lat="47.15879" lon="-1.46621">
        <ele>20</ele>
        <time>2022-08-29T19:07:54.066Z</time>
      </trkpt>
      <trkpt lat="47.15939" lon="-1.46625">
        <ele>22</ele>
        <time>2022-08-29T19:07:54.903Z</time>
      </trkpt>
      <trkpt lat="47.16008" lon="-1.46643">
        <ele>22</ele>
        <time>2022-08-29T19:07:55.751Z</time>
      </trkpt>
      <trkpt lat="47.16062" lon="-1.46674">
        <ele>23</ele>
        <time>2022-08-29T19:07:56.609Z</time>
      </trkpt>
      <trkpt lat="47.1624" lon="-1.46805">
        <ele>23</ele>
        <time>2022-08-29T19:07:57.498Z</time>
      </trkpt>
      <trkpt lat="47.1624" lon="-1.46805">
        <ele>24</ele>
        <time>2022-08-29T19:07:58.387Z</time>
      </trkpt>
      <trkpt lat="47.16253" lon="-1.46811">
        <ele>24</ele>
        <time>2022-08-29T19:07:59.279Z</time>
      </trkpt>
      <trkpt lat="47.16258" lon="-1.46799">
        <ele>24</ele>
        <time>2022-08-29T19:08:00.172Z</time>
      </trkpt>
      <trkpt lat="47.16268" lon="-1.46796">
        <ele>24</ele>
        <time>2022-08-29T19:08:01.067Z</time>
      </trkpt>
      <trkpt lat="47.16276" lon="-1.46802">
        <ele>24</ele>
        <time>2022-08-29T19:08:01.963Z</time>
      </trkpt>
      <trkpt lat="47.16279" lon="-1.46807">
        <ele>24</ele>
        <time>2022-08-29T19:08:02.860Z</time>
      </trkpt>
      <trkpt lat="47.16281" lon="-1.46821">
        <ele>23</ele>
        <time>2022-08-29T19:08:03.759Z</time>
      </trkpt>
      <trkpt lat="47.16279" lon="-1.46827">
        <ele>23</ele>
        <time>2022-08-29T19:08:04.658Z</time>
      </trkpt>
      <trkpt lat="47.16273" lon="-1.46837">
        <ele>23</ele>
        <time>2022-08-29T19:08:05.559Z</time>
      </trkpt>
      <trkpt lat="47.16263" lon="-1.46839">
        <ele>22</ele>
        <time>2022-08-29T19:08:06.461Z</time>
      </trkpt>
      <trkpt lat="47.16257" lon="-1.46944">
        <ele>21</ele>
        <time>2022-08-29T19:08:07.375Z</time>
      </trkpt>
      <trkpt lat="47.16256" lon="-1.46989">
        <ele>21</ele>
        <time>2022-08-29T19:08:08.294Z</time>
      </trkpt>
      <trkpt lat="47.16261" lon="-1.47066">
        <ele>21</ele>
        <time>2022-08-29T19:08:09.221Z</time>
      </trkpt>
      <trkpt lat="47.1627" lon="-1.47123">
        <ele>20</ele>
        <time>2022-08-29T19:08:10.155Z</time>
      </trkpt>
      <trkpt lat="47.16275" lon="-1.47149">
        <ele>20</ele>
        <time>2022-08-29T19:08:11.092Z</time>
      </trkpt>
      <trkpt lat="47.163" lon="-1.47231">
        <ele>19</ele>
        <time>2022-08-29T19:08:12.038Z</time>
      </trkpt>
      <trkpt lat="47.16321" lon="-1.47286">
        <ele>19</ele>
        <time>2022-08-29T19:08:12.991Z</time>
      </trkpt>
      <trkpt lat="47.16332" lon="-1.47326">
        <ele>19</ele>
        <time>2022-08-29T19:08:13.949Z</time>
      </trkpt>
      <trkpt lat="47.16337" lon="-1.47332">
        <ele>19</ele>
        <time>2022-08-29T19:08:14.908Z</time>
      </trkpt>
      <trkpt lat="47.1634" lon="-1.4734">
        <ele>19</ele>
        <time>2022-08-29T19:08:15.868Z</time>
      </trkpt>
      <trkpt lat="47.16348" lon="-1.4735">
        <ele>19</ele>
        <time>2022-08-29T19:08:16.830Z</time>
      </trkpt>
      <trkpt lat="47.16363" lon="-1.47358">
        <ele>20</ele>
        <time>2022-08-29T19:08:17.794Z</time>
      </trkpt>
      <trkpt lat="47.16396" lon="-1.47366">
        <ele>21</ele>
        <time>2022-08-29T19:08:18.764Z</time>
      </trkpt>
      <trkpt lat="47.16483" lon="-1.47371">
        <ele>21</ele>
        <time>2022-08-29T19:08:19.748Z</time>
      </trkpt>
      <trkpt lat="47.1651" lon="-1.47372">
        <ele>22</ele>
        <time>2022-08-29T19:08:20.736Z</time>
      </trkpt>
      <trkpt lat="47.16565" lon="-1.47376">
        <ele>23</ele>
        <time>2022-08-29T19:08:21.733Z</time>
      </trkpt>
      <trkpt lat="47.16591" lon="-1.4738">
        <ele>24</ele>
        <time>2022-08-29T19:08:22.734Z</time>
      </trkpt>
      <trkpt lat="47.1664" lon="-1.47397">
        <ele>25</ele>
        <time>2022-08-29T19:08:23.743Z</time>
      </trkpt>
      <trkpt lat="47.16646" lon="-1.47398">
        <ele>25</ele>
        <time>2022-08-29T19:08:24.753Z</time>
      </trkpt>
      <trkpt lat="47.16661" lon="-1.47395">
        <ele>26</ele>
        <time>2022-08-29T19:08:25.765Z</time>
      </trkpt>
      <trkpt lat="47.16699" lon="-1.47385">
        <ele>27</ele>
        <time>2022-08-29T19:08:26.784Z</time>
      </trkpt>
      <trkpt lat="47.16699" lon="-1.47385">
        <ele>28</ele>
        <time>2022-08-29T19:08:27.803Z</time>
      </trkpt>
      <trkpt lat="47.16701" lon="-1.47384">
        <ele>28</ele>
        <time>2022-08-29T19:08:28.822Z</time>
      </trkpt>
      <trkpt lat="47.1678" lon="-1.47364">
        <ele>29</ele>
        <time>2022-08-29T19:08:29.854Z</time>
      </trkpt>
      <trkpt lat="47.16791" lon="-1.47367">
        <ele>29</ele>
        <time>2022-08-29T19:08:30.888Z</time>
      </trkpt>
      <trkpt lat="47.1679" lon="-1.47373">
        <ele>29</ele>
        <time>2022-08-29T19:08:31.922Z</time>
      </trkpt>
      <trkpt lat="47.16788" lon="-1.47424">
        <ele>29</ele>
        <time>2022-08-29T19:08:32.962Z</time>
      </trkpt>
      <trkpt lat="47.16788" lon="-1.47445">
        <ele>29</ele>
        <time>2022-08-29T19:08:34.004Z</time>
      </trkpt>
      <trkpt lat="47.16788" lon="-1.4745">
        <ele>29</ele>
        <time>2022-08-29T19:08:35.047Z</time>
      </trkpt>
      <trkpt lat="47.1679" lon="-1.47467">
        <ele>28</ele>
        <time>2022-08-29T19:08:36.092Z</time>
      </trkpt>
      <trkpt lat="47.16795" lon="-1.47511">
        <ele>27</ele>
        <time>2022-08-29T19:08:37.141Z</time>
      </trkpt>
      <trkpt lat="47.16801" lon="-1.47576">
        <ele>26</ele>
        <time>2022-08-29T19:08:38.198Z</time>
      </trkpt>
      <trkpt lat="47.16929" lon="-1.47523">
        <ele>25</ele>
        <time>2022-08-29T19:08:39.276Z</time>
      </trkpt>
      <trkpt lat="47.1698" lon="-1.47504">
        <ele>24</ele>
        <time>2022-08-29T19:08:40.362Z</time>
      </trkpt>
      <trkpt lat="47.17048" lon="-1.47479">
        <ele>23</ele>
        <time>2022-08-29T19:08:41.460Z</time>
      </trkpt>
      <trkpt lat="47.17069" lon="-1.47468">
        <ele>22</ele>
        <time>2022-08-29T19:08:42.561Z</time>
      </trkpt>
      <trkpt lat="47.17069" lon="-1.47468">
        <ele>21</ele>
        <time>2022-08-29T19:08:43.662Z</time>
      </trkpt>
      <trkpt lat="47.1718" lon="-1.47427">
        <ele>19</ele>
        <time>2022-08-29T19:08:44.781Z</time>
      </trkpt>
      <trkpt lat="47.17198" lon="-1.47421">
        <ele>18</ele>
        <time>2022-08-29T19:08:45.903Z</time>
      </trkpt>
      <trkpt lat="47.17198" lon="-1.47421">
        <ele>17</ele>
        <time>2022-08-29T19:08:47.025Z</time>
      </trkpt>
      <trkpt lat="47.17238" lon="-1.47406">
        <ele>16</ele>
        <time>2022-08-29T19:08:48.154Z</time>
      </trkpt>
      <trkpt lat="47.17279" lon="-1.4739">
        <ele>15</ele>
        <time>2022-08-29T19:08:49.290Z</time>
      </trkpt>
      <trkpt lat="47.17292" lon="-1.47378">
        <ele>13</ele>
        <time>2022-08-29T19:08:50.428Z</time>
      </trkpt>
      <trkpt lat="47.17294" lon="-1.47372">
        <ele>12</ele>
        <time>2022-08-29T19:08:51.567Z</time>
      </trkpt>
      <trkpt lat="47.17302" lon="-1.47368">
        <ele>11</ele>
        <time>2022-08-29T19:08:52.707Z</time>
      </trkpt>
      <trkpt lat="47.17307" lon="-1.4737">
        <ele>11</ele>
        <time>2022-08-29T19:08:53.848Z</time>
      </trkpt>
      <trkpt lat="47.17309" lon="-1.47373">
        <ele>10</ele>
        <time>2022-08-29T19:08:54.990Z</time>
      </trkpt>
      <trkpt lat="47.17323" lon="-1.47376">
        <ele>9</ele>
        <time>2022-08-29T19:08:56.134Z</time>
      </trkpt>
      <trkpt lat="47.17375" lon="-1.47367">
        <ele>8</ele>
        <time>2022-08-29T19:08:57.286Z</time>
      </trkpt>
      <trkpt lat="47.17375" lon="-1.47367">
        <ele>8</ele>
        <time>2022-08-29T19:08:58.438Z</time>
      </trkpt>
      <trkpt lat="47.17403" lon="-1.47362">
        <ele>7</ele>
        <time>2022-08-29T19:08:59.595Z</time>
      </trkpt>
      <trkpt lat="47.17447" lon="-1.47358">
        <ele>6</ele>
        <time>2022-08-29T19:09:00.759Z</time>
      </trkpt>
      <trkpt lat="47.17554" lon="-1.4736">
        <ele>6</ele>
        <time>2022-08-29T19:09:01.940Z</time>
      </trkpt>
      <trkpt lat="47.17554" lon="-1.4736">
        <ele>5</ele>
        <time>2022-08-29T19:09:03.121Z</time>
      </trkpt>
      <trkpt lat="47.17609" lon="-1.4737">
        <ele>5</ele>
        <time>2022-08-29T19:09:04.311Z</time>
      </trkpt>
      <trkpt lat="47.17634" lon="-1.47379">
        <ele>5</ele>
        <time>2022-08-29T19:09:05.505Z</time>
      </trkpt>
      <trkpt lat="47.17642" lon="-1.47383">
        <ele>4</ele>
        <time>2022-08-29T19:09:06.700Z</time>
      </trkpt>
      <trkpt lat="47.17754" lon="-1.47437">
        <ele>5</ele>
        <time>2022-08-29T19:09:07.914Z</time>
      </trkpt>
      <trkpt lat="47.17828" lon="-1.47469">
        <ele>5</ele>
        <time>2022-08-29T19:09:09.140Z</time>
      </trkpt>
      <trkpt lat="47.17864" lon="-1.47479">
        <ele>5</ele>
        <time>2022-08-29T19:09:10.372Z</time>
      </trkpt>
      <trkpt lat="47.17893" lon="-1.47476">
        <ele>5</ele>
        <time>2022-08-29T19:09:11.609Z</time>
      </trkpt>
      <trkpt lat="47.17898" lon="-1.47469">
        <ele>5</ele>
        <time>2022-08-29T19:09:12.847Z</time>
      </trkpt>
      <trkpt lat="47.17909" lon="-1.47466">
        <ele>6</ele>
        <time>2022-08-29T19:09:14.087Z</time>
      </trkpt>
      <trkpt lat="47.17913" lon="-1.47468">
        <ele>6</ele>
        <time>2022-08-29T19:09:15.328Z</time>
      </trkpt>
      <trkpt lat="47.17921" lon="-1.47476">
        <ele>6</ele>
        <time>2022-08-29T19:09:16.570Z</time>
      </trkpt>
      <trkpt lat="47.17923" lon="-1.47489">
        <ele>7</ele>
        <time>2022-08-29T19:09:17.814Z</time>
      </trkpt>
      <trkpt lat="47.17922" lon="-1.47496">
        <ele>8</ele>
        <time>2022-08-29T19:09:19.058Z</time>
      </trkpt>
      <trkpt lat="47.17926" lon="-1.47497">
        <ele>8</ele>
        <time>2022-08-29T19:09:20.303Z</time>
      </trkpt>
      <trkpt lat="47.17976" lon="-1.47509">
        <ele>9</ele>
        <time>2022-08-29T19:09:21.556Z</time>
      </trkpt>
      <trkpt lat="47.1806" lon="-1.4753">
        <ele>10</ele>
        <time>2022-08-29T19:09:22.823Z</time>
      </trkpt>
      <trkpt lat="47.18069" lon="-1.47532">
        <ele>11</ele>
        <time>2022-08-29T19:09:24.091Z</time>
      </trkpt>
      <trkpt lat="47.18088" lon="-1.47538">
        <ele>12</ele>
        <time>2022-08-29T19:09:25.362Z</time>
      </trkpt>
      <trkpt lat="47.18088" lon="-1.47538">
        <ele>13</ele>
        <time>2022-08-29T19:09:26.633Z</time>
      </trkpt>
      <trkpt lat="47.18243" lon="-1.47576">
        <ele>15</ele>
        <time>2022-08-29T19:09:27.929Z</time>
      </trkpt>
      <trkpt lat="47.18287" lon="-1.47588">
        <ele>16</ele>
        <time>2022-08-29T19:09:29.233Z</time>
      </trkpt>
      <trkpt lat="47.18295" lon="-1.4759">
        <ele>17</ele>
        <time>2022-08-29T19:09:30.538Z</time>
      </trkpt>
      <trkpt lat="47.18318" lon="-1.47597">
        <ele>19</ele>
        <time>2022-08-29T19:09:31.847Z</time>
      </trkpt>
      <trkpt lat="47.18408" lon="-1.4762">
        <ele>21</ele>
        <time>2022-08-29T19:09:33.170Z</time>
      </trkpt>
      <trkpt lat="47.18588" lon="-1.47667">
        <ele>22</ele>
        <time>2022-08-29T19:09:34.523Z</time>
      </trkpt>
      <trkpt lat="47.18588" lon="-1.47667">
        <ele>24</ele>
        <time>2022-08-29T19:09:35.876Z</time>
      </trkpt>
      <trkpt lat="47.18593" lon="-1.47669">
        <ele>25</ele>
        <time>2022-08-29T19:09:37.229Z</time>
      </trkpt>
      <trkpt lat="47.18618" lon="-1.47675">
        <ele>26</ele>
        <time>2022-08-29T19:09:38.587Z</time>
      </trkpt>
      <trkpt lat="47.18694" lon="-1.47693">
        <ele>28</ele>
        <time>2022-08-29T19:09:39.957Z</time>
      </trkpt>
      <trkpt lat="47.18708" lon="-1.47681">
        <ele>29</ele>
        <time>2022-08-29T19:09:41.330Z</time>
      </trkpt>
      <trkpt lat="47.18717" lon="-1.47662">
        <ele>30</ele>
        <time>2022-08-29T19:09:42.705Z</time>
      </trkpt>
      <trkpt lat="47.1875" lon="-1.47592">
        <ele>31</ele>
        <time>2022-08-29T19:09:44.089Z</time>
      </trkpt>
      <trkpt lat="47.18821" lon="-1.47445">
        <ele>32</ele>
        <time>2022-08-29T19:09:45.493Z</time>
      </trkpt>
      <trkpt lat="47.1885" lon="-1.47384">
        <ele>33</ele>
        <time>2022-08-29T19:09:46.905Z</time>
      </trkpt>
      <trkpt lat="47.18898" lon="-1.47287">
        <ele>34</ele>
        <time>2022-08-29T19:09:48.330Z</time>
      </trkpt>
      <trkpt lat="47.18911" lon="-1.47261">
        <ele>34</ele>
        <time>2022-08-29T19:09:49.759Z</time>
      </trkpt>
      <trkpt lat="47.18932" lon="-1.47228">
        <ele>34</ele>
        <time>2022-08-29T19:09:51.193Z</time>
      </trkpt>
      <trkpt lat="47.18939" lon="-1.47217">
        <ele>35</ele>
        <time>2022-08-29T19:09:52.628Z</time>
      </trkpt>
      <trkpt lat="47.18935" lon="-1.47214">
        <ele>35</ele>
        <time>2022-08-29T19:09:54.064Z</time>
      </trkpt>
      <trkpt lat="47.18931" lon="-1.47206">
        <ele>35</ele>
        <time>2022-08-29T19:09:55.501Z</time>
      </trkpt>
      <trkpt lat="47.18931" lon="-1.47195">
        <ele>35</ele>
        <time>2022-08-29T19:09:56.939Z</time>
      </trkpt>
      <trkpt lat="47.18933" lon="-1.47186">
        <ele>35</ele>
        <time>2022-08-29T19:09:58.378Z</time>
      </trkpt>
      <trkpt lat="47.18935" lon="-1.47181">
        <ele>35</ele>
        <time>2022-08-29T19:09:59.818Z</time>
      </trkpt>
      <trkpt lat="47.1894" lon="-1.47178">
        <ele>35</ele>
        <time>2022-08-29T19:10:01.259Z</time>
      </trkpt>
      <trkpt lat="47.18947" lon="-1.47177">
        <ele>35</ele>
        <time>2022-08-29T19:10:02.701Z</time>
      </trkpt>
      <trkpt lat="47.18952" lon="-1.4718">
        <ele>35</ele>
        <time>2022-08-29T19:10:04.144Z</time>
      </trkpt>
      <trkpt lat="47.18955" lon="-1.4717">
        <ele>35</ele>
        <time>2022-08-29T19:10:05.588Z</time>
      </trkpt>
      <trkpt lat="47.18956" lon="-1.47167">
        <ele>34</ele>
        <time>2022-08-29T19:10:07.032Z</time>
      </trkpt>
      <trkpt lat="47.18964" lon="-1.47154">
        <ele>34</ele>
        <time>2022-08-29T19:10:08.478Z</time>
      </trkpt>
      <trkpt lat="47.19106" lon="-1.46848">
        <ele>34</ele>
        <time>2022-08-29T19:10:09.965Z</time>
      </trkpt>
      <trkpt lat="47.19111" lon="-1.46839">
        <ele>34</ele>
        <time>2022-08-29T19:10:11.453Z</time>
      </trkpt>
      <trkpt lat="47.19191" lon="-1.46671">
        <ele>33</ele>
        <time>2022-08-29T19:10:12.963Z</time>
      </trkpt>
      <trkpt lat="47.19191" lon="-1.46671">
        <ele>33</ele>
        <time>2022-08-29T19:10:14.473Z</time>
      </trkpt>
      <trkpt lat="47.19309" lon="-1.46422">
        <ele>33</ele>
        <time>2022-08-29T19:10:16.017Z</time>
      </trkpt>
      <trkpt lat="47.19331" lon="-1.46377">
        <ele>33</ele>
        <time>2022-08-29T19:10:17.567Z</time>
      </trkpt>
      <trkpt lat="47.19333" lon="-1.46366">
        <ele>33</ele>
        <time>2022-08-29T19:10:19.118Z</time>
      </trkpt>
      <trkpt lat="47.19349" lon="-1.46325">
        <ele>32</ele>
        <time>2022-08-29T19:10:20.674Z</time>
      </trkpt>
      <trkpt lat="47.19352" lon="-1.4631">
        <ele>32</ele>
        <time>2022-08-29T19:10:22.232Z</time>
      </trkpt>
      <trkpt lat="47.19352" lon="-1.46305">
        <ele>32</ele>
        <time>2022-08-29T19:10:23.790Z</time>
      </trkpt>
      <trkpt lat="47.19353" lon="-1.46298">
        <ele>32</ele>
        <time>2022-08-29T19:10:25.349Z</time>
      </trkpt>
      <trkpt lat="47.19359" lon="-1.46289">
        <ele>31</ele>
        <time>2022-08-29T19:10:26.909Z</time>
      </trkpt>
      <trkpt lat="47.19366" lon="-1.46286">
        <ele>31</ele>
        <time>2022-08-29T19:10:28.471Z</time>
      </trkpt>
      <trkpt lat="47.1937" lon="-1.46288">
        <ele>31</ele>
        <time>2022-08-29T19:10:30.033Z</time>
      </trkpt>
      <trkpt lat="47.19375" lon="-1.46292">
        <ele>31</ele>
        <time>2022-08-29T19:10:31.596Z</time>
      </trkpt>
      <trkpt lat="47.19377" lon="-1.46298">
        <ele>30</ele>
        <time>2022-08-29T19:10:33.160Z</time>
      </trkpt>
      <trkpt lat="47.19378" lon="-1.46306">
        <ele>30</ele>
        <time>2022-08-29T19:10:34.725Z</time>
      </trkpt>
      <trkpt lat="47.19377" lon="-1.46313">
        <ele>30</ele>
        <time>2022-08-29T19:10:36.291Z</time>
      </trkpt>
      <trkpt lat="47.19384" lon="-1.46317">
        <ele>29</ele>
        <time>2022-08-29T19:10:37.858Z</time>
      </trkpt>
      <trkpt lat="47.19384" lon="-1.46317">
        <ele>29</ele>
        <time>2022-08-29T19:10:39.425Z</time>
      </trkpt>
      <trkpt lat="47.19612" lon="-1.46426">
        <ele>28</ele>
        <time>2022-08-29T19:10:41.030Z</time>
      </trkpt>
      <trkpt lat="47.19686" lon="-1.46462">
        <ele>28</ele>
        <time>2022-08-29T19:10:42.648Z</time>
      </trkpt>
      <trkpt lat="47.19738" lon="-1.46487">
        <ele>27</ele>
        <time>2022-08-29T19:10:44.274Z</time>
      </trkpt>
      <trkpt lat="47.19738" lon="-1.46487">
        <ele>26</ele>
        <time>2022-08-29T19:10:45.900Z</time>
      </trkpt>
      <trkpt lat="47.19859" lon="-1.46545">
        <ele>25</ele>
        <time>2022-08-29T19:10:47.547Z</time>
      </trkpt>
      <trkpt lat="47.19959" lon="-1.46589">
        <ele>25</ele>
        <time>2022-08-29T19:10:49.211Z</time>
      </trkpt>
      <trkpt lat="47.19999" lon="-1.46606">
        <ele>24</ele>
        <time>2022-08-29T19:10:50.881Z</time>
      </trkpt>
      <trkpt lat="47.20087" lon="-1.46643">
        <ele>24</ele>
        <time>2022-08-29T19:10:52.566Z</time>
      </trkpt>
      <trkpt lat="47.20097" lon="-1.46649">
        <ele>23</ele>
        <time>2022-08-29T19:10:54.253Z</time>
      </trkpt>
      <trkpt lat="47.20113" lon="-1.46665">
        <ele>23</ele>
        <time>2022-08-29T19:10:55.943Z</time>
      </trkpt>
      <trkpt lat="47.20114" lon="-1.46662">
        <ele>22</ele>
        <time>2022-08-29T19:10:57.633Z</time>
      </trkpt>
      <trkpt lat="47.20119" lon="-1.46658">
        <ele>22</ele>
        <time>2022-08-29T19:10:59.324Z</time>
      </trkpt>
      <trkpt lat="47.20125" lon="-1.46659">
        <ele>22</ele>
        <time>2022-08-29T19:11:01.016Z</time>
      </trkpt>
      <trkpt lat="47.20128" lon="-1.46664">
        <ele>21</ele>
        <time>2022-08-29T19:11:02.709Z</time>
      </trkpt>
      <trkpt lat="47.20128" lon="-1.46673">
        <ele>21</ele>
        <time>2022-08-29T19:11:04.403Z</time>
      </trkpt>
      <trkpt lat="47.20139" lon="-1.46676">
        <ele>21</ele>
        <time>2022-08-29T19:11:06.098Z</time>
      </trkpt>
      <trkpt lat="47.2016" lon="-1.46676">
        <ele>21</ele>
        <time>2022-08-29T19:11:07.797Z</time>
      </trkpt>
      <trkpt lat="47.20222" lon="-1.46695">
        <ele>20</ele>
        <time>2022-08-29T19:11:09.506Z</time>
      </trkpt>
      <trkpt lat="47.20222" lon="-1.46695">
        <ele>20</ele>
        <time>2022-08-29T19:11:11.215Z</time>
      </trkpt>
      <trkpt lat="47.20227" lon="-1.46696">
        <ele>20</ele>
        <time>2022-08-29T19:11:12.925Z</time>
      </trkpt>
      <trkpt lat="47.20237" lon="-1.46699">
        <ele>20</ele>
        <time>2022-08-29T19:11:14.636Z</time>
      </trkpt>
      <trkpt lat="47.20324" lon="-1.46712">
        <ele>20</ele>
        <time>2022-08-29T19:11:16.361Z</time>
      </trkpt>
      <trkpt lat="47.20462" lon="-1.4673">
        <ele>21</ele>
        <time>2022-08-29T19:11:18.108Z</time>
      </trkpt>
      <trkpt lat="47.20489" lon="-1.46734">
        <ele>21</ele>
        <time>2022-08-29T19:11:19.860Z</time>
      </trkpt>
      <trkpt lat="47.20539" lon="-1.46742">
        <ele>21</ele>
        <time>2022-08-29T19:11:21.620Z</time>
      </trkpt>
      <trkpt lat="47.20551" lon="-1.46743">
        <ele>21</ele>
        <time>2022-08-29T19:11:23.382Z</time>
      </trkpt>
      <trkpt lat="47.20586" lon="-1.46737">
        <ele>21</ele>
        <time>2022-08-29T19:11:25.149Z</time>
      </trkpt>
      <trkpt lat="47.20695" lon="-1.46719">
        <ele>21</ele>
        <time>2022-08-29T19:11:26.934Z</time>
      </trkpt>
      <trkpt lat="47.20749" lon="-1.4671">
        <ele>22</ele>
        <time>2022-08-29T19:11:28.728Z</time>
      </trkpt>
      <trkpt lat="47.20848" lon="-1.46695">
        <ele>22</ele>
        <time>2022-08-29T19:11:30.538Z</time>
      </trkpt>
      <trkpt lat="47.20847" lon="-1.46692">
        <ele>22</ele>
        <time>2022-08-29T19:11:32.348Z</time>
      </trkpt>
      <trkpt lat="47.2085" lon="-1.46685">
        <ele>22</ele>
        <time>2022-08-29T19:11:34.159Z</time>
      </trkpt>
      <trkpt lat="47.20854" lon="-1.4668">
        <ele>22</ele>
        <time>2022-08-29T19:11:35.971Z</time>
      </trkpt>
      <trkpt lat="47.20857" lon="-1.4668">
        <ele>22</ele>
        <time>2022-08-29T19:11:37.783Z</time>
      </trkpt>
      <trkpt lat="47.20862" lon="-1.46684">
        <ele>22</ele>
        <time>2022-08-29T19:11:39.596Z</time>
      </trkpt>
      <trkpt lat="47.20864" lon="-1.4669">
        <ele>22</ele>
        <time>2022-08-29T19:11:41.410Z</time>
      </trkpt>
      <trkpt lat="47.2089" lon="-1.46683">
        <ele>23</ele>
        <time>2022-08-29T19:11:43.228Z</time>
      </trkpt>
      <trkpt lat="47.2092" lon="-1.46663">
        <ele>23</ele>
        <time>2022-08-29T19:11:45.051Z</time>
      </trkpt>
      <trkpt lat="47.20942" lon="-1.46644">
        <ele>23</ele>
        <time>2022-08-29T19:11:46.879Z</time>
      </trkpt>
      <trkpt lat="47.20945" lon="-1.46643">
        <ele>23</ele>
        <time>2022-08-29T19:11:48.707Z</time>
      </trkpt>
      <trkpt lat="47.20959" lon="-1.46634">
        <ele>23</ele>
        <time>2022-08-29T19:11:50.537Z</time>
      </trkpt>
      <trkpt lat="47.21045" lon="-1.46611">
        <ele>23</ele>
        <time>2022-08-29T19:11:52.381Z</time>
      </trkpt>
      <trkpt lat="47.21046" lon="-1.46604">
        <ele>23</ele>
        <time>2022-08-29T19:11:54.226Z</time>
      </trkpt>
      <trkpt lat="47.21053" lon="-1.46596">
        <ele>23</ele>
        <time>2022-08-29T19:11:56.073Z</time>
      </trkpt>
      <trkpt lat="47.21056" lon="-1.46586">
        <ele>23</ele>
        <time>2022-08-29T19:11:57.921Z</time>
      </trkpt>
      <trkpt lat="47.21059" lon="-1.46575">
        <ele>23</ele>
        <time>2022-08-29T19:11:59.770Z</time>
      </trkpt>
      <trkpt lat="47.21069" lon="-1.46553">
        <ele>23</ele>
        <time>2022-08-29T19:12:01.622Z</time>
      </trkpt>
      <trkpt lat="47.21074" lon="-1.46544">
        <ele>23</ele>
        <time>2022-08-29T19:12:03.475Z</time>
      </trkpt>
      <trkpt lat="47.21082" lon="-1.4654">
        <ele>23</ele>
        <time>2022-08-29T19:12:05.329Z</time>
      </trkpt>
      <trkpt lat="47.21088" lon="-1.46539">
        <ele>23</ele>
        <time>2022-08-29T19:12:07.185Z</time>
      </trkpt>
      <trkpt lat="47.21099" lon="-1.46543">
        <ele>23</ele>
        <time>2022-08-29T19:12:09.042Z</time>
      </trkpt>
      <trkpt lat="47.21102" lon="-1.46547">
        <ele>23</ele>
        <time>2022-08-29T19:12:10.900Z</time>
      </trkpt>
      <trkpt lat="47.21102" lon="-1.46547">
        <ele>23</ele>
        <time>2022-08-29T19:12:12.758Z</time>
      </trkpt>
      <trkpt lat="47.21105" lon="-1.46553">
        <ele>23</ele>
        <time>2022-08-29T19:12:14.617Z</time>
      </trkpt>
      <trkpt lat="47.21119" lon="-1.46563">
        <ele>23</ele>
        <time>2022-08-29T19:12:16.478Z</time>
      </trkpt>
      <trkpt lat="47.21124" lon="-1.4657">
        <ele>23</ele>
        <time>2022-08-29T19:12:18.340Z</time>
      </trkpt>
      <trkpt lat="47.21126" lon="-1.46574">
        <ele>23</ele>
        <time>2022-08-29T19:12:20.203Z</time>
      </trkpt>
      <trkpt lat="47.21129" lon="-1.46578">
        <ele>23</ele>
        <time>2022-08-29T19:12:22.067Z</time>
      </trkpt>
      <trkpt lat="47.21135" lon="-1.46586">
        <ele>23</ele>
        <time>2022-08-29T19:12:23.932Z</time>
      </trkpt>
      <trkpt lat="47.21195" lon="-1.46618">
        <ele>23</ele>
        <time>2022-08-29T19:12:25.807Z</time>
      </trkpt>
      <trkpt lat="47.21228" lon="-1.46631">
        <ele>22</ele>
        <time>2022-08-29T19:12:27.687Z</time>
      </trkpt>
      <trkpt lat="47.21276" lon="-1.46636">
        <ele>22</ele>
        <time>2022-08-29T19:12:29.575Z</time>
      </trkpt>
      <trkpt lat="47.21292" lon="-1.4664">
        <ele>22</ele>
        <time>2022-08-29T19:12:31.466Z</time>
      </trkpt>
      <trkpt lat="47.21296" lon="-1.46639">
        <ele>21</ele>
        <time>2022-08-29T19:12:33.357Z</time>
      </trkpt>
      <trkpt lat="47.21299" lon="-1.46642">
        <ele>21</ele>
        <time>2022-08-29T19:12:35.249Z</time>
      </trkpt>
      <trkpt lat="47.21305" lon="-1.4664">
        <ele>21</ele>
        <time>2022-08-29T19:12:37.142Z</time>
      </trkpt>
      <trkpt lat="47.21313" lon="-1.46639">
        <ele>20</ele>
        <time>2022-08-29T19:12:39.036Z</time>
      </trkpt>
      <trkpt lat="47.21346" lon="-1.4664">
        <ele>19</ele>
        <time>2022-08-29T19:12:40.936Z</time>
      </trkpt>
      <trkpt lat="47.21416" lon="-1.46642">
        <ele>19</ele>
        <time>2022-08-29T19:12:42.847Z</time>
      </trkpt>
      <trkpt lat="47.21431" lon="-1.46641">
        <ele>18</ele>
        <time>2022-08-29T19:12:44.760Z</time>
      </trkpt>
      <trkpt lat="47.21431" lon="-1.46641">
        <ele>17</ele>
        <time>2022-08-29T19:12:46.673Z</time>
      </trkpt>
      <trkpt lat="47.21455" lon="-1.46632">
        <ele>16</ele>
        <time>2022-08-29T19:12:48.590Z</time>
      </trkpt>
      <trkpt lat="47.21505" lon="-1.46592">
        <ele>15</ele>
        <time>2022-08-29T19:12:50.516Z</time>
      </trkpt>
      <trkpt lat="47.2151" lon="-1.46586">
        <ele>15</ele>
        <time>2022-08-29T19:12:52.443Z</time>
      </trkpt>
      <trkpt lat="47.21514" lon="-1.46577">
        <ele>14</ele>
        <time>2022-08-29T19:12:54.371Z</time>
      </trkpt>
      <trkpt lat="47.21531" lon="-1.46555">
        <ele>13</ele>
        <time>2022-08-29T19:12:56.303Z</time>
      </trkpt>
      <trkpt lat="47.21547" lon="-1.46545">
        <ele>12</ele>
        <time>2022-08-29T19:12:58.238Z</time>
      </trkpt>
      <trkpt lat="47.21558" lon="-1.46542">
        <ele>11</ele>
        <time>2022-08-29T19:13:00.175Z</time>
      </trkpt>
      <trkpt lat="47.21575" lon="-1.46539">
        <ele>10</ele>
        <time>2022-08-29T19:13:02.114Z</time>
      </trkpt>
      <trkpt lat="47.21595" lon="-1.46537">
        <ele>9</ele>
        <time>2022-08-29T19:13:04.057Z</time>
      </trkpt>
      <trkpt lat="47.21613" lon="-1.46536">
        <ele>9</ele>
        <time>2022-08-29T19:13:06.003Z</time>
      </trkpt>
      <trkpt lat="47.21645" lon="-1.46536">
        <ele>8</ele>
        <time>2022-08-29T19:13:07.954Z</time>
      </trkpt>
      <trkpt lat="47.21646" lon="-1.46517">
        <ele>7</ele>
        <time>2022-08-29T19:13:09.907Z</time>
      </trkpt>
      <trkpt lat="47.21648" lon="-1.46485">
        <ele>6</ele>
        <time>2022-08-29T19:13:11.863Z</time>
      </trkpt>
      <trkpt lat="47.21649" lon="-1.46468">
        <ele>6</ele>
        <time>2022-08-29T19:13:13.821Z</time>
      </trkpt>
      <trkpt lat="47.21657" lon="-1.46459">
        <ele>5</ele>
        <time>2022-08-29T19:13:15.781Z</time>
      </trkpt>
      <trkpt lat="47.21661" lon="-1.46423">
        <ele>5</ele>
        <time>2022-08-29T19:13:17.745Z</time>
      </trkpt>
      <trkpt lat="47.21669" lon="-1.46322">
        <ele>5</ele>
        <time>2022-08-29T19:13:19.720Z</time>
      </trkpt>
      <trkpt lat="47.21673" lon="-1.46262">
        <ele>4</ele>
        <time>2022-08-29T19:13:21.701Z</time>
      </trkpt>
      <trkpt lat="47.21672" lon="-1.46228">
        <ele>4</ele>
        <time>2022-08-29T19:13:23.686Z</time>
      </trkpt>
      <trkpt lat="47.2167" lon="-1.46217">
        <ele>4</ele>
        <time>2022-08-29T19:13:25.672Z</time>
      </trkpt>
      <trkpt lat="47.21666" lon="-1.46205">
        <ele>4</ele>
        <time>2022-08-29T19:13:27.660Z</time>
      </trkpt>
      <trkpt lat="47.21663" lon="-1.46199">
        <ele>4</ele>
        <time>2022-08-29T19:13:29.649Z</time>
      </trkpt>
      <trkpt lat="47.21662" lon="-1.46191">
        <ele>4</ele>
        <time>2022-08-29T19:13:31.638Z</time>
      </trkpt>
      <trkpt lat="47.21664" lon="-1.46185">
        <ele>4</ele>
        <time>2022-08-29T19:13:33.628Z</time>
      </trkpt>
      <trkpt lat="47.21667" lon="-1.4618">
        <ele>4</ele>
        <time>2022-08-29T19:13:35.619Z</time>
      </trkpt>
      <trkpt lat="47.21672" lon="-1.46179">
        <ele>4</ele>
        <time>2022-08-29T19:13:37.611Z</time>
      </trkpt>
      <trkpt lat="47.21678" lon="-1.46184">
        <ele>4</ele>
        <time>2022-08-29T19:13:39.604Z</time>
      </trkpt>
      <trkpt lat="47.2168" lon="-1.46188">
        <ele>4</ele>
        <time>2022-08-29T19:13:41.597Z</time>
      </trkpt>
      <trkpt lat="47.21688" lon="-1.46179">
        <ele>4</ele>
        <time>2022-08-29T19:13:43.592Z</time>
      </trkpt>
      <trkpt lat="47.21691" lon="-1.46174">
        <ele>4</ele>
        <time>2022-08-29T19:13:45.588Z</time>
      </trkpt>
      <trkpt lat="47.21709" lon="-1.46123">
        <ele>4</ele>
        <time>2022-08-29T19:13:47.590Z</time>
      </trkpt>
      <trkpt lat="47.21797" lon="-1.46171">
        <ele>4</ele>
        <time>2022-08-29T19:13:49.607Z</time>
      </trkpt>
      <trkpt lat="47.21964" lon="-1.46257">
        <ele>4</ele>
        <time>2022-08-29T19:13:51.652Z</time>
      </trkpt>
      <trkpt lat="47.21982" lon="-1.46266">
        <ele>4</ele>
        <time>2022-08-29T19:13:53.700Z</time>
      </trkpt>
      <trkpt lat="47.21982" lon="-1.46266">
        <ele>4</ele>
        <time>2022-08-29T19:13:55.748Z</time>
      </trkpt>
      <trkpt lat="47.21985" lon="-1.46268">
        <ele>4</ele>
        <time>2022-08-29T19:13:57.797Z</time>
      </trkpt>
      <trkpt lat="47.22155" lon="-1.46354">
        <ele>4</ele>
        <time>2022-08-29T19:13:59.875Z</time>
      </trkpt>
      <trkpt lat="47.22323" lon="-1.46441">
        <ele>4</ele>
        <time>2022-08-29T19:14:01.981Z</time>
      </trkpt>
      <trkpt lat="47.22339" lon="-1.46455">
        <ele>4</ele>
        <time>2022-08-29T19:14:04.090Z</time>
      </trkpt>
      <trkpt lat="47.22365" lon="-1.46484">
        <ele>4</ele>
        <time>2022-08-29T19:14:06.204Z</time>
      </trkpt>
      <trkpt lat="47.22483" lon="-1.46641">
        <ele>4</ele>
        <time>2022-08-29T19:14:08.344Z</time>
      </trkpt>
      <trkpt lat="47.22495" lon="-1.46655">
        <ele>5</ele>
        <time>2022-08-29T19:14:10.486Z</time>
      </trkpt>
      <trkpt lat="47.22511" lon="-1.46676">
        <ele>5</ele>
        <time>2022-08-29T19:14:12.632Z</time>
      </trkpt>
      <trkpt lat="47.22519" lon="-1.46684">
        <ele>5</ele>
        <time>2022-08-29T19:14:14.779Z</time>
      </trkpt>
      <trkpt lat="47.22531" lon="-1.4669">
        <ele>5</ele>
        <time>2022-08-29T19:14:16.928Z</time>
      </trkpt>
      <trkpt lat="47.22541" lon="-1.46691">
        <ele>5</ele>
        <time>2022-08-29T19:14:19.079Z</time>
      </trkpt>
      <trkpt lat="47.22542" lon="-1.46703">
        <ele>4</ele>
        <time>2022-08-29T19:14:21.231Z</time>
      </trkpt>
      <trkpt lat="47.22549" lon="-1.46722">
        <ele>4</ele>
        <time>2022-08-29T19:14:23.386Z</time>
      </trkpt>
      <trkpt lat="47.22562" lon="-1.4674">
        <ele>4</ele>
        <time>2022-08-29T19:14:25.543Z</time>
      </trkpt>
      <trkpt lat="47.22579" lon="-1.4676">
        <ele>4</ele>
        <time>2022-08-29T19:14:27.704Z</time>
      </trkpt>
      <trkpt lat="47.22618" lon="-1.46787">
        <ele>5</ele>
        <time>2022-08-29T19:14:29.872Z</time>
      </trkpt>
      <trkpt lat="47.22629" lon="-1.46799">
        <ele>4</ele>
        <time>2022-08-29T19:14:32.042Z</time>
      </trkpt>
      <trkpt lat="47.22631" lon="-1.46807">
        <ele>4</ele>
        <time>2022-08-29T19:14:34.213Z</time>
      </trkpt>
      <trkpt lat="47.22631" lon="-1.46817">
        <ele>4</ele>
        <time>2022-08-29T19:14:36.385Z</time>
      </trkpt>
      <trkpt lat="47.22627" lon="-1.46833">
        <ele>4</ele>
        <time>2022-08-29T19:14:38.559Z</time>
      </trkpt>
      <trkpt lat="47.22613" lon="-1.46855">
        <ele>4</ele>
        <time>2022-08-29T19:14:40.736Z</time>
      </trkpt>
      <trkpt lat="47.22606" lon="-1.46871">
        <ele>4</ele>
        <time>2022-08-29T19:14:42.915Z</time>
      </trkpt>
      <trkpt lat="47.22606" lon="-1.46995">
        <ele>4</ele>
        <time>2022-08-29T19:14:45.108Z</time>
      </trkpt>
      <trkpt lat="47.22601" lon="-1.47029">
        <ele>4</ele>
        <time>2022-08-29T19:14:47.304Z</time>
      </trkpt>
      <trkpt lat="47.22595" lon="-1.47048">
        <ele>4</ele>
        <time>2022-08-29T19:14:49.503Z</time>
      </trkpt>
      <trkpt lat="47.22584" lon="-1.47072">
        <ele>4</ele>
        <time>2022-08-29T19:14:51.705Z</time>
      </trkpt>
      <trkpt lat="47.22567" lon="-1.47092">
        <ele>4</ele>
        <time>2022-08-29T19:14:53.910Z</time>
      </trkpt>
      <trkpt lat="47.22526" lon="-1.4712">
        <ele>4</ele>
        <time>2022-08-29T19:14:56.123Z</time>
      </trkpt>
      <trkpt lat="47.22524" lon="-1.47122">
        <ele>4</ele>
        <time>2022-08-29T19:14:58.336Z</time>
      </trkpt>
      <trkpt lat="47.22524" lon="-1.4713">
        <ele>4</ele>
        <time>2022-08-29T19:15:00.550Z</time>
      </trkpt>
      <trkpt lat="47.22567" lon="-1.4712">
        <ele>4</ele>
        <time>2022-08-29T19:15:02.771Z</time>
      </trkpt>
      <trkpt lat="47.22586" lon="-1.47108">
        <ele>4</ele>
        <time>2022-08-29T19:15:04.995Z</time>
      </trkpt>
      <trkpt lat="47.22602" lon="-1.4709">
        <ele>4</ele>
        <time>2022-08-29T19:15:07.222Z</time>
      </trkpt>
      <trkpt lat="47.22627" lon="-1.47043">
        <ele>4</ele>
        <time>2022-08-29T19:15:09.456Z</time>
      </trkpt>
      <trkpt lat="47.22639" lon="-1.47024">
        <ele>4</ele>
        <time>2022-08-29T19:15:11.693Z</time>
      </trkpt>
      <trkpt lat="47.22652" lon="-1.47009">
        <ele>4</ele>
        <time>2022-08-29T19:15:13.932Z</time>
      </trkpt>
      <trkpt lat="47.22668" lon="-1.46993">
        <ele>4</ele>
        <time>2022-08-29T19:15:16.175Z</time>
      </trkpt>
      <trkpt lat="47.22689" lon="-1.46978">
        <ele>4</ele>
        <time>2022-08-29T19:15:18.421Z</time>
      </trkpt>
      <trkpt lat="47.227" lon="-1.46972">
        <ele>4</ele>
        <time>2022-08-29T19:15:20.669Z</time>
      </trkpt>
      <trkpt lat="47.22724" lon="-1.46962">
        <ele>4</ele>
        <time>2022-08-29T19:15:22.921Z</time>
      </trkpt>
      <trkpt lat="47.22744" lon="-1.46957">
        <ele>4</ele>
        <time>2022-08-29T19:15:25.176Z</time>
      </trkpt>
      <trkpt lat="47.2276" lon="-1.46956">
        <ele>5</ele>
        <time>2022-08-29T19:15:27.434Z</time>
      </trkpt>
      <trkpt lat="47.2276" lon="-1.46948">
        <ele>5</ele>
        <time>2022-08-29T19:15:29.693Z</time>
      </trkpt>
      <trkpt lat="47.22763" lon="-1.46937">
        <ele>5</ele>
        <time>2022-08-29T19:15:31.953Z</time>
      </trkpt>
      <trkpt lat="47.2277" lon="-1.4693">
        <ele>5</ele>
        <time>2022-08-29T19:15:34.214Z</time>
      </trkpt>
      <trkpt lat="47.22779" lon="-1.46929">
        <ele>5</ele>
        <time>2022-08-29T19:15:36.477Z</time>
      </trkpt>
      <trkpt lat="47.22883" lon="-1.46974">
        <ele>5</ele>
        <time>2022-08-29T19:15:38.757Z</time>
      </trkpt>
      <trkpt lat="47.22912" lon="-1.46982">
        <ele>5</ele>
        <time>2022-08-29T19:15:41.042Z</time>
      </trkpt>
      <trkpt lat="47.22959" lon="-1.46985">
        <ele>5</ele>
        <time>2022-08-29T19:15:43.335Z</time>
      </trkpt>
      <trkpt lat="47.22974" lon="-1.46988">
        <ele>5</ele>
        <time>2022-08-29T19:15:45.630Z</time>
      </trkpt>
      <trkpt lat="47.22992" lon="-1.46996">
        <ele>5</ele>
        <time>2022-08-29T19:15:47.928Z</time>
      </trkpt>
      <trkpt lat="47.23012" lon="-1.47007">
        <ele>5</ele>
        <time>2022-08-29T19:15:50.229Z</time>
      </trkpt>
      <trkpt lat="47.23029" lon="-1.47019">
        <ele>5</ele>
        <time>2022-08-29T19:15:52.533Z</time>
      </trkpt>
      <trkpt lat="47.23044" lon="-1.47034">
        <ele>5</ele>
        <time>2022-08-29T19:15:54.840Z</time>
      </trkpt>
      <trkpt lat="47.23068" lon="-1.47072">
        <ele>5</ele>
        <time>2022-08-29T19:15:57.153Z</time>
      </trkpt>
      <trkpt lat="47.23089" lon="-1.47112">
        <ele>5</ele>
        <time>2022-08-29T19:15:59.471Z</time>
      </trkpt>
      <trkpt lat="47.23089" lon="-1.47112">
        <ele>5</ele>
        <time>2022-08-29T19:16:01.789Z</time>
      </trkpt>
      <trkpt lat="47.23101" lon="-1.47131">
        <ele>4</ele>
        <time>2022-08-29T19:16:04.110Z</time>
      </trkpt>
      <trkpt lat="47.23114" lon="-1.47128">
        <ele>4</ele>
        <time>2022-08-29T19:16:06.433Z</time>
      </trkpt>
      <trkpt lat="47.23133" lon="-1.47102">
        <ele>4</ele>
        <time>2022-08-29T19:16:08.760Z</time>
      </trkpt>
      <trkpt lat="47.23135" lon="-1.47095">
        <ele>4</ele>
        <time>2022-08-29T19:16:11.088Z</time>
      </trkpt>
      <trkpt lat="47.23135" lon="-1.47086">
        <ele>4</ele>
        <time>2022-08-29T19:16:13.417Z</time>
      </trkpt>
      <trkpt lat="47.23127" lon="-1.47069">
        <ele>4</ele>
        <time>2022-08-29T19:16:15.749Z</time>
      </trkpt>
      <trkpt lat="47.23127" lon="-1.47069">
        <ele>4</ele>
        <time>2022-08-29T19:16:18.081Z</time>
      </trkpt>
      <trkpt lat="47.23087" lon="-1.4699">
        <ele>5</ele>
        <time>2022-08-29T19:16:20.423Z</time>
      </trkpt>
      <trkpt lat="47.23079" lon="-1.46987">
        <ele>5</ele>
        <time>2022-08-29T19:16:22.767Z</time>
      </trkpt>
      <trkpt lat="47.23077" lon="-1.46988">
        <ele>5</ele>
        <time>2022-08-29T19:16:25.111Z</time>
      </trkpt>
      <trkpt lat="47.23074" lon="-1.46994">
        <ele>5</ele>
        <time>2022-08-29T19:16:27.456Z</time>
      </trkpt>
      <trkpt lat="47.23074" lon="-1.46999">
        <ele>5</ele>
        <time>2022-08-29T19:16:29.801Z</time>
      </trkpt>
      <trkpt lat="47.23104" lon="-1.47052">
        <ele>5</ele>
        <time>2022-08-29T19:16:32.154Z</time>
      </trkpt>
      <trkpt lat="47.23116" lon="-1.47077">
        <ele>5</ele>
        <time>2022-08-29T19:16:34.510Z</time>
      </trkpt>
      <trkpt lat="47.23354" lon="-1.47489">
        <ele>6</ele>
        <time>2022-08-29T19:16:36.925Z</time>
      </trkpt>
      <trkpt lat="47.23437" lon="-1.47611">
        <ele>5</ele>
        <time>2022-08-29T19:16:39.359Z</time>
      </trkpt>
      <trkpt lat="47.23462" lon="-1.47645">
        <ele>6</ele>
        <time>2022-08-29T19:16:41.798Z</time>
      </trkpt>
      <trkpt lat="47.23474" lon="-1.47657">
        <ele>6</ele>
        <time>2022-08-29T19:16:44.240Z</time>
      </trkpt>
      <trkpt lat="47.23524" lon="-1.47693">
        <ele>6</ele>
        <time>2022-08-29T19:16:46.690Z</time>
      </trkpt>
      <trkpt lat="47.23542" lon="-1.47704">
        <ele>6</ele>
        <time>2022-08-29T19:16:49.144Z</time>
      </trkpt>
      <trkpt lat="47.23549" lon="-1.47703">
        <ele>6</ele>
        <time>2022-08-29T19:16:51.599Z</time>
      </trkpt>
      <trkpt lat="47.23559" lon="-1.47695">
        <ele>6</ele>
        <time>2022-08-29T19:16:54.056Z</time>
      </trkpt>
      <trkpt lat="47.23569" lon="-1.47682">
        <ele>6</ele>
        <time>2022-08-29T19:16:56.515Z</time>
      </trkpt>
      <trkpt lat="47.23556" lon="-1.47662">
        <ele>6</ele>
        <time>2022-08-29T19:16:58.977Z</time>
      </trkpt>
      <trkpt lat="47.23556" lon="-1.47662">
        <ele>6</ele>
        <time>2022-08-29T19:17:01.439Z</time>
      </trkpt>
      <trkpt lat="47.23511" lon="-1.47593">
        <ele>6</ele>
        <time>2022-08-29T19:17:03.911Z</time>
      </trkpt>
      <trkpt lat="47.23511" lon="-1.47593">
        <ele>6</ele>
        <time>2022-08-29T19:17:06.383Z</time>
      </trkpt>
      <trkpt lat="47.23419" lon="-1.47447">
        <ele>6</ele>
        <time>2022-08-29T19:17:08.877Z</time>
      </trkpt>
      <trkpt lat="47.23417" lon="-1.47439">
        <ele>6</ele>
        <time>2022-08-29T19:17:11.372Z</time>
      </trkpt>
      <trkpt lat="47.23418" lon="-1.47436">
        <ele>7</ele>
        <time>2022-08-29T19:17:13.867Z</time>
      </trkpt>
      <trkpt lat="47.23424" lon="-1.47431">
        <ele>7</ele>
        <time>2022-08-29T19:17:16.363Z</time>
      </trkpt>
      <trkpt lat="47.23455" lon="-1.47414">
        <ele>7</ele>
        <time>2022-08-29T19:17:18.864Z</time>
      </trkpt>
      <trkpt lat="47.23469" lon="-1.47408">
        <ele>7</ele>
        <time>2022-08-29T19:17:21.368Z</time>
      </trkpt>
      <trkpt lat="47.23498" lon="-1.47391">
        <ele>7</ele>
        <time>2022-08-29T19:17:23.877Z</time>
      </trkpt>
      <trkpt lat="47.23533" lon="-1.47362">
        <ele>7</ele>
        <time>2022-08-29T19:17:26.392Z</time>
      </trkpt>
      <trkpt lat="47.23555" lon="-1.47344">
        <ele>7</ele>
        <time>2022-08-29T19:17:28.911Z</time>
      </trkpt>
      <trkpt lat="47.23587" lon="-1.47318">
        <ele>7</ele>
        <time>2022-08-29T19:17:31.436Z</time>
      </trkpt>
      <trkpt lat="47.23619" lon="-1.47286">
        <ele>7</ele>
        <time>2022-08-29T19:17:33.967Z</time>
      </trkpt>
      <trkpt lat="47.23682" lon="-1.47214">
        <ele>7</ele>
        <time>2022-08-29T19:17:36.511Z</time>
      </trkpt>
      <trkpt lat="47.23687" lon="-1.472">
        <ele>7</ele>
        <time>2022-08-29T19:17:39.057Z</time>
      </trkpt>
      <trkpt lat="47.23711" lon="-1.47166">
        <ele>7</ele>
        <time>2022-08-29T19:17:41.608Z</time>
      </trkpt>
      <trkpt lat="47.23731" lon="-1.4714">
        <ele>7</ele>
        <time>2022-08-29T19:17:44.163Z</time>
      </trkpt>
      <trkpt lat="47.23745" lon="-1.47127">
        <ele>7</ele>
        <time>2022-08-29T19:17:46.721Z</time>
      </trkpt>
      <trkpt lat="47.23861" lon="-1.46959">
        <ele>7</ele>
        <time>2022-08-29T19:17:49.305Z</time>
      </trkpt>
      <trkpt lat="47.23904" lon="-1.46904">
        <ele>7</ele>
        <time>2022-08-29T19:17:51.898Z</time>
      </trkpt>
      <trkpt lat="47.23928" lon="-1.46875">
        <ele>7</ele>
        <time>2022-08-29T19:17:54.496Z</time>
      </trkpt>
      <trkpt lat="47.23942" lon="-1.4686">
        <ele>7</ele>
        <time>2022-08-29T19:17:57.097Z</time>
      </trkpt>
      <trkpt lat="47.23982" lon="-1.46826">
        <ele>6</ele>
        <time>2022-08-29T19:17:59.705Z</time>
      </trkpt>
      <trkpt lat="47.24047" lon="-1.46755">
        <ele>6</ele>
        <time>2022-08-29T19:18:02.326Z</time>
      </trkpt>
      <trkpt lat="47.24062" lon="-1.46736">
        <ele>6</ele>
        <time>2022-08-29T19:18:04.951Z</time>
      </trkpt>
      <trkpt lat="47.24071" lon="-1.46733">
        <ele>6</ele>
        <time>2022-08-29T19:18:07.577Z</time>
      </trkpt>
      <trkpt lat="47.24078" lon="-1.46714">
        <ele>6</ele>
        <time>2022-08-29T19:18:10.205Z</time>
      </trkpt>
      <trkpt lat="47.24088" lon="-1.46701">
        <ele>6</ele>
        <time>2022-08-29T19:18:12.835Z</time>
      </trkpt>
      <trkpt lat="47.24106" lon="-1.46673">
        <ele>6</ele>
        <time>2022-08-29T19:18:15.470Z</time>
      </trkpt>
      <trkpt lat="47.24289" lon="-1.46435">
        <ele>6</ele>
        <time>2022-08-29T19:18:18.144Z</time>
      </trkpt>
      <trkpt lat="47.24304" lon="-1.46411">
        <ele>6</ele>
        <time>2022-08-29T19:18:20.821Z</time>
      </trkpt>
      <trkpt lat="47.24379" lon="-1.46283">
        <ele>6</ele>
        <time>2022-08-29T19:18:23.517Z</time>
      </trkpt>
      <trkpt lat="47.24437" lon="-1.46207">
        <ele>6</ele>
        <time>2022-08-29T19:18:26.225Z</time>
      </trkpt>
      <trkpt lat="47.24467" lon="-1.46169">
        <ele>6</ele>
        <time>2022-08-29T19:18:28.939Z</time>
      </trkpt>
      <trkpt lat="47.24505" lon="-1.4612">
        <ele>6</ele>
        <time>2022-08-29T19:18:31.662Z</time>
      </trkpt>
      <trkpt lat="47.24518" lon="-1.46103">
        <ele>6</ele>
        <time>2022-08-29T19:18:34.387Z</time>
      </trkpt>
      <trkpt lat="47.24528" lon="-1.46088">
        <ele>5</ele>
        <time>2022-08-29T19:18:37.115Z</time>
      </trkpt>
      <trkpt lat="47.24555" lon="-1.46038">
        <ele>6</ele>
        <time>2022-08-29T19:18:39.850Z</time>
      </trkpt>
      <trkpt lat="47.24564" lon="-1.46018">
        <ele>6</ele>
        <time>2022-08-29T19:18:42.587Z</time>
      </trkpt>
      <trkpt lat="47.24606" lon="-1.45929">
        <ele>6</ele>
        <time>2022-08-29T19:18:45.336Z</time>
      </trkpt>
      <trkpt lat="47.24621" lon="-1.45883">
        <ele>6</ele>
        <time>2022-08-29T19:18:48.091Z</time>
      </trkpt>
      <trkpt lat="47.24622" lon="-1.4588">
        <ele>6</ele>
        <time>2022-08-29T19:18:50.846Z</time>
      </trkpt>
      <trkpt lat="47.24622" lon="-1.4588">
        <ele>6</ele>
        <time>2022-08-29T19:18:53.601Z</time>
      </trkpt>
      <trkpt lat="47.24647" lon="-1.45797">
        <ele>5</ele>
        <time>2022-08-29T19:18:56.366Z</time>
      </trkpt>
      <trkpt lat="47.2466" lon="-1.45744">
        <ele>5</ele>
        <time>2022-08-29T19:18:59.137Z</time>
      </trkpt>
      <trkpt lat="47.24666" lon="-1.4571">
        <ele>5</ele>
        <time>2022-08-29T19:19:01.912Z</time>
      </trkpt>
      <trkpt lat="47.24676" lon="-1.45676">
        <ele>5</ele>
        <time>2022-08-29T19:19:04.691Z</time>
      </trkpt>
      <trkpt lat="47.24732" lon="-1.45507">
        <ele>5</ele>
        <time>2022-08-29T19:19:07.490Z</time>
      </trkpt>
      <trkpt lat="47.24747" lon="-1.45473">
        <ele>5</ele>
        <time>2022-08-29T19:19:10.294Z</time>
      </trkpt>
      <trkpt lat="47.24779" lon="-1.45385">
        <ele>5</ele>
        <time>2022-08-29T19:19:13.109Z</time>
      </trkpt>
      <trkpt lat="47.24785" lon="-1.45369">
        <ele>5</ele>
        <time>2022-08-29T19:19:15.926Z</time>
      </trkpt>
      <trkpt lat="47.24815" lon="-1.45306">
        <ele>5</ele>
        <time>2022-08-29T19:19:18.751Z</time>
      </trkpt>
      <trkpt lat="47.2483" lon="-1.45279">
        <ele>5</ele>
        <time>2022-08-29T19:19:21.580Z</time>
      </trkpt>
      <trkpt lat="47.24873" lon="-1.45208">
        <ele>5</ele>
        <time>2022-08-29T19:19:24.419Z</time>
      </trkpt>
      <trkpt lat="47.24901" lon="-1.45173">
        <ele>5</ele>
        <time>2022-08-29T19:19:27.264Z</time>
      </trkpt>
      <trkpt lat="47.24932" lon="-1.45135">
        <ele>5</ele>
        <time>2022-08-29T19:19:30.116Z</time>
      </trkpt>
      <trkpt lat="47.24984" lon="-1.45081">
        <ele>5</ele>
        <time>2022-08-29T19:19:32.978Z</time>
      </trkpt>
      <trkpt lat="47.25012" lon="-1.45049">
        <ele>5</ele>
        <time>2022-08-29T19:19:35.845Z</time>
      </trkpt>
      <trkpt lat="47.25114" lon="-1.44968">
        <ele>5</ele>
        <time>2022-08-29T19:19:38.731Z</time>
      </trkpt>
      <trkpt lat="47.25125" lon="-1.44955">
        <ele>4</ele>
        <time>2022-08-29T19:19:41.619Z</time>
      </trkpt>
      <trkpt lat="47.25173" lon="-1.4491">
        <ele>4</ele>
        <time>2022-08-29T19:19:44.516Z</time>
      </trkpt>
      <trkpt lat="47.25227" lon="-1.44866">
        <ele>4</ele>
        <time>2022-08-29T19:19:47.423Z</time>
      </trkpt>
      <trkpt lat="47.25272" lon="-1.44815">
        <ele>4</ele>
        <time>2022-08-29T19:19:50.339Z</time>
      </trkpt>
      <trkpt lat="47.25367" lon="-1.44715">
        <ele>4</ele>
        <time>2022-08-29T19:19:53.274Z</time>
      </trkpt>
      <trkpt lat="47.25379" lon="-1.447">
        <ele>4</ele>
        <time>2022-08-29T19:19:56.212Z</time>
      </trkpt>
      <trkpt lat="47.25427" lon="-1.44631">
        <ele>4</ele>
        <time>2022-08-29T19:19:59.160Z</time>
      </trkpt>
      <trkpt lat="47.25447" lon="-1.44612">
        <ele>4</ele>
        <time>2022-08-29T19:20:02.112Z</time>
      </trkpt>
      <trkpt lat="47.25472" lon="-1.44572">
        <ele>4</ele>
        <time>2022-08-29T19:20:05.070Z</time>
      </trkpt>
      <trkpt lat="47.25518" lon="-1.44509">
        <ele>4</ele>
        <time>2022-08-29T19:20:08.038Z</time>
      </trkpt>
      <trkpt lat="47.25563" lon="-1.4444">
        <ele>4</ele>
        <time>2022-08-29T19:20:11.017Z</time>
      </trkpt>
      <trkpt lat="47.25603" lon="-1.44391">
        <ele>4</ele>
        <time>2022-08-29T19:20:14.004Z</time>
      </trkpt>
      <trkpt lat="47.25662" lon="-1.44326">
        <ele>4</ele>
        <time>2022-08-29T19:20:17.003Z</time>
      </trkpt>
      <trkpt lat="47.25695" lon="-1.44284">
        <ele>4</ele>
        <time>2022-08-29T19:20:20.009Z</time>
      </trkpt>
      <trkpt lat="47.25709" lon="-1.44269">
        <ele>4</ele>
        <time>2022-08-29T19:20:23.017Z</time>
      </trkpt>
      <trkpt lat="47.25747" lon="-1.44219">
        <ele>4</ele>
        <time>2022-08-29T19:20:26.034Z</time>
      </trkpt>
      <trkpt lat="47.25854" lon="-1.44097">
        <ele>5</ele>
        <time>2022-08-29T19:20:29.072Z</time>
      </trkpt>
      <trkpt lat="47.25863" lon="-1.44082">
        <ele>5</ele>
        <time>2022-08-29T19:20:32.113Z</time>
      </trkpt>
      <trkpt lat="47.25871" lon="-1.44061">
        <ele>5</ele>
        <time>2022-08-29T19:20:35.156Z</time>
      </trkpt>
      <trkpt lat="47.25873" lon="-1.44049">
        <ele>5</ele>
        <time>2022-08-29T19:20:38.201Z</time>
      </trkpt>
      <trkpt lat="47.25877" lon="-1.44038">
        <ele>5</ele>
        <time>2022-08-29T19:20:41.247Z</time>
      </trkpt>
      <trkpt lat="47.25883" lon="-1.44029">
        <ele>5</ele>
        <time>2022-08-29T19:20:44.294Z</time>
      </trkpt>
      <trkpt lat="47.26034" lon="-1.43864">
        <ele>6</ele>
        <time>2022-08-29T19:20:47.371Z</time>
      </trkpt>
      <trkpt lat="47.26043" lon="-1.43848">
        <ele>6</ele>
        <time>2022-08-29T19:20:50.451Z</time>
      </trkpt>
      <trkpt lat="47.26049" lon="-1.43828">
        <ele>6</ele>
        <time>2022-08-29T19:20:53.533Z</time>
      </trkpt>
      <trkpt lat="47.26056" lon="-1.43814">
        <ele>7</ele>
        <time>2022-08-29T19:20:56.617Z</time>
      </trkpt>
      <trkpt lat="47.26077" lon="-1.43784">
        <ele>7</ele>
        <time>2022-08-29T19:20:59.706Z</time>
      </trkpt>
      <trkpt lat="47.26077" lon="-1.43784">
        <ele>7</ele>
        <time>2022-08-29T19:21:02.795Z</time>
      </trkpt>
      <trkpt lat="47.2608" lon="-1.43778">
        <ele>8</ele>
        <time>2022-08-29T19:21:05.884Z</time>
      </trkpt>
      <trkpt lat="47.26088" lon="-1.43771">
        <ele>8</ele>
        <time>2022-08-29T19:21:08.975Z</time>
      </trkpt>
      <trkpt lat="47.26103" lon="-1.43749">
        <ele>8</ele>
        <time>2022-08-29T19:21:12.069Z</time>
      </trkpt>
      <trkpt lat="47.26186" lon="-1.43829">
        <ele>9</ele>
        <time>2022-08-29T19:21:15.179Z</time>
      </trkpt>
      <trkpt lat="47.26205" lon="-1.43849">
        <ele>9</ele>
        <time>2022-08-29T19:21:18.293Z</time>
      </trkpt>
      <trkpt lat="47.26276" lon="-1.43936">
        <ele>10</ele>
        <time>2022-08-29T19:21:21.422Z</time>
      </trkpt>
      <trkpt lat="47.26275" lon="-1.43936">
        <ele>10</ele>
        <time>2022-08-29T19:21:24.551Z</time>
      </trkpt>
      <trkpt lat="47.26298" lon="-1.43938">
        <ele>10</ele>
        <time>2022-08-29T19:21:27.683Z</time>
      </trkpt>
      <trkpt lat="47.26301" lon="-1.4394">
        <ele>11</ele>
        <time>2022-08-29T19:21:30.816Z</time>
      </trkpt>
      <trkpt lat="47.2634" lon="-1.43941">
        <ele>11</ele>
        <time>2022-08-29T19:21:33.955Z</time>
      </trkpt>
      <trkpt lat="47.2634" lon="-1.43941">
        <ele>12</ele>
        <time>2022-08-29T19:21:37.094Z</time>
      </trkpt>
      <trkpt lat="47.26345" lon="-1.43941">
        <ele>12</ele>
        <time>2022-08-29T19:21:40.234Z</time>
      </trkpt>
      <trkpt lat="47.26345" lon="-1.43941">
        <ele>12</ele>
        <time>2022-08-29T19:21:43.374Z</time>
      </trkpt>
      <trkpt lat="47.26371" lon="-1.43942">
        <ele>12</ele>
        <time>2022-08-29T19:21:46.518Z</time>
      </trkpt>
      <trkpt lat="47.26375" lon="-1.43946">
        <ele>12</ele>
        <time>2022-08-29T19:21:49.663Z</time>
      </trkpt>
      <trkpt lat="47.26384" lon="-1.43947">
        <ele>13</ele>
        <time>2022-08-29T19:21:52.809Z</time>
      </trkpt>
      <trkpt lat="47.26398" lon="-1.43945">
        <ele>13</ele>
        <time>2022-08-29T19:21:55.957Z</time>
      </trkpt>
      <trkpt lat="47.26424" lon="-1.43947">
        <ele>13</ele>
        <time>2022-08-29T19:21:59.109Z</time>
      </trkpt>
      <trkpt lat="47.26447" lon="-1.43953">
        <ele>13</ele>
        <time>2022-08-29T19:22:02.265Z</time>
      </trkpt>
      <trkpt lat="47.26451" lon="-1.43952">
        <ele>12</ele>
        <time>2022-08-29T19:22:05.422Z</time>
      </trkpt>
      <trkpt lat="47.26487" lon="-1.43964">
        <ele>12</ele>
        <time>2022-08-29T19:22:08.585Z</time>
      </trkpt>
      <trkpt lat="47.26499" lon="-1.43969">
        <ele>12</ele>
        <time>2022-08-29T19:22:11.750Z</time>
      </trkpt>
      <trkpt lat="47.26504" lon="-1.43969">
        <ele>12</ele>
        <time>2022-08-29T19:22:14.916Z</time>
      </trkpt>
      <trkpt lat="47.26514" lon="-1.43967">
        <ele>12</ele>
        <time>2022-08-29T19:22:18.083Z</time>
      </trkpt>
      <trkpt lat="47.26525" lon="-1.43972">
        <ele>12</ele>
        <time>2022-08-29T19:22:21.252Z</time>
      </trkpt>
      <trkpt lat="47.26547" lon="-1.43995">
        <ele>12</ele>
        <time>2022-08-29T19:22:24.425Z</time>
      </trkpt>
      <trkpt lat="47.2655" lon="-1.43998">
        <ele>12</ele>
        <time>2022-08-29T19:22:27.599Z</time>
      </trkpt>
      <trkpt lat="47.26551" lon="-1.44005">
        <ele>12</ele>
        <time>2022-08-29T19:22:30.774Z</time>
      </trkpt>
      <trkpt lat="47.2658" lon="-1.44043">
        <ele>12</ele>
        <time>2022-08-29T19:22:33.955Z</time>
      </trkpt>
      <trkpt lat="47.2658" lon="-1.44043">
        <ele>12</ele>
        <time>2022-08-29T19:22:37.136Z</time>
      </trkpt>
      <trkpt lat="47.26586" lon="-1.44054">
        <ele>12</ele>
        <time>2022-08-29T19:22:40.318Z</time>
      </trkpt>
      <trkpt lat="47.26589" lon="-1.44053">
        <ele>12</ele>
        <time>2022-08-29T19:22:43.501Z</time>
      </trkpt>
      <trkpt lat="47.26592" lon="-1.44054">
        <ele>11</ele>
        <time>2022-08-29T19:22:46.685Z</time>
      </trkpt>
      <trkpt lat="47.26594" lon="-1.44058">
        <ele>11</ele>
        <time>2022-08-29T19:22:49.869Z</time>
      </trkpt>
      <trkpt lat="47.26594" lon="-1.44065">
        <ele>11</ele>
        <time>2022-08-29T19:22:53.054Z</time>
      </trkpt>
      <trkpt lat="47.26602" lon="-1.44069">
        <ele>11</ele>
        <time>2022-08-29T19:22:56.240Z</time>
      </trkpt>
      <trkpt lat="47.26621" lon="-1.44097">
        <ele>11</ele>
        <time>2022-08-29T19:22:59.430Z</time>
      </trkpt>
      <trkpt lat="47.26638" lon="-1.44114">
        <ele>11</ele>
        <time>2022-08-29T19:23:02.624Z</time>
      </trkpt>
      <trkpt lat="47.26663" lon="-1.44122">
        <ele>11</ele>
        <time>2022-08-29T19:23:05.822Z</time>
      </trkpt>
      <trkpt lat="47.26666" lon="-1.44114">
        <ele>11</ele>
        <time>2022-08-29T19:23:09.021Z</time>
      </trkpt>
      <trkpt lat="47.26671" lon="-1.44113">
        <ele>11</ele>
        <time>2022-08-29T19:23:12.221Z</time>
      </trkpt>
      <trkpt lat="47.26675" lon="-1.44114">
        <ele>12</ele>
        <time>2022-08-29T19:23:15.421Z</time>
      </trkpt>
      <trkpt lat="47.26678" lon="-1.44124">
        <ele>12</ele>
        <time>2022-08-29T19:23:18.622Z</time>
      </trkpt>
      <trkpt lat="47.26696" lon="-1.44126">
        <ele>12</ele>
        <time>2022-08-29T19:23:21.826Z</time>
      </trkpt>
      <trkpt lat="47.26701" lon="-1.44127">
        <ele>12</ele>
        <time>2022-08-29T19:23:25.031Z</time>
      </trkpt>
      <trkpt lat="47.26707" lon="-1.44129">
        <ele>13</ele>
        <time>2022-08-29T19:23:28.237Z</time>
      </trkpt>
      <trkpt lat="47.26742" lon="-1.44152">
        <ele>14</ele>
        <time>2022-08-29T19:23:31.449Z</time>
      </trkpt>
      <trkpt lat="47.26787" lon="-1.44183">
        <ele>15</ele>
        <time>2022-08-29T19:23:34.669Z</time>
      </trkpt>
      <trkpt lat="47.268" lon="-1.44195">
        <ele>16</ele>
        <time>2022-08-29T19:23:37.892Z</time>
      </trkpt>
      <trkpt lat="47.26819" lon="-1.44217">
        <ele>16</ele>
        <time>2022-08-29T19:23:41.119Z</time>
      </trkpt>
      <trkpt lat="47.26889" lon="-1.44294">
        <ele>17</ele>
        <time>2022-08-29T19:23:44.360Z</time>
      </trkpt>
      <trkpt lat="47.2691" lon="-1.44313">
        <ele>18</ele>
        <time>2022-08-29T19:23:47.604Z</time>
      </trkpt>
      <trkpt lat="47.26918" lon="-1.44319">
        <ele>19</ele>
        <time>2022-08-29T19:23:50.850Z</time>
      </trkpt>
      <trkpt lat="47.26918" lon="-1.44319">
        <ele>19</ele>
        <time>2022-08-29T19:23:54.096Z</time>
      </trkpt>
      <trkpt lat="47.26925" lon="-1.44311">
        <ele>20</ele>
        <time>2022-08-29T19:23:57.343Z</time>
      </trkpt>
      <trkpt lat="47.2693" lon="-1.44311">
        <ele>21</ele>
        <time>2022-08-29T19:24:00.591Z</time>
      </trkpt>
      <trkpt lat="47.26934" lon="-1.44319">
        <ele>23</ele>
        <time>2022-08-29T19:24:03.840Z</time>
      </trkpt>
      <trkpt lat="47.26933" lon="-1.44331">
        <ele>23</ele>
        <time>2022-08-29T19:24:07.090Z</time>
      </trkpt>
      <trkpt lat="47.26968" lon="-1.4438">
        <ele>24</ele>
        <time>2022-08-29T19:24:10.348Z</time>
      </trkpt>
      <trkpt lat="47.26979" lon="-1.44392">
        <ele>25</ele>
        <time>2022-08-29T19:24:13.608Z</time>
      </trkpt>
      <trkpt lat="47.26992" lon="-1.44401">
        <ele>25</ele>
        <time>2022-08-29T19:24:16.871Z</time>
      </trkpt>
      <trkpt lat="47.27088" lon="-1.44455">
        <ele>26</ele>
        <time>2022-08-29T19:24:20.150Z</time>
      </trkpt>
      <trkpt lat="47.27107" lon="-1.44462">
        <ele>27</ele>
        <time>2022-08-29T19:24:23.432Z</time>
      </trkpt>
      <trkpt lat="47.27137" lon="-1.44463">
        <ele>27</ele>
        <time>2022-08-29T19:24:26.719Z</time>
      </trkpt>
      <trkpt lat="47.27149" lon="-1.44466">
        <ele>28</ele>
        <time>2022-08-29T19:24:30.008Z</time>
      </trkpt>
      <trkpt lat="47.27167" lon="-1.44457">
        <ele>28</ele>
        <time>2022-08-29T19:24:33.300Z</time>
      </trkpt>
      <trkpt lat="47.27179" lon="-1.44461">
        <ele>28</ele>
        <time>2022-08-29T19:24:36.594Z</time>
      </trkpt>
      <trkpt lat="47.27245" lon="-1.44461">
        <ele>28</ele>
        <time>2022-08-29T19:24:39.899Z</time>
      </trkpt>
      <trkpt lat="47.27348" lon="-1.44461">
        <ele>29</ele>
        <time>2022-08-29T19:24:43.220Z</time>
      </trkpt>
      <trkpt lat="47.27359" lon="-1.44465">
        <ele>29</ele>
        <time>2022-08-29T19:24:46.543Z</time>
      </trkpt>
      <trkpt lat="47.27366" lon="-1.44454">
        <ele>29</ele>
        <time>2022-08-29T19:24:49.867Z</time>
      </trkpt>
      <trkpt lat="47.27371" lon="-1.44453">
        <ele>29</ele>
        <time>2022-08-29T19:24:53.192Z</time>
      </trkpt>
      <trkpt lat="47.27375" lon="-1.44454">
        <ele>29</ele>
        <time>2022-08-29T19:24:56.518Z</time>
      </trkpt>
      <trkpt lat="47.27379" lon="-1.44457">
        <ele>29</ele>
        <time>2022-08-29T19:24:59.845Z</time>
      </trkpt>
      <trkpt lat="47.27397" lon="-1.44443">
        <ele>29</ele>
        <time>2022-08-29T19:25:03.175Z</time>
      </trkpt>
      <trkpt lat="47.27414" lon="-1.44436">
        <ele>29</ele>
        <time>2022-08-29T19:25:06.508Z</time>
      </trkpt>
      <trkpt lat="47.27455" lon="-1.44418">
        <ele>29</ele>
        <time>2022-08-29T19:25:09.848Z</time>
      </trkpt>
      <trkpt lat="47.27463" lon="-1.44412">
        <ele>29</ele>
        <time>2022-08-29T19:25:13.189Z</time>
      </trkpt>
      <trkpt lat="47.27477" lon="-1.44399">
        <ele>28</ele>
        <time>2022-08-29T19:25:16.533Z</time>
      </trkpt>
      <trkpt lat="47.27486" lon="-1.44388">
        <ele>28</ele>
        <time>2022-08-29T19:25:19.879Z</time>
      </trkpt>
      <trkpt lat="47.27499" lon="-1.44365">
        <ele>28</ele>
        <time>2022-08-29T19:25:23.228Z</time>
      </trkpt>
      <trkpt lat="47.27507" lon="-1.44351">
        <ele>28</ele>
        <time>2022-08-29T19:25:26.579Z</time>
      </trkpt>
      <trkpt lat="47.27519" lon="-1.44331">
        <ele>28</ele>
        <time>2022-08-29T19:25:29.933Z</time>
      </trkpt>
      <trkpt lat="47.27524" lon="-1.44324">
        <ele>28</ele>
        <time>2022-08-29T19:25:33.288Z</time>
      </trkpt>
      <trkpt lat="47.27541" lon="-1.44307">
        <ele>28</ele>
        <time>2022-08-29T19:25:36.646Z</time>
      </trkpt>
      <trkpt lat="47.2755" lon="-1.44303">
        <ele>28</ele>
        <time>2022-08-29T19:25:40.006Z</time>
      </trkpt>
      <trkpt lat="47.27549" lon="-1.44296">
        <ele>28</ele>
        <time>2022-08-29T19:25:43.366Z</time>
      </trkpt>
      <trkpt lat="47.27551" lon="-1.44289">
        <ele>27</ele>
        <time>2022-08-29T19:25:46.727Z</time>
      </trkpt>
      <trkpt lat="47.27558" lon="-1.44284">
        <ele>27</ele>
        <time>2022-08-29T19:25:50.089Z</time>
      </trkpt>
      <trkpt lat="47.27565" lon="-1.44287">
        <ele>27</ele>
        <time>2022-08-29T19:25:53.453Z</time>
      </trkpt>
      <trkpt lat="47.27568" lon="-1.44295">
        <ele>27</ele>
        <time>2022-08-29T19:25:56.818Z</time>
      </trkpt>
      <trkpt lat="47.27573" lon="-1.44294">
        <ele>27</ele>
        <time>2022-08-29T19:26:00.183Z</time>
      </trkpt>
      <trkpt lat="47.27594" lon="-1.44288">
        <ele>27</ele>
        <time>2022-08-29T19:26:03.552Z</time>
      </trkpt>
      <trkpt lat="47.27619" lon="-1.44289">
        <ele>26</ele>
        <time>2022-08-29T19:26:06.925Z</time>
      </trkpt>
      <trkpt lat="47.27637" lon="-1.44295">
        <ele>26</ele>
        <time>2022-08-29T19:26:10.301Z</time>
      </trkpt>
      <trkpt lat="47.27714" lon="-1.44337">
        <ele>26</ele>
        <time>2022-08-29T19:26:13.690Z</time>
      </trkpt>
      <trkpt lat="47.27728" lon="-1.44343">
        <ele>26</ele>
        <time>2022-08-29T19:26:17.081Z</time>
      </trkpt>
      <trkpt lat="47.27784" lon="-1.44349">
        <ele>26</ele>
        <time>2022-08-29T19:26:20.481Z</time>
      </trkpt>
      <trkpt lat="47.27808" lon="-1.44354">
        <ele>26</ele>
        <time>2022-08-29T19:26:23.885Z</time>
      </trkpt>
      <trkpt lat="47.27844" lon="-1.44372">
        <ele>25</ele>
        <time>2022-08-29T19:26:27.295Z</time>
      </trkpt>
      <trkpt lat="47.27844" lon="-1.44372">
        <ele>25</ele>
        <time>2022-08-29T19:26:30.705Z</time>
      </trkpt>
      <trkpt lat="47.27874" lon="-1.44388">
        <ele>25</ele>
        <time>2022-08-29T19:26:34.120Z</time>
      </trkpt>
      <trkpt lat="47.2798" lon="-1.44447">
        <ele>25</ele>
        <time>2022-08-29T19:26:37.554Z</time>
      </trkpt>
      <trkpt lat="47.27997" lon="-1.44453">
        <ele>25</ele>
        <time>2022-08-29T19:26:40.990Z</time>
      </trkpt>
      <trkpt lat="47.28052" lon="-1.44463">
        <ele>25</ele>
        <time>2022-08-29T19:26:44.435Z</time>
      </trkpt>
      <trkpt lat="47.28096" lon="-1.44466">
        <ele>24</ele>
        <time>2022-08-29T19:26:47.887Z</time>
      </trkpt>
      <trkpt lat="47.28299" lon="-1.44479">
        <ele>24</ele>
        <time>2022-08-29T19:26:51.372Z</time>
      </trkpt>
      <trkpt lat="47.28394" lon="-1.44485">
        <ele>24</ele>
        <time>2022-08-29T19:26:54.872Z</time>
      </trkpt>
      <trkpt lat="47.28503" lon="-1.44493">
        <ele>24</ele>
        <time>2022-08-29T19:26:58.390Z</time>
      </trkpt>
      <trkpt lat="47.2854" lon="-1.44496">
        <ele>24</ele>
        <time>2022-08-29T19:27:01.914Z</time>
      </trkpt>
      <trkpt lat="47.28567" lon="-1.44497">
        <ele>24</ele>
        <time>2022-08-29T19:27:05.442Z</time>
      </trkpt>
      <trkpt lat="47.28668" lon="-1.44504">
        <ele>24</ele>
        <time>2022-08-29T19:27:08.986Z</time>
      </trkpt>
      <trkpt lat="47.2868" lon="-1.445">
        <ele>24</ele>
        <time>2022-08-29T19:27:12.532Z</time>
      </trkpt>
      <trkpt lat="47.28697" lon="-1.445">
        <ele>24</ele>
        <time>2022-08-29T19:27:16.081Z</time>
      </trkpt>
      <trkpt lat="47.28794" lon="-1.44458">
        <ele>24</ele>
        <time>2022-08-29T19:27:19.646Z</time>
      </trkpt>
      <trkpt lat="47.28797" lon="-1.44457">
        <ele>24</ele>
        <time>2022-08-29T19:27:23.211Z</time>
      </trkpt>
      <trkpt lat="47.28855" lon="-1.44433">
        <ele>25</ele>
        <time>2022-08-29T19:27:26.786Z</time>
      </trkpt>
      <trkpt lat="47.28866" lon="-1.44426">
        <ele>26</ele>
        <time>2022-08-29T19:27:30.363Z</time>
      </trkpt>
      <trkpt lat="47.28879" lon="-1.44413">
        <ele>26</ele>
        <time>2022-08-29T19:27:33.942Z</time>
      </trkpt>
      <trkpt lat="47.28891" lon="-1.44401">
        <ele>27</ele>
        <time>2022-08-29T19:27:37.524Z</time>
      </trkpt>
      <trkpt lat="47.28948" lon="-1.44314">
        <ele>28</ele>
        <time>2022-08-29T19:27:41.119Z</time>
      </trkpt>
      <trkpt lat="47.28965" lon="-1.4429">
        <ele>29</ele>
        <time>2022-08-29T19:27:44.718Z</time>
      </trkpt>
      <trkpt lat="47.29052" lon="-1.44189">
        <ele>30</ele>
        <time>2022-08-29T19:27:48.334Z</time>
      </trkpt>
      <trkpt lat="47.29052" lon="-1.44189">
        <ele>31</ele>
        <time>2022-08-29T19:27:51.950Z</time>
      </trkpt>
      <trkpt lat="47.2918" lon="-1.44046">
        <ele>33</ele>
        <time>2022-08-29T19:27:55.592Z</time>
      </trkpt>
      <trkpt lat="47.29252" lon="-1.43978">
        <ele>34</ele>
        <time>2022-08-29T19:27:59.248Z</time>
      </trkpt>
      <trkpt lat="47.29267" lon="-1.43966">
        <ele>35</ele>
        <time>2022-08-29T19:28:02.907Z</time>
      </trkpt>
      <trkpt lat="47.2928" lon="-1.43962">
        <ele>37</ele>
        <time>2022-08-29T19:28:06.568Z</time>
      </trkpt>
      <trkpt lat="47.29293" lon="-1.43962">
        <ele>38</ele>
        <time>2022-08-29T19:28:10.231Z</time>
      </trkpt>
      <trkpt lat="47.29328" lon="-1.43969">
        <ele>40</ele>
        <time>2022-08-29T19:28:13.899Z</time>
      </trkpt>
      <trkpt lat="47.29344" lon="-1.43967">
        <ele>42</ele>
        <time>2022-08-29T19:28:17.570Z</time>
      </trkpt>
      <trkpt lat="47.29344" lon="-1.43967">
        <ele>43</ele>
        <time>2022-08-29T19:28:21.241Z</time>
      </trkpt>
      <trkpt lat="47.29355" lon="-1.43964">
        <ele>45</ele>
        <time>2022-08-29T19:28:24.914Z</time>
      </trkpt>
      <trkpt lat="47.29371" lon="-1.43951">
        <ele>47</ele>
        <time>2022-08-29T19:28:28.590Z</time>
      </trkpt>
      <trkpt lat="47.29425" lon="-1.43894">
        <ele>49</ele>
        <time>2022-08-29T19:28:32.276Z</time>
      </trkpt>
      <trkpt lat="47.29532" lon="-1.43778">
        <ele>51</ele>
        <time>2022-08-29T19:28:35.984Z</time>
      </trkpt>
      <trkpt lat="47.2957" lon="-1.43741">
        <ele>52</ele>
        <time>2022-08-29T19:28:39.699Z</time>
      </trkpt>
      <trkpt lat="47.29597" lon="-1.43719">
        <ele>54</ele>
        <time>2022-08-29T19:28:43.419Z</time>
      </trkpt>
      <trkpt lat="47.29597" lon="-1.43719">
        <ele>56</ele>
        <time>2022-08-29T19:28:47.139Z</time>
      </trkpt>
      <trkpt lat="47.29797" lon="-1.43575">
        <ele>59</ele>
        <time>2022-08-29T19:28:50.895Z</time>
      </trkpt>
      <trkpt lat="47.29835" lon="-1.43541">
        <ele>60</ele>
        <time>2022-08-29T19:28:54.658Z</time>
      </trkpt>
      <trkpt lat="47.2983" lon="-1.4352">
        <ele>62</ele>
        <time>2022-08-29T19:28:58.423Z</time>
      </trkpt>
      <trkpt lat="47.29831" lon="-1.43508">
        <ele>64</ele>
        <time>2022-08-29T19:29:02.190Z</time>
      </trkpt>
      <trkpt lat="47.29834" lon="-1.43497">
        <ele>65</ele>
        <time>2022-08-29T19:29:05.958Z</time>
      </trkpt>
      <trkpt lat="47.29842" lon="-1.43489">
        <ele>66</ele>
        <time>2022-08-29T19:29:09.727Z</time>
      </trkpt>
      <trkpt lat="47.29896" lon="-1.43465">
        <ele>67</ele>
        <time>2022-08-29T19:29:13.505Z</time>
      </trkpt>
      <trkpt lat="47.29919" lon="-1.43452">
        <ele>68</ele>
        <time>2022-08-29T19:29:17.287Z</time>
      </trkpt>
      <trkpt lat="47.29953" lon="-1.43416">
        <ele>69</ele>
        <time>2022-08-29T19:29:21.076Z</time>
      </trkpt>
      <trkpt lat="47.29961" lon="-1.43403">
        <ele>70</ele>
        <time>2022-08-29T19:29:24.867Z</time>
      </trkpt>
      <trkpt lat="47.29964" lon="-1.43392">
        <ele>71</ele>
        <time>2022-08-29T19:29:28.659Z</time>
      </trkpt>
      <trkpt lat="47.29963" lon="-1.43376">
        <ele>71</ele>
        <time>2022-08-29T19:29:32.453Z</time>
      </trkpt>
      <trkpt lat="47.29955" lon="-1.43324">
        <ele>72</ele>
        <time>2022-08-29T19:29:36.253Z</time>
      </trkpt>
      <trkpt lat="47.29935" lon="-1.43197">
        <ele>72</ele>
        <time>2022-08-29T19:29:40.067Z</time>
      </trkpt>
      <trkpt lat="47.29925" lon="-1.43172">
        <ele>72</ele>
        <time>2022-08-29T19:29:43.884Z</time>
      </trkpt>
      <trkpt lat="47.29915" lon="-1.43165">
        <ele>72</ele>
        <time>2022-08-29T19:29:47.703Z</time>
      </trkpt>
      <trkpt lat="47.29872" lon="-1.43172">
        <ele>72</ele>
        <time>2022-08-29T19:29:51.529Z</time>
      </trkpt>
      <trkpt lat="47.29855" lon="-1.43168">
        <ele>72</ele>
        <time>2022-08-29T19:29:55.358Z</time>
      </trkpt>
      <trkpt lat="47.29848" lon="-1.43162">
        <ele>71</ele>
        <time>2022-08-29T19:29:59.188Z</time>
      </trkpt>
      <trkpt lat="47.29831" lon="-1.43143">
        <ele>70</ele>
        <time>2022-08-29T19:30:03.021Z</time>
      </trkpt>
      <trkpt lat="47.29692" lon="-1.42945">
        <ele>70</ele>
        <time>2022-08-29T19:30:06.885Z</time>
      </trkpt>
      <trkpt lat="47.29684" lon="-1.42929">
        <ele>69</ele>
        <time>2022-08-29T19:30:10.752Z</time>
      </trkpt>
      <trkpt lat="47.29672" lon="-1.42927">
        <ele>68</ele>
        <time>2022-08-29T19:30:14.621Z</time>
      </trkpt>
      <trkpt lat="47.2946" lon="-1.4294">
        <ele>66</ele>
        <time>2022-08-29T19:30:18.524Z</time>
      </trkpt>
      <trkpt lat="47.29418" lon="-1.42945">
        <ele>65</ele>
        <time>2022-08-29T19:30:22.433Z</time>
      </trkpt>
      <trkpt lat="47.29391" lon="-1.42962">
        <ele>64</ele>
        <time>2022-08-29T19:30:26.347Z</time>
      </trkpt>
      <trkpt lat="47.29375" lon="-1.42985">
        <ele>62</ele>
        <time>2022-08-29T19:30:30.265Z</time>
      </trkpt>
      <trkpt lat="47.29364" lon="-1.43009">
        <ele>61</ele>
        <time>2022-08-29T19:30:34.186Z</time>
      </trkpt>
      <trkpt lat="47.29354" lon="-1.4305">
        <ele>59</ele>
        <time>2022-08-29T19:30:38.111Z</time>
      </trkpt>
      <trkpt lat="47.29354" lon="-1.4305">
        <ele>58</ele>
        <time>2022-08-29T19:30:42.036Z</time>
      </trkpt>
      <trkpt lat="47.29343" lon="-1.43071">
        <ele>56</ele>
        <time>2022-08-29T19:30:45.964Z</time>
      </trkpt>
      <trkpt lat="47.29121" lon="-1.43306">
        <ele>54</ele>
        <time>2022-08-29T19:30:49.936Z</time>
      </trkpt>
      <trkpt lat="47.29113" lon="-1.43312">
        <ele>52</ele>
        <time>2022-08-29T19:30:53.909Z</time>
      </trkpt>
      <trkpt lat="47.29016" lon="-1.43332">
        <ele>51</ele>
        <time>2022-08-29T19:30:57.898Z</time>
      </trkpt>
      <trkpt lat="47.28972" lon="-1.43334">
        <ele>49</ele>
        <time>2022-08-29T19:31:01.894Z</time>
      </trkpt>
      <trkpt lat="47.28939" lon="-1.43329">
        <ele>47</ele>
        <time>2022-08-29T19:31:05.895Z</time>
      </trkpt>
      <trkpt lat="47.28892" lon="-1.43313">
        <ele>46</ele>
        <time>2022-08-29T19:31:09.904Z</time>
      </trkpt>
      <trkpt lat="47.28885" lon="-1.43339">
        <ele>44</ele>
        <time>2022-08-29T19:31:13.916Z</time>
      </trkpt>
      <trkpt lat="47.28849" lon="-1.43444">
        <ele>43</ele>
        <time>2022-08-29T19:31:17.941Z</time>
      </trkpt>
      <trkpt lat="47.2881" lon="-1.43409">
        <ele>41</ele>
        <time>2022-08-29T19:31:21.973Z</time>
      </trkpt>
      <trkpt lat="47.28785" lon="-1.43383">
        <ele>40</ele>
        <time>2022-08-29T19:31:26.010Z</time>
      </trkpt>
      <trkpt lat="47.28746" lon="-1.43331">
        <ele>39</ele>
        <time>2022-08-29T19:31:30.056Z</time>
      </trkpt>
      <trkpt lat="47.28731" lon="-1.43316">
        <ele>37</ele>
        <time>2022-08-29T19:31:34.105Z</time>
      </trkpt>
      <trkpt lat="47.28723" lon="-1.43312">
        <ele>36</ele>
        <time>2022-08-29T19:31:38.155Z</time>
      </trkpt>
      <trkpt lat="47.28708" lon="-1.43309">
        <ele>35</ele>
        <time>2022-08-29T19:31:42.208Z</time>
      </trkpt>
      <trkpt lat="47.28687" lon="-1.43313">
        <ele>34</ele>
        <time>2022-08-29T19:31:46.264Z</time>
      </trkpt>
      <trkpt lat="47.2861" lon="-1.43357">
        <ele>33</ele>
        <time>2022-08-29T19:31:50.333Z</time>
      </trkpt>
      <trkpt lat="47.28566" lon="-1.43378">
        <ele>32</ele>
        <time>2022-08-29T19:31:54.409Z</time>
      </trkpt>
      <trkpt lat="47.28506" lon="-1.43393">
        <ele>31</ele>
        <time>2022-08-29T19:31:58.495Z</time>
      </trkpt>
      <trkpt lat="47.285" lon="-1.43394">
        <ele>30</ele>
        <time>2022-08-29T19:32:02.582Z</time>
      </trkpt>
      <trkpt lat="47.2845" lon="-1.43405">
        <ele>30</ele>
        <time>2022-08-29T19:32:06.677Z</time>
      </trkpt>
      <trkpt lat="47.28424" lon="-1.43406">
        <ele>29</ele>
        <time>2022-08-29T19:32:10.776Z</time>
      </trkpt>
      <trkpt lat="47.28406" lon="-1.43402">
        <ele>28</ele>
        <time>2022-08-29T19:32:14.878Z</time>
      </trkpt>
      <trkpt lat="47.2835" lon="-1.43372">
        <ele>28</ele>
        <time>2022-08-29T19:32:18.990Z</time>
      </trkpt>
      <trkpt lat="47.28328" lon="-1.43367">
        <ele>27</ele>
        <time>2022-08-29T19:32:23.105Z</time>
      </trkpt>
      <trkpt lat="47.28313" lon="-1.43369">
        <ele>26</ele>
        <time>2022-08-29T19:32:27.223Z</time>
      </trkpt>
      <trkpt lat="47.28265" lon="-1.43383">
        <ele>26</ele>
        <time>2022-08-29T19:32:31.349Z</time>
      </trkpt>
      <trkpt lat="47.28247" lon="-1.43383">
        <ele>26</ele>
        <time>2022-08-29T19:32:35.478Z</time>
      </trkpt>
      <trkpt lat="47.2822" lon="-1.43372">
        <ele>25</ele>
        <time>2022-08-29T19:32:39.611Z</time>
      </trkpt>
      <trkpt lat="47.28197" lon="-1.43358">
        <ele>25</ele>
        <time>2022-08-29T19:32:43.748Z</time>
      </trkpt>
      <trkpt lat="47.28179" lon="-1.43342">
        <ele>25</ele>
        <time>2022-08-29T19:32:47.888Z</time>
      </trkpt>
      <trkpt lat="47.28133" lon="-1.43289">
        <ele>24</ele>
        <time>2022-08-29T19:32:52.038Z</time>
      </trkpt>
      <trkpt lat="47.28133" lon="-1.43289">
        <ele>24</ele>
        <time>2022-08-29T19:32:56.188Z</time>
      </trkpt>
      <trkpt lat="47.28124" lon="-1.4328">
        <ele>23</ele>
        <time>2022-08-29T19:33:00.340Z</time>
      </trkpt>
      <trkpt lat="47.28105" lon="-1.43271">
        <ele>23</ele>
        <time>2022-08-29T19:33:04.495Z</time>
      </trkpt>
      <trkpt lat="47.28088" lon="-1.43272">
        <ele>23</ele>
        <time>2022-08-29T19:33:08.653Z</time>
      </trkpt>
      <trkpt lat="47.28062" lon="-1.43286">
        <ele>22</ele>
        <time>2022-08-29T19:33:12.815Z</time>
      </trkpt>
      <trkpt lat="47.28044" lon="-1.43269">
        <ele>22</ele>
        <time>2022-08-29T19:33:16.980Z</time>
      </trkpt>
      <trkpt lat="47.27908" lon="-1.43172">
        <ele>22</ele>
        <time>2022-08-29T19:33:21.169Z</time>
      </trkpt>
      <trkpt lat="47.27908" lon="-1.43172">
        <ele>21</ele>
        <time>2022-08-29T19:33:25.358Z</time>
      </trkpt>
      <trkpt lat="47.27662" lon="-1.43">
        <ele>21</ele>
        <time>2022-08-29T19:33:29.591Z</time>
      </trkpt>
      <trkpt lat="47.27662" lon="-1.43">
        <ele>20</ele>
        <time>2022-08-29T19:33:33.824Z</time>
      </trkpt>
      <trkpt lat="47.27634" lon="-1.4298">
        <ele>20</ele>
        <time>2022-08-29T19:33:38.062Z</time>
      </trkpt>
      <trkpt lat="47.27624" lon="-1.42969">
        <ele>19</ele>
        <time>2022-08-29T19:33:42.302Z</time>
      </trkpt>
      <trkpt lat="47.27618" lon="-1.4296">
        <ele>19</ele>
        <time>2022-08-29T19:33:46.544Z</time>
      </trkpt>
      <trkpt lat="47.27572" lon="-1.42857">
        <ele>18</ele>
        <time>2022-08-29T19:33:50.799Z</time>
      </trkpt>
      <trkpt lat="47.27544" lon="-1.42795">
        <ele>17</ele>
        <time>2022-08-29T19:33:55.062Z</time>
      </trkpt>
      <trkpt lat="47.27522" lon="-1.42746">
        <ele>17</ele>
        <time>2022-08-29T19:33:59.331Z</time>
      </trkpt>
      <trkpt lat="47.2746" lon="-1.42834">
        <ele>16</ele>
        <time>2022-08-29T19:34:03.614Z</time>
      </trkpt>
      <trkpt lat="47.27445" lon="-1.42857">
        <ele>16</ele>
        <time>2022-08-29T19:34:07.901Z</time>
      </trkpt>
      <trkpt lat="47.27423" lon="-1.42888">
        <ele>15</ele>
        <time>2022-08-29T19:34:12.192Z</time>
      </trkpt>
      <trkpt lat="47.27405" lon="-1.42935">
        <ele>15</ele>
        <time>2022-08-29T19:34:16.489Z</time>
      </trkpt>
      <trkpt lat="47.27407" lon="-1.42938">
        <ele>15</ele>
        <time>2022-08-29T19:34:20.787Z</time>
      </trkpt>
      <trkpt lat="47.27411" lon="-1.42949">
        <ele>15</ele>
        <time>2022-08-29T19:34:25.086Z</time>
      </trkpt>
      <trkpt lat="47.27407" lon="-1.42959">
        <ele>14</ele>
        <time>2022-08-29T19:34:29.386Z</time>
      </trkpt>
      <trkpt lat="47.27405" lon="-1.42962">
        <ele>14</ele>
        <time>2022-08-29T19:34:33.687Z</time>
      </trkpt>
      <trkpt lat="47.27399" lon="-1.42964">
        <ele>14</ele>
        <time>2022-08-29T19:34:37.989Z</time>
      </trkpt>
      <trkpt lat="47.27395" lon="-1.42963">
        <ele>14</ele>
        <time>2022-08-29T19:34:42.292Z</time>
      </trkpt>
      <trkpt lat="47.2739" lon="-1.42956">
        <ele>14</ele>
        <time>2022-08-29T19:34:46.596Z</time>
      </trkpt>
      <trkpt lat="47.27373" lon="-1.42968">
        <ele>14</ele>
        <time>2022-08-29T19:34:50.903Z</time>
      </trkpt>
      <trkpt lat="47.27344" lon="-1.43005">
        <ele>13</ele>
        <time>2022-08-29T19:34:55.216Z</time>
      </trkpt>
      <trkpt lat="47.27322" lon="-1.43037">
        <ele>13</ele>
        <time>2022-08-29T19:34:59.534Z</time>
      </trkpt>
      <trkpt lat="47.27249" lon="-1.43145">
        <ele>13</ele>
        <time>2022-08-29T19:35:03.868Z</time>
      </trkpt>
      <trkpt lat="47.27212" lon="-1.43199">
        <ele>13</ele>
        <time>2022-08-29T19:35:08.211Z</time>
      </trkpt>
      <trkpt lat="47.2719" lon="-1.43227">
        <ele>13</ele>
        <time>2022-08-29T19:35:12.558Z</time>
      </trkpt>
      <trkpt lat="47.27169" lon="-1.43249">
        <ele>13</ele>
        <time>2022-08-29T19:35:16.909Z</time>
      </trkpt>
      <trkpt lat="47.27096" lon="-1.4333">
        <ele>13</ele>
        <time>2022-08-29T19:35:21.275Z</time>
      </trkpt>
      <trkpt lat="47.27038" lon="-1.43402">
        <ele>13</ele>
        <time>2022-08-29T19:35:25.653Z</time>
      </trkpt>
      <trkpt lat="47.27001" lon="-1.43486">
        <ele>12</ele>
        <time>2022-08-29T19:35:30.042Z</time>
      </trkpt>
      <trkpt lat="47.26987" lon="-1.43512">
        <ele>12</ele>
        <time>2022-08-29T19:35:34.435Z</time>
      </trkpt>
      <trkpt lat="47.26958" lon="-1.43551">
        <ele>12</ele>
        <time>2022-08-29T19:35:38.834Z</time>
      </trkpt>
      <trkpt lat="47.26932" lon="-1.43586">
        <ele>12</ele>
        <time>2022-08-29T19:35:43.239Z</time>
      </trkpt>
      <trkpt lat="47.26888" lon="-1.43526">
        <ele>11</ele>
        <time>2022-08-29T19:35:47.653Z</time>
      </trkpt>
      <trkpt lat="47.26871" lon="-1.43504">
        <ele>11</ele>
        <time>2022-08-29T19:35:52.071Z</time>
      </trkpt>
      <trkpt lat="47.26845" lon="-1.43468">
        <ele>11</ele>
        <time>2022-08-29T19:35:56.495Z</time>
      </trkpt>
      <trkpt lat="47.26805" lon="-1.43417">
        <ele>10</ele>
        <time>2022-08-29T19:36:00.927Z</time>
      </trkpt>
      <trkpt lat="47.26769" lon="-1.43379">
        <ele>10</ele>
        <time>2022-08-29T19:36:05.366Z</time>
      </trkpt>
      <trkpt lat="47.26723" lon="-1.43353">
        <ele>9</ele>
        <time>2022-08-29T19:36:09.813Z</time>
      </trkpt>
      <trkpt lat="47.2669" lon="-1.43319">
        <ele>9</ele>
        <time>2022-08-29T19:36:14.267Z</time>
      </trkpt>
      <trkpt lat="47.2669" lon="-1.43319">
        <ele>9</ele>
        <time>2022-08-29T19:36:18.721Z</time>
      </trkpt>
      <trkpt lat="47.26635" lon="-1.4326">
        <ele>8</ele>
        <time>2022-08-29T19:36:23.186Z</time>
      </trkpt>
      <trkpt lat="47.26618" lon="-1.43247">
        <ele>8</ele>
        <time>2022-08-29T19:36:27.654Z</time>
      </trkpt>
      <trkpt lat="47.266" lon="-1.43256">
        <ele>7</ele>
        <time>2022-08-29T19:36:32.125Z</time>
      </trkpt>
      <trkpt lat="47.26579" lon="-1.43275">
        <ele>7</ele>
        <time>2022-08-29T19:36:36.600Z</time>
      </trkpt>
      <trkpt lat="47.26549" lon="-1.4331">
        <ele>7</ele>
        <time>2022-08-29T19:36:41.081Z</time>
      </trkpt>
      <trkpt lat="47.26523" lon="-1.43334">
        <ele>6</ele>
        <time>2022-08-29T19:36:45.567Z</time>
      </trkpt>
      <trkpt lat="47.26508" lon="-1.43344">
        <ele>6</ele>
        <time>2022-08-29T19:36:50.055Z</time>
      </trkpt>
      <trkpt lat="47.26497" lon="-1.43346">
        <ele>6</ele>
        <time>2022-08-29T19:36:54.545Z</time>
      </trkpt>
      <trkpt lat="47.26488" lon="-1.43343">
        <ele>6</ele>
        <time>2022-08-29T19:36:59.037Z</time>
      </trkpt>
      <trkpt lat="47.26479" lon="-1.43335">
        <ele>6</ele>
        <time>2022-08-29T19:37:03.530Z</time>
      </trkpt>
      <trkpt lat="47.26455" lon="-1.433">
        <ele>5</ele>
        <time>2022-08-29T19:37:08.029Z</time>
      </trkpt>
      <trkpt lat="47.2642" lon="-1.43347">
        <ele>5</ele>
        <time>2022-08-29T19:37:12.535Z</time>
      </trkpt>
      <trkpt lat="47.26397" lon="-1.43377">
        <ele>5</ele>
        <time>2022-08-29T19:37:17.046Z</time>
      </trkpt>
      <trkpt lat="47.2633" lon="-1.43451">
        <ele>5</ele>
        <time>2022-08-29T19:37:21.571Z</time>
      </trkpt>
      <trkpt lat="47.26292" lon="-1.43491">
        <ele>5</ele>
        <time>2022-08-29T19:37:26.103Z</time>
      </trkpt>
      <trkpt lat="47.26262" lon="-1.43526">
        <ele>5</ele>
        <time>2022-08-29T19:37:30.641Z</time>
      </trkpt>
      <trkpt lat="47.26237" lon="-1.43559">
        <ele>5</ele>
        <time>2022-08-29T19:37:35.185Z</time>
      </trkpt>
      <trkpt lat="47.26226" lon="-1.43544">
        <ele>5</ele>
        <time>2022-08-29T19:37:39.731Z</time>
      </trkpt>
      <trkpt lat="47.25969" lon="-1.43172">
        <ele>5</ele>
        <time>2022-08-29T19:37:44.335Z</time>
      </trkpt>
      <trkpt lat="47.25938" lon="-1.43128">
        <ele>5</ele>
        <time>2022-08-29T19:37:48.946Z</time>
      </trkpt>
      <trkpt lat="47.25928" lon="-1.43112">
        <ele>5</ele>
        <time>2022-08-29T19:37:53.559Z</time>
      </trkpt>
      <trkpt lat="47.25918" lon="-1.43091">
        <ele>5</ele>
        <time>2022-08-29T19:37:58.175Z</time>
      </trkpt>
      <trkpt lat="47.25894" lon="-1.4303">
        <ele>5</ele>
        <time>2022-08-29T19:38:02.799Z</time>
      </trkpt>
      <trkpt lat="47.25894" lon="-1.4303">
        <ele>5</ele>
        <time>2022-08-29T19:38:07.423Z</time>
      </trkpt>
      <trkpt lat="47.25734" lon="-1.42633">
        <ele>5</ele>
        <time>2022-08-29T19:38:12.097Z</time>
      </trkpt>
      <trkpt lat="47.25728" lon="-1.42625">
        <ele>5</ele>
        <time>2022-08-29T19:38:16.772Z</time>
      </trkpt>
      <trkpt lat="47.25722" lon="-1.42629">
        <ele>5</ele>
        <time>2022-08-29T19:38:21.448Z</time>
      </trkpt>
      <trkpt lat="47.25719" lon="-1.42628">
        <ele>5</ele>
        <time>2022-08-29T19:38:26.125Z</time>
      </trkpt>
      <trkpt lat="47.25714" lon="-1.42624">
        <ele>5</ele>
        <time>2022-08-29T19:38:30.803Z</time>
      </trkpt>
      <trkpt lat="47.25676" lon="-1.4265">
        <ele>5</ele>
        <time>2022-08-29T19:38:35.487Z</time>
      </trkpt>
      <trkpt lat="47.2553" lon="-1.42768">
        <ele>5</ele>
        <time>2022-08-29T19:38:40.198Z</time>
      </trkpt>
      <trkpt lat="47.2544" lon="-1.42839">
        <ele>5</ele>
        <time>2022-08-29T19:38:44.925Z</time>
      </trkpt>
      <trkpt lat="47.25365" lon="-1.42887">
        <ele>5</ele>
        <time>2022-08-29T19:38:49.666Z</time>
      </trkpt>
      <trkpt lat="47.25365" lon="-1.42887">
        <ele>5</ele>
        <time>2022-08-29T19:38:54.407Z</time>
      </trkpt>
      <trkpt lat="47.25239" lon="-1.4296">
        <ele>5</ele>
        <time>2022-08-29T19:38:59.169Z</time>
      </trkpt>
      <trkpt lat="47.25219" lon="-1.42973">
        <ele>5</ele>
        <time>2022-08-29T19:39:03.935Z</time>
      </trkpt>
      <trkpt lat="47.25204" lon="-1.42985">
        <ele>5</ele>
        <time>2022-08-29T19:39:08.703Z</time>
      </trkpt>
      <trkpt lat="47.252" lon="-1.4298">
        <ele>5</ele>
        <time>2022-08-29T19:39:13.472Z</time>
      </trkpt>
      <trkpt lat="47.25193" lon="-1.42975">
        <ele>5</ele>
        <time>2022-08-29T19:39:18.243Z</time>
      </trkpt>
      <trkpt lat="47.25135" lon="-1.42948">
        <ele>5</ele>
        <time>2022-08-29T19:39:23.023Z</time>
      </trkpt>
      <trkpt lat="47.25121" lon="-1.42941">
        <ele>5</ele>
        <time>2022-08-29T19:39:27.806Z</time>
      </trkpt>
      <trkpt lat="47.25072" lon="-1.42919">
        <ele>5</ele>
        <time>2022-08-29T19:39:32.597Z</time>
      </trkpt>
      <trkpt lat="47.25037" lon="-1.42903">
        <ele>5</ele>
        <time>2022-08-29T19:39:37.394Z</time>
      </trkpt>
      <trkpt lat="47.25012" lon="-1.4289">
        <ele>5</ele>
        <time>2022-08-29T19:39:42.195Z</time>
      </trkpt>
      <trkpt lat="47.25004" lon="-1.4288">
        <ele>5</ele>
        <time>2022-08-29T19:39:46.998Z</time>
      </trkpt>
      <trkpt lat="47.24996" lon="-1.42865">
        <ele>5</ele>
        <time>2022-08-29T19:39:51.803Z</time>
      </trkpt>
      <trkpt lat="47.24978" lon="-1.4283">
        <ele>5</ele>
        <time>2022-08-29T19:39:56.613Z</time>
      </trkpt>
      <trkpt lat="47.24954" lon="-1.42774">
        <ele>5</ele>
        <time>2022-08-29T19:40:01.430Z</time>
      </trkpt>
      <trkpt lat="47.2494" lon="-1.42745">
        <ele>5</ele>
        <time>2022-08-29T19:40:06.251Z</time>
      </trkpt>
      <trkpt lat="47.24912" lon="-1.427">
        <ele>5</ele>
        <time>2022-08-29T19:40:11.078Z</time>
      </trkpt>
      <trkpt lat="47.24843" lon="-1.42831">
        <ele>5</ele>
        <time>2022-08-29T19:40:15.923Z</time>
      </trkpt>
      <trkpt lat="47.24828" lon="-1.42858">
        <ele>5</ele>
        <time>2022-08-29T19:40:20.772Z</time>
      </trkpt>
      <trkpt lat="47.24821" lon="-1.42868">
        <ele>5</ele>
        <time>2022-08-29T19:40:25.623Z</time>
      </trkpt>
      <trkpt lat="47.24785" lon="-1.42895">
        <ele>5</ele>
        <time>2022-08-29T19:40:30.480Z</time>
      </trkpt>
      <trkpt lat="47.24672" lon="-1.42957">
        <ele>5</ele>
        <time>2022-08-29T19:40:35.357Z</time>
      </trkpt>
      <trkpt lat="47.24643" lon="-1.42979">
        <ele>5</ele>
        <time>2022-08-29T19:40:40.239Z</time>
      </trkpt>
      <trkpt lat="47.24631" lon="-1.42991">
        <ele>5</ele>
        <time>2022-08-29T19:40:45.123Z</time>
      </trkpt>
      <trkpt lat="47.24631" lon="-1.42991">
        <ele>5</ele>
        <time>2022-08-29T19:40:50.007Z</time>
      </trkpt>
      <trkpt lat="47.24429" lon="-1.43174">
        <ele>5</ele>
        <time>2022-08-29T19:40:54.929Z</time>
      </trkpt>
      <trkpt lat="47.24418" lon="-1.43184">
        <ele>5</ele>
        <time>2022-08-29T19:40:59.853Z</time>
      </trkpt>
      <trkpt lat="47.24414" lon="-1.43185">
        <ele>5</ele>
        <time>2022-08-29T19:41:04.778Z</time>
      </trkpt>
      <trkpt lat="47.24414" lon="-1.43192">
        <ele>5</ele>
        <time>2022-08-29T19:41:09.704Z</time>
      </trkpt>
      <trkpt lat="47.2441" lon="-1.43199">
        <ele>5</ele>
        <time>2022-08-29T19:41:14.631Z</time>
      </trkpt>
      <trkpt lat="47.24404" lon="-1.43199">
        <ele>5</ele>
        <time>2022-08-29T19:41:19.558Z</time>
      </trkpt>
      <trkpt lat="47.24401" lon="-1.43195">
        <ele>5</ele>
        <time>2022-08-29T19:41:24.486Z</time>
      </trkpt>
      <trkpt lat="47.24389" lon="-1.43205">
        <ele>4</ele>
        <time>2022-08-29T19:41:29.416Z</time>
      </trkpt>
      <trkpt lat="47.24336" lon="-1.43314">
        <ele>4</ele>
        <time>2022-08-29T19:41:34.361Z</time>
      </trkpt>
      <trkpt lat="47.24226" lon="-1.43559">
        <ele>4</ele>
        <time>2022-08-29T19:41:39.338Z</time>
      </trkpt>
      <trkpt lat="47.24225" lon="-1.4356">
        <ele>4</ele>
        <time>2022-08-29T19:41:44.315Z</time>
      </trkpt>
      <trkpt lat="47.24155" lon="-1.43719">
        <ele>4</ele>
        <time>2022-08-29T19:41:49.313Z</time>
      </trkpt>
      <trkpt lat="47.2408" lon="-1.43892">
        <ele>4</ele>
        <time>2022-08-29T19:41:54.333Z</time>
      </trkpt>
      <trkpt lat="47.2394" lon="-1.44206">
        <ele>4</ele>
        <time>2022-08-29T19:41:59.394Z</time>
      </trkpt>
      <trkpt lat="47.23769" lon="-1.44594">
        <ele>4</ele>
        <time>2022-08-29T19:42:04.505Z</time>
      </trkpt>
      <trkpt lat="47.23769" lon="-1.44594">
        <ele>4</ele>
        <time>2022-08-29T19:42:09.616Z</time>
      </trkpt>
      <trkpt lat="47.23659" lon="-1.44867">
        <ele>4</ele>
        <time>2022-08-29T19:42:14.762Z</time>
      </trkpt>
      <trkpt lat="47.23592" lon="-1.45024">
        <ele>4</ele>
        <time>2022-08-29T19:42:19.928Z</time>
      </trkpt>
      <trkpt lat="47.23592" lon="-1.45024">
        <ele>4</ele>
        <time>2022-08-29T19:42:25.094Z</time>
      </trkpt>
      <trkpt lat="47.23577" lon="-1.45059">
        <ele>4</ele>
        <time>2022-08-29T19:42:30.265Z</time>
      </trkpt>
      <trkpt lat="47.23531" lon="-1.45158">
        <ele>4</ele>
        <time>2022-08-29T19:42:35.449Z</time>
      </trkpt>
      <trkpt lat="47.23513" lon="-1.45193">
        <ele>4</ele>
        <time>2022-08-29T19:42:40.638Z</time>
      </trkpt>
      <trkpt lat="47.23491" lon="-1.4523">
        <ele>4</ele>
        <time>2022-08-29T19:42:45.832Z</time>
      </trkpt>
      <trkpt lat="47.23452" lon="-1.45286">
        <ele>4</ele>
        <time>2022-08-29T19:42:51.035Z</time>
      </trkpt>
      <trkpt lat="47.23409" lon="-1.45336">
        <ele>4</ele>
        <time>2022-08-29T19:42:56.246Z</time>
      </trkpt>
      <trkpt lat="47.23367" lon="-1.45382">
        <ele>5</ele>
        <time>2022-08-29T19:43:01.466Z</time>
      </trkpt>
      <trkpt lat="47.23327" lon="-1.45432">
        <ele>5</ele>
        <time>2022-08-29T19:43:06.694Z</time>
      </trkpt>
      <trkpt lat="47.23191" lon="-1.45597">
        <ele>5</ele>
        <time>2022-08-29T19:43:11.950Z</time>
      </trkpt>
      <trkpt lat="47.23117" lon="-1.45689">
        <ele>5</ele>
        <time>2022-08-29T19:43:17.222Z</time>
      </trkpt>
      <trkpt lat="47.23105" lon="-1.45717">
        <ele>5</ele>
        <time>2022-08-29T19:43:22.498Z</time>
      </trkpt>
      <trkpt lat="47.23068" lon="-1.45881">
        <ele>5</ele>
        <time>2022-08-29T19:43:27.792Z</time>
      </trkpt>
      <trkpt lat="47.23068" lon="-1.45881">
        <ele>5</ele>
        <time>2022-08-29T19:43:33.086Z</time>
      </trkpt>
      <trkpt lat="47.23055" lon="-1.4592">
        <ele>5</ele>
        <time>2022-08-29T19:43:38.385Z</time>
      </trkpt>
      <trkpt lat="47.23047" lon="-1.45933">
        <ele>5</ele>
        <time>2022-08-29T19:43:43.686Z</time>
      </trkpt>
      <trkpt lat="47.2304" lon="-1.45934">
        <ele>5</ele>
        <time>2022-08-29T19:43:48.988Z</time>
      </trkpt>
      <trkpt lat="47.23024" lon="-1.45929">
        <ele>5</ele>
        <time>2022-08-29T19:43:54.293Z</time>
      </trkpt>
      <trkpt lat="47.22984" lon="-1.45914">
        <ele>5</ele>
        <time>2022-08-29T19:43:59.604Z</time>
      </trkpt>
      <trkpt lat="47.22977" lon="-1.45911">
        <ele>5</ele>
        <time>2022-08-29T19:44:04.916Z</time>
      </trkpt>
      <trkpt lat="47.22977" lon="-1.45911">
        <ele>5</ele>
        <time>2022-08-29T19:44:10.228Z</time>
      </trkpt>
      <trkpt lat="47.22488" lon="-1.45736">
        <ele>5</ele>
        <time>2022-08-29T19:44:15.621Z</time>
      </trkpt>
      <trkpt lat="47.22471" lon="-1.4573">
        <ele>4</ele>
        <time>2022-08-29T19:44:21.017Z</time>
      </trkpt>
      <trkpt lat="47.22119" lon="-1.45601">
        <ele>4</ele>
        <time>2022-08-29T19:44:26.471Z</time>
      </trkpt>
      <trkpt lat="47.22111" lon="-1.45597">
        <ele>4</ele>
        <time>2022-08-29T19:44:31.926Z</time>
      </trkpt>
      <trkpt lat="47.22083" lon="-1.45566">
        <ele>4</ele>
        <time>2022-08-29T19:44:37.387Z</time>
      </trkpt>
      <trkpt lat="47.22077" lon="-1.4556">
        <ele>4</ele>
        <time>2022-08-29T19:44:42.849Z</time>
      </trkpt>
      <trkpt lat="47.22053" lon="-1.45537">
        <ele>4</ele>
        <time>2022-08-29T19:44:48.316Z</time>
      </trkpt>
      <trkpt lat="47.22062" lon="-1.45486">
        <ele>4</ele>
        <time>2022-08-29T19:44:53.789Z</time>
      </trkpt>
      <trkpt lat="47.22067" lon="-1.45459">
        <ele>3</ele>
        <time>2022-08-29T19:44:59.265Z</time>
      </trkpt>
      <trkpt lat="47.22071" lon="-1.45407">
        <ele>3</ele>
        <time>2022-08-29T19:45:04.746Z</time>
      </trkpt>
      <trkpt lat="47.22069" lon="-1.45348">
        <ele>3</ele>
        <time>2022-08-29T19:45:10.234Z</time>
      </trkpt>
      <trkpt lat="47.22074" lon="-1.45324">
        <ele>3</ele>
        <time>2022-08-29T19:45:15.724Z</time>
      </trkpt>
      <trkpt lat="47.22073" lon="-1.453">
        <ele>3</ele>
        <time>2022-08-29T19:45:21.217Z</time>
      </trkpt>
      <trkpt lat="47.22072" lon="-1.45292">
        <ele>3</ele>
        <time>2022-08-29T19:45:26.711Z</time>
      </trkpt>
      <trkpt lat="47.22064" lon="-1.45273">
        <ele>3</ele>
        <time>2022-08-29T19:45:32.207Z</time>
      </trkpt>
      <trkpt lat="47.22045" lon="-1.45259">
        <ele>3</ele>
        <time>2022-08-29T19:45:37.707Z</time>
      </trkpt>
      <trkpt lat="47.22038" lon="-1.4525">
        <ele>4</ele>
        <time>2022-08-29T19:45:43.208Z</time>
      </trkpt>
      <trkpt lat="47.22006" lon="-1.45175">
        <ele>4</ele>
        <time>2022-08-29T19:45:48.719Z</time>
      </trkpt>
      <trkpt lat="47.22001" lon="-1.45174">
        <ele>4</ele>
        <time>2022-08-29T19:45:54.231Z</time>
      </trkpt>
      <trkpt lat="47.22001" lon="-1.45171">
        <ele>4</ele>
        <time>2022-08-29T19:45:59.743Z</time>
      </trkpt>
      <trkpt lat="47.22003" lon="-1.45094">
        <ele>4</ele>
        <time>2022-08-29T19:46:05.264Z</time>
      </trkpt>
      <trkpt lat="47.22005" lon="-1.44996">
        <ele>4</ele>
        <time>2022-08-29T19:46:10.795Z</time>
      </trkpt>
      <trkpt lat="47.22005" lon="-1.44996">
        <ele>5</ele>
        <time>2022-08-29T19:46:16.326Z</time>
      </trkpt>
      <trkpt lat="47.22008" lon="-1.44949">
        <ele>5</ele>
        <time>2022-08-29T19:46:21.862Z</time>
      </trkpt>
      <trkpt lat="47.22013" lon="-1.44878">
        <ele>5</ele>
        <time>2022-08-29T19:46:27.406Z</time>
      </trkpt>
      <trkpt lat="47.22013" lon="-1.44849">
        <ele>5</ele>
        <time>2022-08-29T19:46:32.953Z</time>
      </trkpt>
      <trkpt lat="47.22013" lon="-1.44849">
        <ele>5</ele>
        <time>2022-08-29T19:46:38.500Z</time>
      </trkpt>
      <trkpt lat="47.22006" lon="-1.44814">
        <ele>5</ele>
        <time>2022-08-29T19:46:44.051Z</time>
      </trkpt>
      <trkpt lat="47.21999" lon="-1.44795">
        <ele>6</ele>
        <time>2022-08-29T19:46:49.605Z</time>
      </trkpt>
      <trkpt lat="47.21991" lon="-1.4478">
        <ele>6</ele>
        <time>2022-08-29T19:46:55.161Z</time>
      </trkpt>
      <trkpt lat="47.21982" lon="-1.44769">
        <ele>6</ele>
        <time>2022-08-29T19:47:00.719Z</time>
      </trkpt>
      <trkpt lat="47.21961" lon="-1.44748">
        <ele>6</ele>
        <time>2022-08-29T19:47:06.281Z</time>
      </trkpt>
      <trkpt lat="47.21949" lon="-1.44737">
        <ele>6</ele>
        <time>2022-08-29T19:47:11.845Z</time>
      </trkpt>
      <trkpt lat="47.21922" lon="-1.44716">
        <ele>6</ele>
        <time>2022-08-29T19:47:17.414Z</time>
      </trkpt>
      <trkpt lat="47.21922" lon="-1.44716">
        <ele>6</ele>
        <time>2022-08-29T19:47:22.983Z</time>
      </trkpt>
      <trkpt lat="47.21894" lon="-1.44693">
        <ele>6</ele>
        <time>2022-08-29T19:47:28.557Z</time>
      </trkpt>
      <trkpt lat="47.21855" lon="-1.44669">
        <ele>6</ele>
        <time>2022-08-29T19:47:34.138Z</time>
      </trkpt>
      <trkpt lat="47.2184" lon="-1.44657">
        <ele>6</ele>
        <time>2022-08-29T19:47:39.722Z</time>
      </trkpt>
      <trkpt lat="47.21837" lon="-1.44662">
        <ele>6</ele>
        <time>2022-08-29T19:47:45.306Z</time>
      </trkpt>
      <trkpt lat="47.21832" lon="-1.44662">
        <ele>6</ele>
        <time>2022-08-29T19:47:50.891Z</time>
      </trkpt>
      <trkpt lat="47.21827" lon="-1.44656">
        <ele>6</ele>
        <time>2022-08-29T19:47:56.477Z</time>
      </trkpt>
      <trkpt lat="47.21828" lon="-1.44647">
        <ele>6</ele>
        <time>2022-08-29T19:48:02.064Z</time>
      </trkpt>
      <trkpt lat="47.21818" lon="-1.44639">
        <ele>5</ele>
        <time>2022-08-29T19:48:07.653Z</time>
      </trkpt>
      <trkpt lat="47.21807" lon="-1.4462">
        <ele>5</ele>
        <time>2022-08-29T19:48:13.245Z</time>
      </trkpt>
      <trkpt lat="47.21795" lon="-1.44596">
        <ele>5</ele>
        <time>2022-08-29T19:48:18.840Z</time>
      </trkpt>
      <trkpt lat="47.21792" lon="-1.44583">
        <ele>5</ele>
        <time>2022-08-29T19:48:24.436Z</time>
      </trkpt>
      <trkpt lat="47.21788" lon="-1.44555">
        <ele>5</ele>
        <time>2022-08-29T19:48:30.036Z</time>
      </trkpt>
      <trkpt lat="47.21782" lon="-1.44483">
        <ele>5</ele>
        <time>2022-08-29T19:48:35.643Z</time>
      </trkpt>
      <trkpt lat="47.2178" lon="-1.44464">
        <ele>5</ele>
        <time>2022-08-29T19:48:41.253Z</time>
      </trkpt>
      <trkpt lat="47.2178" lon="-1.44464">
        <ele>5</ele>
        <time>2022-08-29T19:48:46.863Z</time>
      </trkpt>
      <trkpt lat="47.21778" lon="-1.44454">
        <ele>5</ele>
        <time>2022-08-29T19:48:52.474Z</time>
      </trkpt>
      <trkpt lat="47.21773" lon="-1.44439">
        <ele>4</ele>
        <time>2022-08-29T19:48:58.087Z</time>
      </trkpt>
      <trkpt lat="47.21764" lon="-1.44422">
        <ele>4</ele>
        <time>2022-08-29T19:49:03.702Z</time>
      </trkpt>
      <trkpt lat="47.21756" lon="-1.44408">
        <ele>4</ele>
        <time>2022-08-29T19:49:09.319Z</time>
      </trkpt>
      <trkpt lat="47.21745" lon="-1.44395">
        <ele>4</ele>
        <time>2022-08-29T19:49:14.938Z</time>
      </trkpt>
      <trkpt lat="47.2172" lon="-1.44373">
        <ele>4</ele>
        <time>2022-08-29T19:49:20.562Z</time>
      </trkpt>
      <trkpt lat="47.21687" lon="-1.44349">
        <ele>4</ele>
        <time>2022-08-29T19:49:26.192Z</time>
      </trkpt>
      <trkpt lat="47.21667" lon="-1.44332">
        <ele>4</ele>
        <time>2022-08-29T19:49:31.825Z</time>
      </trkpt>
      <trkpt lat="47.21656" lon="-1.44313">
        <ele>3</ele>
        <time>2022-08-29T19:49:37.461Z</time>
      </trkpt>
      <trkpt lat="47.21646" lon="-1.44294">
        <ele>3</ele>
        <time>2022-08-29T19:49:43.100Z</time>
      </trkpt>
      <trkpt lat="47.21631" lon="-1.44259">
        <ele>3</ele>
        <time>2022-08-29T19:49:48.743Z</time>
      </trkpt>
      <trkpt lat="47.21595" lon="-1.4417">
        <ele>3</ele>
        <time>2022-08-29T19:49:54.398Z</time>
      </trkpt>
      <trkpt lat="47.21587" lon="-1.44148">
        <ele>3</ele>
        <time>2022-08-29T19:50:00.055Z</time>
      </trkpt>
      <trkpt lat="47.21583" lon="-1.44126">
        <ele>3</ele>
        <time>2022-08-29T19:50:05.715Z</time>
      </trkpt>
      <trkpt lat="47.21581" lon="-1.44102">
        <ele>3</ele>
        <time>2022-08-29T19:50:11.377Z</time>
      </trkpt>
      <trkpt lat="47.21583" lon="-1.44079">
        <ele>3</ele>
        <time>2022-08-29T19:50:17.042Z</time>
      </trkpt>
      <trkpt lat="47.21586" lon="-1.44063">
        <ele>3</ele>
        <time>2022-08-29T19:50:22.709Z</time>
      </trkpt>
      <trkpt lat="47.21601" lon="-1.43986">
        <ele>3</ele>
        <time>2022-08-29T19:50:28.384Z</time>
      </trkpt>
      <trkpt lat="47.2162" lon="-1.43714">
        <ele>3</ele>
        <time>2022-08-29T19:50:34.089Z</time>
      </trkpt>
      <trkpt lat="47.21613" lon="-1.43686">
        <ele>3</ele>
        <time>2022-08-29T19:50:39.798Z</time>
      </trkpt>
      <trkpt lat="47.21604" lon="-1.43681">
        <ele>3</ele>
        <time>2022-08-29T19:50:45.508Z</time>
      </trkpt>
      <trkpt lat="47.21601" lon="-1.4367">
        <ele>3</ele>
        <time>2022-08-29T19:50:51.219Z</time>
      </trkpt>
      <trkpt lat="47.216" lon="-1.4366">
        <ele>3</ele>
        <time>2022-08-29T19:50:56.931Z</time>
      </trkpt>
      <trkpt lat="47.21603" lon="-1.43648">
        <ele>3</ele>
        <time>2022-08-29T19:51:02.645Z</time>
      </trkpt>
      <trkpt lat="47.21601" lon="-1.43634">
        <ele>4</ele>
        <time>2022-08-29T19:51:08.360Z</time>
      </trkpt>
      <trkpt lat="47.21596" lon="-1.43622">
        <ele>4</ele>
        <time>2022-08-29T19:51:14.077Z</time>
      </trkpt>
      <trkpt lat="47.21564" lon="-1.43584">
        <ele>4</ele>
        <time>2022-08-29T19:51:19.800Z</time>
      </trkpt>
      <trkpt lat="47.21548" lon="-1.43562">
        <ele>4</ele>
        <time>2022-08-29T19:51:25.527Z</time>
      </trkpt>
      <trkpt lat="47.21534" lon="-1.4354">
        <ele>4</ele>
        <time>2022-08-29T19:51:31.257Z</time>
      </trkpt>
      <trkpt lat="47.21527" lon="-1.43519">
        <ele>5</ele>
        <time>2022-08-29T19:51:36.990Z</time>
      </trkpt>
      <trkpt lat="47.21513" lon="-1.43469">
        <ele>5</ele>
        <time>2022-08-29T19:51:42.729Z</time>
      </trkpt>
      <trkpt lat="47.21508" lon="-1.43453">
        <ele>5</ele>
        <time>2022-08-29T19:51:48.470Z</time>
      </trkpt>
      <trkpt lat="47.21501" lon="-1.43442">
        <ele>6</ele>
        <time>2022-08-29T19:51:54.212Z</time>
      </trkpt>
      <trkpt lat="47.21492" lon="-1.43432">
        <ele>6</ele>
        <time>2022-08-29T19:51:59.956Z</time>
      </trkpt>
      <trkpt lat="47.21413" lon="-1.43376">
        <ele>7</ele>
        <time>2022-08-29T19:52:05.714Z</time>
      </trkpt>
      <trkpt lat="47.21408" lon="-1.43368">
        <ele>7</ele>
        <time>2022-08-29T19:52:11.473Z</time>
      </trkpt>
      <trkpt lat="47.214" lon="-1.43347">
        <ele>8</ele>
        <time>2022-08-29T19:52:17.235Z</time>
      </trkpt>
      <trkpt lat="47.21386" lon="-1.43271">
        <ele>9</ele>
        <time>2022-08-29T19:52:23.006Z</time>
      </trkpt>
      <trkpt lat="47.21376" lon="-1.43189">
        <ele>10</ele>
        <time>2022-08-29T19:52:28.786Z</time>
      </trkpt>
      <trkpt lat="47.2137" lon="-1.43172">
        <ele>10</ele>
        <time>2022-08-29T19:52:34.568Z</time>
      </trkpt>
      <trkpt lat="47.21364" lon="-1.43159">
        <ele>11</ele>
        <time>2022-08-29T19:52:40.351Z</time>
      </trkpt>
      <trkpt lat="47.21356" lon="-1.43151">
        <ele>12</ele>
        <time>2022-08-29T19:52:46.136Z</time>
      </trkpt>
      <trkpt lat="47.21324" lon="-1.43126">
        <ele>12</ele>
        <time>2022-08-29T19:52:51.927Z</time>
      </trkpt>
      <trkpt lat="47.21296" lon="-1.43107">
        <ele>13</ele>
        <time>2022-08-29T19:52:57.723Z</time>
      </trkpt>
      <trkpt lat="47.21289" lon="-1.43101">
        <ele>14</ele>
        <time>2022-08-29T19:53:03.520Z</time>
      </trkpt>
      <trkpt lat="47.21262" lon="-1.43087">
        <ele>14</ele>
        <time>2022-08-29T19:53:09.322Z</time>
      </trkpt>
      <trkpt lat="47.21202" lon="-1.43085">
        <ele>15</ele>
        <time>2022-08-29T19:53:15.133Z</time>
      </trkpt>
      <trkpt lat="47.21152" lon="-1.43069">
        <ele>16</ele>
        <time>2022-08-29T19:53:20.952Z</time>
      </trkpt>
      <trkpt lat="47.21146" lon="-1.43067">
        <ele>17</ele>
        <time>2022-08-29T19:53:26.772Z</time>
      </trkpt>
      <trkpt lat="47.21133" lon="-1.43064">
        <ele>17</ele>
        <time>2022-08-29T19:53:32.594Z</time>
      </trkpt>
      <trkpt lat="47.21063" lon="-1.4306">
        <ele>18</ele>
        <time>2022-08-29T19:53:38.428Z</time>
      </trkpt>
      <trkpt lat="47.21037" lon="-1.43055">
        <ele>18</ele>
        <time>2022-08-29T19:53:44.266Z</time>
      </trkpt>
      <trkpt lat="47.21012" lon="-1.43042">
        <ele>18</ele>
        <time>2022-08-29T19:53:50.108Z</time>
      </trkpt>
      <trkpt lat="47.20887" lon="-1.42954">
        <ele>19</ele>
        <time>2022-08-29T19:53:55.972Z</time>
      </trkpt>
      <trkpt lat="47.2086" lon="-1.42945">
        <ele>19</ele>
        <time>2022-08-29T19:54:01.841Z</time>
      </trkpt>
      <trkpt lat="47.20845" lon="-1.42942">
        <ele>19</ele>
        <time>2022-08-29T19:54:07.712Z</time>
      </trkpt>
      <trkpt lat="47.20818" lon="-1.42945">
        <ele>20</ele>
        <time>2022-08-29T19:54:13.588Z</time>
      </trkpt>
      <trkpt lat="47.20799" lon="-1.42946">
        <ele>20</ele>
        <time>2022-08-29T19:54:19.466Z</time>
      </trkpt>
      <trkpt lat="47.20755" lon="-1.42939">
        <ele>20</ele>
        <time>2022-08-29T19:54:25.352Z</time>
      </trkpt>
      <trkpt lat="47.20707" lon="-1.4292">
        <ele>21</ele>
        <time>2022-08-29T19:54:31.246Z</time>
      </trkpt>
      <trkpt lat="47.20616" lon="-1.42907">
        <ele>21</ele>
        <time>2022-08-29T19:54:37.154Z</time>
      </trkpt>
      <trkpt lat="47.20592" lon="-1.42904">
        <ele>21</ele>
        <time>2022-08-29T19:54:43.066Z</time>
      </trkpt>
      <trkpt lat="47.20568" lon="-1.42898">
        <ele>22</ele>
        <time>2022-08-29T19:54:48.982Z</time>
      </trkpt>
      <trkpt lat="47.20532" lon="-1.42892">
        <ele>22</ele>
        <time>2022-08-29T19:54:54.904Z</time>
      </trkpt>
      <trkpt lat="47.20514" lon="-1.42887">
        <ele>22</ele>
        <time>2022-08-29T19:55:00.829Z</time>
      </trkpt>
      <trkpt lat="47.20487" lon="-1.42874">
        <ele>22</ele>
        <time>2022-08-29T19:55:06.758Z</time>
      </trkpt>
      <trkpt lat="47.2042" lon="-1.42836">
        <ele>23</ele>
        <time>2022-08-29T19:55:12.699Z</time>
      </trkpt>
      <trkpt lat="47.20391" lon="-1.42823">
        <ele>23</ele>
        <time>2022-08-29T19:55:18.645Z</time>
      </trkpt>
      <trkpt lat="47.20387" lon="-1.4283">
        <ele>23</ele>
        <time>2022-08-29T19:55:24.592Z</time>
      </trkpt>
      <trkpt lat="47.20383" lon="-1.42831">
        <ele>24</ele>
        <time>2022-08-29T19:55:30.539Z</time>
      </trkpt>
      <trkpt lat="47.2038" lon="-1.42828">
        <ele>24</ele>
        <time>2022-08-29T19:55:36.487Z</time>
      </trkpt>
      <trkpt lat="47.20379" lon="-1.42823">
        <ele>24</ele>
        <time>2022-08-29T19:55:42.435Z</time>
      </trkpt>
      <trkpt lat="47.20379" lon="-1.42819">
        <ele>24</ele>
        <time>2022-08-29T19:55:48.384Z</time>
      </trkpt>
      <trkpt lat="47.20368" lon="-1.42816">
        <ele>25</ele>
        <time>2022-08-29T19:55:54.335Z</time>
      </trkpt>
      <trkpt lat="47.2031" lon="-1.42799">
        <ele>25</ele>
        <time>2022-08-29T19:56:00.295Z</time>
      </trkpt>
      <trkpt lat="47.20264" lon="-1.42791">
        <ele>26</ele>
        <time>2022-08-29T19:56:06.262Z</time>
      </trkpt>
      <trkpt lat="47.20231" lon="-1.42784">
        <ele>26</ele>
        <time>2022-08-29T19:56:12.235Z</time>
      </trkpt>
      <trkpt lat="47.20231" lon="-1.42784">
        <ele>26</ele>
        <time>2022-08-29T19:56:18.208Z</time>
      </trkpt>
      <trkpt lat="47.20195" lon="-1.42778">
        <ele>26</ele>
        <time>2022-08-29T19:56:24.187Z</time>
      </trkpt>
      <trkpt lat="47.2017" lon="-1.42785">
        <ele>26</ele>
        <time>2022-08-29T19:56:30.170Z</time>
      </trkpt>
      <trkpt lat="47.2017" lon="-1.42785">
        <ele>26</ele>
        <time>2022-08-29T19:56:36.153Z</time>
      </trkpt>
      <trkpt lat="47.20089" lon="-1.42819">
        <ele>27</ele>
        <time>2022-08-29T19:56:42.149Z</time>
      </trkpt>
      <trkpt lat="47.20063" lon="-1.4283">
        <ele>27</ele>
        <time>2022-08-29T19:56:48.149Z</time>
      </trkpt>
      <trkpt lat="47.20018" lon="-1.42848">
        <ele>27</ele>
        <time>2022-08-29T19:56:54.157Z</time>
      </trkpt>
      <trkpt lat="47.20018" lon="-1.42848">
        <ele>27</ele>
        <time>2022-08-29T19:57:00.165Z</time>
      </trkpt>
      <trkpt lat="47.19987" lon="-1.4286">
        <ele>27</ele>
        <time>2022-08-29T19:57:06.178Z</time>
      </trkpt>
      <trkpt lat="47.19945" lon="-1.42892">
        <ele>27</ele>
        <time>2022-08-29T19:57:12.199Z</time>
      </trkpt>
      <trkpt lat="47.19936" lon="-1.42886">
        <ele>27</ele>
        <time>2022-08-29T19:57:18.221Z</time>
      </trkpt>
      <trkpt lat="47.19914" lon="-1.42883">
        <ele>27</ele>
        <time>2022-08-29T19:57:24.247Z</time>
      </trkpt>
      <trkpt lat="47.19914" lon="-1.42883">
        <ele>27</ele>
        <time>2022-08-29T19:57:30.273Z</time>
      </trkpt>
      <trkpt lat="47.19897" lon="-1.42883">
        <ele>27</ele>
        <time>2022-08-29T19:57:36.302Z</time>
      </trkpt>
      <trkpt lat="47.19885" lon="-1.42887">
        <ele>27</ele>
        <time>2022-08-29T19:57:42.332Z</time>
      </trkpt>
      <trkpt lat="47.19879" lon="-1.42852">
        <ele>28</ele>
        <time>2022-08-29T19:57:48.366Z</time>
      </trkpt>
      <trkpt lat="47.19861" lon="-1.42797">
        <ele>28</ele>
        <time>2022-08-29T19:57:54.407Z</time>
      </trkpt>
      <trkpt lat="47.19859" lon="-1.42788">
        <ele>28</ele>
        <time>2022-08-29T19:58:00.449Z</time>
      </trkpt>
      <trkpt lat="47.19851" lon="-1.42758">
        <ele>28</ele>
        <time>2022-08-29T19:58:06.495Z</time>
      </trkpt>
      <trkpt lat="47.1985" lon="-1.42746">
        <ele>28</ele>
        <time>2022-08-29T19:58:12.542Z</time>
      </trkpt>
      <trkpt lat="47.19849" lon="-1.42729">
        <ele>28</ele>
        <time>2022-08-29T19:58:18.591Z</time>
      </trkpt>
      <trkpt lat="47.19847" lon="-1.4271">
        <ele>29</ele>
        <time>2022-08-29T19:58:24.642Z</time>
      </trkpt>
      <trkpt lat="47.19838" lon="-1.4271">
        <ele>29</ele>
        <time>2022-08-29T19:58:30.694Z</time>
      </trkpt>
      <trkpt lat="47.19829" lon="-1.42704">
        <ele>29</ele>
        <time>2022-08-29T19:58:36.748Z</time>
      </trkpt>
      <trkpt lat="47.19788" lon="-1.42676">
        <ele>29</ele>
        <time>2022-08-29T19:58:42.809Z</time>
      </trkpt>
      <trkpt lat="47.19731" lon="-1.42653">
        <ele>29</ele>
        <time>2022-08-29T19:58:48.880Z</time>
      </trkpt>
      <trkpt lat="47.19707" lon="-1.42638">
        <ele>29</ele>
        <time>2022-08-29T19:58:54.955Z</time>
      </trkpt>
      <trkpt lat="47.19682" lon="-1.42609">
        <ele>29</ele>
        <time>2022-08-29T19:59:01.035Z</time>
      </trkpt>
      <trkpt lat="47.19597" lon="-1.42505">
        <ele>29</ele>
        <time>2022-08-29T19:59:07.133Z</time>
      </trkpt>
      <trkpt lat="47.19597" lon="-1.42505">
        <ele>29</ele>
        <time>2022-08-29T19:59:13.231Z</time>
      </trkpt>
      <trkpt lat="47.19575" lon="-1.42479">
        <ele>29</ele>
        <time>2022-08-29T19:59:19.333Z</time>
      </trkpt>
      <trkpt lat="47.19523" lon="-1.42411">
        <ele>29</ele>
        <time>2022-08-29T19:59:25.446Z</time>
      </trkpt>
      <trkpt lat="47.1944" lon="-1.42336">
        <ele>29</ele>
        <time>2022-08-29T19:59:31.575Z</time>
      </trkpt>
      <trkpt lat="47.1944" lon="-1.42336">
        <ele>29</ele>
        <time>2022-08-29T19:59:37.704Z</time>
      </trkpt>
      <trkpt lat="47.19366" lon="-1.4227">
        <ele>29</ele>
        <time>2022-08-29T19:59:43.847Z</time>
      </trkpt>
      <trkpt lat="47.19348" lon="-1.42249">
        <ele>29</ele>
        <time>2022-08-29T19:59:49.993Z</time>
      </trkpt>
      <trkpt lat="47.19286" lon="-1.42179">
        <ele>28</ele>
        <time>2022-08-29T19:59:56.152Z</time>
      </trkpt>
      <trkpt lat="47.19233" lon="-1.42134">
        <ele>28</ele>
        <time>2022-08-29T20:00:02.321Z</time>
      </trkpt>
      <trkpt lat="47.19165" lon="-1.42077">
        <ele>28</ele>
        <time>2022-08-29T20:00:08.502Z</time>
      </trkpt>
      <trkpt lat="47.19144" lon="-1.42047">
        <ele>28</ele>
        <time>2022-08-29T20:00:14.688Z</time>
      </trkpt>
      <trkpt lat="47.1913" lon="-1.42019">
        <ele>28</ele>
        <time>2022-08-29T20:00:20.878Z</time>
      </trkpt>
      <trkpt lat="47.19116" lon="-1.41978">
        <ele>28</ele>
        <time>2022-08-29T20:00:27.073Z</time>
      </trkpt>
      <trkpt lat="47.19104" lon="-1.4195">
        <ele>28</ele>
        <time>2022-08-29T20:00:33.271Z</time>
      </trkpt>
      <trkpt lat="47.19094" lon="-1.41932">
        <ele>28</ele>
        <time>2022-08-29T20:00:39.472Z</time>
      </trkpt>
      <trkpt lat="47.19073" lon="-1.41908">
        <ele>28</ele>
        <time>2022-08-29T20:00:45.677Z</time>
      </trkpt>
      <trkpt lat="47.19025" lon="-1.41866">
        <ele>28</ele>
        <time>2022-08-29T20:00:51.891Z</time>
      </trkpt>
      <trkpt lat="47.18967" lon="-1.41813">
        <ele>29</ele>
        <time>2022-08-29T20:00:58.116Z</time>
      </trkpt>
      <trkpt lat="47.18906" lon="-1.41776">
        <ele>29</ele>
        <time>2022-08-29T20:01:04.352Z</time>
      </trkpt>
      <trkpt lat="47.18896" lon="-1.4177">
        <ele>29</ele>
        <time>2022-08-29T20:01:10.589Z</time>
      </trkpt>
      <trkpt lat="47.18896" lon="-1.4177">
        <ele>29</ele>
        <time>2022-08-29T20:01:16.826Z</time>
      </trkpt>
      <trkpt lat="47.18873" lon="-1.41757">
        <ele>30</ele>
        <time>2022-08-29T20:01:23.067Z</time>
      </trkpt>
      <trkpt lat="47.1886" lon="-1.41752">
        <ele>30</ele>
        <time>2022-08-29T20:01:29.310Z</time>
      </trkpt>
      <trkpt lat="47.1882" lon="-1.41742">
        <ele>30</ele>
        <time>2022-08-29T20:01:35.560Z</time>
      </trkpt>
      <trkpt lat="47.18796" lon="-1.41738">
        <ele>30</ele>
        <time>2022-08-29T20:01:41.814Z</time>
      </trkpt>
      <trkpt lat="47.18753" lon="-1.41725">
        <ele>30</ele>
        <time>2022-08-29T20:01:48.075Z</time>
      </trkpt>
      <trkpt lat="47.18736" lon="-1.41718">
        <ele>30</ele>
        <time>2022-08-29T20:01:54.339Z</time>
      </trkpt>
      <trkpt lat="47.18704" lon="-1.41698">
        <ele>30</ele>
        <time>2022-08-29T20:02:00.608Z</time>
      </trkpt>
      <trkpt lat="47.18668" lon="-1.41673">
        <ele>31</ele>
        <time>2022-08-29T20:02:06.884Z</time>
      </trkpt>
      <trkpt lat="47.18648" lon="-1.4166">
        <ele>31</ele>
        <time>2022-08-29T20:02:13.163Z</time>
      </trkpt>
      <trkpt lat="47.1864" lon="-1.41651">
        <ele>31</ele>
        <time>2022-08-29T20:02:19.444Z</time>
      </trkpt>
      <trkpt lat="47.18633" lon="-1.41639">
        <ele>31</ele>
        <time>2022-08-29T20:02:25.726Z</time>
      </trkpt>
      <trkpt lat="47.1863" lon="-1.41628">
        <ele>31</ele>
        <time>2022-08-29T20:02:32.010Z</time>
      </trkpt>
      <trkpt lat="47.18629" lon="-1.41617">
        <ele>31</ele>
        <time>2022-08-29T20:02:38.295Z</time>
      </trkpt>
      <trkpt lat="47.18629" lon="-1.41608">
        <ele>30</ele>
        <time>2022-08-29T20:02:44.581Z</time>
      </trkpt>
      <trkpt lat="47.18637" lon="-1.41537">
        <ele>30</ele>
        <time>2022-08-29T20:02:50.875Z</time>
      </trkpt>
      <trkpt lat="47.18634" lon="-1.41509">
        <ele>30</ele>
        <time>2022-08-29T20:02:57.172Z</time>
      </trkpt>
      <trkpt lat="47.18623" lon="-1.41465">
        <ele>30</ele>
        <time>2022-08-29T20:03:03.474Z</time>
      </trkpt>
      <trkpt lat="47.18616" lon="-1.41452">
        <ele>30</ele>
        <time>2022-08-29T20:03:09.778Z</time>
      </trkpt>
      <trkpt lat="47.18611" lon="-1.41446">
        <ele>30</ele>
        <time>2022-08-29T20:03:16.083Z</time>
      </trkpt>
      <trkpt lat="47.18597" lon="-1.41436">
        <ele>30</ele>
        <time>2022-08-29T20:03:22.390Z</time>
      </trkpt>
      <trkpt lat="47.18583" lon="-1.4143">
        <ele>30</ele>
        <time>2022-08-29T20:03:28.700Z</time>
      </trkpt>
      <trkpt lat="47.18483" lon="-1.41404">
        <ele>29</ele>
        <time>2022-08-29T20:03:35.026Z</time>
      </trkpt>
      <trkpt lat="47.18463" lon="-1.414">
        <ele>29</ele>
        <time>2022-08-29T20:03:41.355Z</time>
      </trkpt>
      <trkpt lat="47.1842" lon="-1.41393">
        <ele>29</ele>
        <time>2022-08-29T20:03:47.691Z</time>
      </trkpt>
      <trkpt lat="47.18408" lon="-1.41389">
        <ele>29</ele>
        <time>2022-08-29T20:03:54.029Z</time>
      </trkpt>
      <trkpt lat="47.18387" lon="-1.41372">
        <ele>30</ele>
        <time>2022-08-29T20:04:00.371Z</time>
      </trkpt>
      <trkpt lat="47.18338" lon="-1.41325">
        <ele>30</ele>
        <time>2022-08-29T20:04:06.722Z</time>
      </trkpt>
      <trkpt lat="47.18328" lon="-1.41316">
        <ele>30</ele>
        <time>2022-08-29T20:04:13.075Z</time>
      </trkpt>
      <trkpt lat="47.18307" lon="-1.41307">
        <ele>30</ele>
        <time>2022-08-29T20:04:19.431Z</time>
      </trkpt>
      <trkpt lat="47.18236" lon="-1.41292">
        <ele>30</ele>
        <time>2022-08-29T20:04:25.799Z</time>
      </trkpt>
      <trkpt lat="47.18163" lon="-1.4127">
        <ele>30</ele>
        <time>2022-08-29T20:04:32.179Z</time>
      </trkpt>
      <trkpt lat="47.18143" lon="-1.41262">
        <ele>30</ele>
        <time>2022-08-29T20:04:38.562Z</time>
      </trkpt>
      <trkpt lat="47.1814" lon="-1.41259">
        <ele>31</ele>
        <time>2022-08-29T20:04:44.946Z</time>
      </trkpt>
      <trkpt lat="47.18136" lon="-1.41255">
        <ele>31</ele>
        <time>2022-08-29T20:04:51.331Z</time>
      </trkpt>
      <trkpt lat="47.18119" lon="-1.41212">
        <ele>31</ele>
        <time>2022-08-29T20:04:57.721Z</time>
      </trkpt>
      <trkpt lat="47.18111" lon="-1.41181">
        <ele>31</ele>
        <time>2022-08-29T20:05:04.115Z</time>
      </trkpt>
      <trkpt lat="47.18105" lon="-1.41149">
        <ele>32</ele>
        <time>2022-08-29T20:05:10.512Z</time>
      </trkpt>
      <trkpt lat="47.18098" lon="-1.41091">
        <ele>32</ele>
        <time>2022-08-29T20:05:16.916Z</time>
      </trkpt>
      <trkpt lat="47.18099" lon="-1.4108">
        <ele>32</ele>
        <time>2022-08-29T20:05:23.321Z</time>
      </trkpt>
      <trkpt lat="47.18102" lon="-1.41073">
        <ele>32</ele>
        <time>2022-08-29T20:05:29.727Z</time>
      </trkpt>
      <trkpt lat="47.18118" lon="-1.41063">
        <ele>32</ele>
        <time>2022-08-29T20:05:36.136Z</time>
      </trkpt>
      <trkpt lat="47.18121" lon="-1.41058">
        <ele>33</ele>
        <time>2022-08-29T20:05:42.545Z</time>
      </trkpt>
      <trkpt lat="47.18119" lon="-1.41048">
        <ele>33</ele>
        <time>2022-08-29T20:05:48.955Z</time>
      </trkpt>
      <trkpt lat="47.18108" lon="-1.40986">
        <ele>33</ele>
        <time>2022-08-29T20:05:55.372Z</time>
      </trkpt>
      <trkpt lat="47.18107" lon="-1.40978">
        <ele>33</ele>
        <time>2022-08-29T20:06:01.790Z</time>
      </trkpt>
      <trkpt lat="47.18107" lon="-1.40978">
        <ele>33</ele>
        <time>2022-08-29T20:06:08.208Z</time>
      </trkpt>
      <trkpt lat="47.1809" lon="-1.40909">
        <ele>33</ele>
        <time>2022-08-29T20:06:14.634Z</time>
      </trkpt>
      <trkpt lat="47.18041" lon="-1.40745">
        <ele>33</ele>
        <time>2022-08-29T20:06:21.080Z</time>
      </trkpt>
      <trkpt lat="47.1799" lon="-1.40789">
        <ele>33</ele>
        <time>2022-08-29T20:06:27.535Z</time>
      </trkpt>
      <trkpt lat="47.1798" lon="-1.40806">
        <ele>33</ele>
        <time>2022-08-29T20:06:33.993Z</time>
      </trkpt>
      <trkpt lat="47.17979" lon="-1.40812">
        <ele>33</ele>
        <time>2022-08-29T20:06:40.451Z</time>
      </trkpt>
      <trkpt lat="47.17981" lon="-1.4082">
        <ele>33</ele>
        <time>2022-08-29T20:06:46.910Z</time>
      </trkpt>
      <trkpt lat="47.17994" lon="-1.40854">
        <ele>33</ele>
        <time>2022-08-29T20:06:53.374Z</time>
      </trkpt>
      <trkpt lat="47.17971" lon="-1.4082">
        <ele>32</ele>
        <time>2022-08-29T20:06:59.843Z</time>
      </trkpt>
      <trkpt lat="47.17967" lon="-1.40819">
        <ele>32</ele>
        <time>2022-08-29T20:07:06.312Z</time>
      </trkpt>
      <trkpt lat="47.17963" lon="-1.40815">
        <ele>32</ele>
        <time>2022-08-29T20:07:12.782Z</time>
      </trkpt>
      <trkpt lat="47.17962" lon="-1.40807">
        <ele>32</ele>
        <time>2022-08-29T20:07:19.253Z</time>
      </trkpt>
      <trkpt lat="47.17962" lon="-1.40801">
        <ele>31</ele>
        <time>2022-08-29T20:07:25.725Z</time>
      </trkpt>
      <trkpt lat="47.1795" lon="-1.40768">
        <ele>31</ele>
        <time>2022-08-29T20:07:32.201Z</time>
      </trkpt>
      <trkpt lat="47.17926" lon="-1.40696">
        <ele>30</ele>
        <time>2022-08-29T20:07:38.686Z</time>
      </trkpt>
      <trkpt lat="47.17898" lon="-1.4062">
        <ele>30</ele>
        <time>2022-08-29T20:07:45.180Z</time>
      </trkpt>
      <trkpt lat="47.17881" lon="-1.40549">
        <ele>29</ele>
        <time>2022-08-29T20:07:51.682Z</time>
      </trkpt>
      <trkpt lat="47.17846" lon="-1.40389">
        <ele>28</ele>
        <time>2022-08-29T20:07:58.203Z</time>
      </trkpt>
      <trkpt lat="47.17836" lon="-1.40361">
        <ele>28</ele>
        <time>2022-08-29T20:08:04.727Z</time>
      </trkpt>
      <trkpt lat="47.17829" lon="-1.40345">
        <ele>27</ele>
        <time>2022-08-29T20:08:11.253Z</time>
      </trkpt>
      <trkpt lat="47.17818" lon="-1.40327">
        <ele>27</ele>
        <time>2022-08-29T20:08:17.782Z</time>
      </trkpt>
      <trkpt lat="47.17806" lon="-1.40314">
        <ele>27</ele>
        <time>2022-08-29T20:08:24.313Z</time>
      </trkpt>
      <trkpt lat="47.17789" lon="-1.40301">
        <ele>26</ele>
        <time>2022-08-29T20:08:30.847Z</time>
      </trkpt>
      <trkpt lat="47.17789" lon="-1.40301">
        <ele>26</ele>
        <time>2022-08-29T20:08:37.381Z</time>
      </trkpt>
      <trkpt lat="47.17784" lon="-1.4031">
        <ele>25</ele>
        <time>2022-08-29T20:08:43.916Z</time>
      </trkpt>
      <trkpt lat="47.17776" lon="-1.40316">
        <ele>25</ele>
        <time>2022-08-29T20:08:50.453Z</time>
      </trkpt>
      <trkpt lat="47.17769" lon="-1.40319">
        <ele>24</ele>
        <time>2022-08-29T20:08:56.991Z</time>
      </trkpt>
      <trkpt lat="47.17759" lon="-1.40318">
        <ele>24</ele>
        <time>2022-08-29T20:09:03.531Z</time>
      </trkpt>
      <trkpt lat="47.1775" lon="-1.40313">
        <ele>24</ele>
        <time>2022-08-29T20:09:10.072Z</time>
      </trkpt>
      <trkpt lat="47.17744" lon="-1.40303">
        <ele>23</ele>
        <time>2022-08-29T20:09:16.615Z</time>
      </trkpt>
      <trkpt lat="47.1771" lon="-1.40297">
        <ele>23</ele>
        <time>2022-08-29T20:09:23.163Z</time>
      </trkpt>
      <trkpt lat="47.17692" lon="-1.40295">
        <ele>22</ele>
        <time>2022-08-29T20:09:29.714Z</time>
      </trkpt>
      <trkpt lat="47.17646" lon="-1.40284">
        <ele>22</ele>
        <time>2022-08-29T20:09:36.272Z</time>
      </trkpt>
      <trkpt lat="47.1763" lon="-1.4028">
        <ele>21</ele>
        <time>2022-08-29T20:09:42.833Z</time>
      </trkpt>
      <trkpt lat="47.17605" lon="-1.4027">
        <ele>21</ele>
        <time>2022-08-29T20:09:49.398Z</time>
      </trkpt>
      <trkpt lat="47.17581" lon="-1.40257">
        <ele>20</ele>
        <time>2022-08-29T20:09:55.967Z</time>
      </trkpt>
      <trkpt lat="47.17547" lon="-1.40237">
        <ele>20</ele>
        <time>2022-08-29T20:10:02.542Z</time>
      </trkpt>
      <trkpt lat="47.17511" lon="-1.40206">
        <ele>20</ele>
        <time>2022-08-29T20:10:09.124Z</time>
      </trkpt>
      <trkpt lat="47.17471" lon="-1.40162">
        <ele>19</ele>
        <time>2022-08-29T20:10:15.714Z</time>
      </trkpt>
      <trkpt lat="47.1727" lon="-1.39909">
        <ele>18</ele>
        <time>2022-08-29T20:10:22.346Z</time>
      </trkpt>
      <trkpt lat="47.17215" lon="-1.39832">
        <ele>18</ele>
        <time>2022-08-29T20:10:28.990Z</time>
      </trkpt>
      <trkpt lat="47.172" lon="-1.39818">
        <ele>17</ele>
        <time>2022-08-29T20:10:35.637Z</time>
      </trkpt>
      <trkpt lat="47.17181" lon="-1.39806">
        <ele>16</ele>
        <time>2022-08-29T20:10:42.288Z</time>
      </trkpt>
      <trkpt lat="47.1717" lon="-1.3981">
        <ele>16</ele>
        <time>2022-08-29T20:10:48.940Z</time>
      </trkpt>
      <trkpt lat="47.1716" lon="-1.39805">
        <ele>16</ele>
        <time>2022-08-29T20:10:55.594Z</time>
      </trkpt>
      <trkpt lat="47.17153" lon="-1.39795">
        <ele>15</ele>
        <time>2022-08-29T20:11:02.250Z</time>
      </trkpt>
      <trkpt lat="47.1715" lon="-1.39787">
        <ele>15</ele>
        <time>2022-08-29T20:11:08.907Z</time>
      </trkpt>
      <trkpt lat="47.17148" lon="-1.39774">
        <ele>15</ele>
        <time>2022-08-29T20:11:15.565Z</time>
      </trkpt>
      <trkpt lat="47.17143" lon="-1.39764">
        <ele>14</ele>
        <time>2022-08-29T20:11:22.224Z</time>
      </trkpt>
      <trkpt lat="47.17138" lon="-1.39756">
        <ele>14</ele>
        <time>2022-08-29T20:11:28.885Z</time>
      </trkpt>
      <trkpt lat="47.17116" lon="-1.39731">
        <ele>14</ele>
        <time>2022-08-29T20:11:35.550Z</time>
      </trkpt>
      <trkpt lat="47.1704" lon="-1.39669">
        <ele>14</ele>
        <time>2022-08-29T20:11:42.229Z</time>
      </trkpt>
      <trkpt lat="47.16966" lon="-1.39597">
        <ele>14</ele>
        <time>2022-08-29T20:11:48.922Z</time>
      </trkpt>
      <trkpt lat="47.16706" lon="-1.39341">
        <ele>14</ele>
        <time>2022-08-29T20:11:55.665Z</time>
      </trkpt>
      <trkpt lat="47.16669" lon="-1.39315">
        <ele>14</ele>
        <time>2022-08-29T20:12:02.415Z</time>
      </trkpt>
      <trkpt lat="47.16661" lon="-1.39312">
        <ele>14</ele>
        <time>2022-08-29T20:12:09.166Z</time>
      </trkpt>
      <trkpt lat="47.16656" lon="-1.39316">
        <ele>14</ele>
        <time>2022-08-29T20:12:15.918Z</time>
      </trkpt>
      <trkpt lat="47.1665" lon="-1.39318">
        <ele>14</ele>
        <time>2022-08-29T20:12:22.671Z</time>
      </trkpt>
      <trkpt lat="47.16643" lon="-1.39317">
        <ele>15</ele>
        <time>2022-08-29T20:12:29.425Z</time>
      </trkpt>
      <trkpt lat="47.16637" lon="-1.39313">
        <ele>15</ele>
        <time>2022-08-29T20:12:36.180Z</time>
      </trkpt>
      <trkpt lat="47.16632" lon="-1.39306">
        <ele>16</ele>
        <time>2022-08-29T20:12:42.936Z</time>
      </trkpt>
      <trkpt lat="47.16625" lon="-1.39302">
        <ele>17</ele>
        <time>2022-08-29T20:12:49.694Z</time>
      </trkpt>
      <trkpt lat="47.16617" lon="-1.39301">
        <ele>17</ele>
        <time>2022-08-29T20:12:56.453Z</time>
      </trkpt>
      <trkpt lat="47.16595" lon="-1.39301">
        <ele>18</ele>
        <time>2022-08-29T20:13:03.215Z</time>
      </trkpt>
      <trkpt lat="47.16547" lon="-1.39325">
        <ele>19</ele>
        <time>2022-08-29T20:13:09.986Z</time>
      </trkpt>
      <trkpt lat="47.1626" lon="-1.39481">
        <ele>20</ele>
        <time>2022-08-29T20:13:16.806Z</time>
      </trkpt>
      <trkpt lat="47.16232" lon="-1.39495">
        <ele>21</ele>
        <time>2022-08-29T20:13:23.630Z</time>
      </trkpt>
      <trkpt lat="47.16225" lon="-1.395">
        <ele>23</ele>
        <time>2022-08-29T20:13:30.456Z</time>
      </trkpt>
      <trkpt lat="47.16184" lon="-1.39525">
        <ele>24</ele>
        <time>2022-08-29T20:13:37.289Z</time>
      </trkpt>
      <trkpt lat="47.16184" lon="-1.39525">
        <ele>25</ele>
        <time>2022-08-29T20:13:44.122Z</time>
      </trkpt>
      <trkpt lat="47.16139" lon="-1.39548">
        <ele>26</ele>
        <time>2022-08-29T20:13:50.962Z</time>
      </trkpt>
      <trkpt lat="47.16125" lon="-1.39553">
        <ele>28</ele>
        <time>2022-08-29T20:13:57.805Z</time>
      </trkpt>
      <trkpt lat="47.16068" lon="-1.39583">
        <ele>29</ele>
        <time>2022-08-29T20:14:04.657Z</time>
      </trkpt>
      <trkpt lat="47.15969" lon="-1.39649">
        <ele>31</ele>
        <time>2022-08-29T20:14:11.527Z</time>
      </trkpt>
      <trkpt lat="47.15969" lon="-1.39649">
        <ele>32</ele>
        <time>2022-08-29T20:14:18.397Z</time>
      </trkpt>
      <trkpt lat="47.15956" lon="-1.39655">
        <ele>33</ele>
        <time>2022-08-29T20:14:25.269Z</time>
      </trkpt>
      <trkpt lat="47.15916" lon="-1.39673">
        <ele>34</ele>
        <time>2022-08-29T20:14:32.148Z</time>
      </trkpt>
      <trkpt lat="47.15902" lon="-1.39683">
        <ele>35</ele>
        <time>2022-08-29T20:14:39.029Z</time>
      </trkpt>
      <trkpt lat="47.15888" lon="-1.39695">
        <ele>36</ele>
        <time>2022-08-29T20:14:45.913Z</time>
      </trkpt>
      <trkpt lat="47.15884" lon="-1.39699">
        <ele>36</ele>
        <time>2022-08-29T20:14:52.797Z</time>
      </trkpt>
      <trkpt lat="47.15885" lon="-1.39708">
        <ele>37</ele>
        <time>2022-08-29T20:14:59.682Z</time>
      </trkpt>
      <trkpt lat="47.15882" lon="-1.39711">
        <ele>37</ele>
        <time>2022-08-29T20:15:06.568Z</time>
      </trkpt>
      <trkpt lat="47.15881" lon="-1.39714">
        <ele>37</ele>
        <time>2022-08-29T20:15:13.454Z</time>
      </trkpt>
      <trkpt lat="47.15876" lon="-1.39716">
        <ele>38</ele>
        <time>2022-08-29T20:15:20.341Z</time>
      </trkpt>
      <trkpt lat="47.15871" lon="-1.39713">
        <ele>38</ele>
        <time>2022-08-29T20:15:27.229Z</time>
      </trkpt>
      <trkpt lat="47.15871" lon="-1.39713">
        <ele>38</ele>
        <time>2022-08-29T20:15:34.117Z</time>
      </trkpt>
      <trkpt lat="47.15867" lon="-1.39706">
        <ele>38</ele>
        <time>2022-08-29T20:15:41.006Z</time>
      </trkpt>
      <trkpt lat="47.15861" lon="-1.39706">
        <ele>38</ele>
        <time>2022-08-29T20:15:47.896Z</time>
      </trkpt>
      <trkpt lat="47.15812" lon="-1.39735">
        <ele>37</ele>
        <time>2022-08-29T20:15:54.795Z</time>
      </trkpt>
      <trkpt lat="47.15679" lon="-1.39825">
        <ele>37</ele>
        <time>2022-08-29T20:16:01.717Z</time>
      </trkpt>
      <trkpt lat="47.15679" lon="-1.39825">
        <ele>37</ele>
        <time>2022-08-29T20:16:08.639Z</time>
      </trkpt>
      <trkpt lat="47.15668" lon="-1.39829">
        <ele>37</ele>
        <time>2022-08-29T20:16:15.563Z</time>
      </trkpt>
      <trkpt lat="47.15583" lon="-1.39891">
        <ele>36</ele>
        <time>2022-08-29T20:16:22.502Z</time>
      </trkpt>
      <trkpt lat="47.15543" lon="-1.39922">
        <ele>36</ele>
        <time>2022-08-29T20:16:29.448Z</time>
      </trkpt>
      <trkpt lat="47.15508" lon="-1.39949">
        <ele>36</ele>
        <time>2022-08-29T20:16:36.401Z</time>
      </trkpt>
      <trkpt lat="47.15475" lon="-1.39975">
        <ele>36</ele>
        <time>2022-08-29T20:16:43.360Z</time>
      </trkpt>
      <trkpt lat="47.15468" lon="-1.39977">
        <ele>36</ele>
        <time>2022-08-29T20:16:50.320Z</time>
      </trkpt>
      <trkpt lat="47.15448" lon="-1.39983">
        <ele>35</ele>
        <time>2022-08-29T20:16:57.283Z</time>
      </trkpt>
      <trkpt lat="47.15437" lon="-1.39986">
        <ele>35</ele>
        <time>2022-08-29T20:17:04.248Z</time>
      </trkpt>
      <trkpt lat="47.154" lon="-1.4">
        <ele>35</ele>
        <time>2022-08-29T20:17:11.219Z</time>
      </trkpt>
      <trkpt lat="47.15385" lon="-1.40012">
        <ele>35</ele>
        <time>2022-08-29T20:17:18.193Z</time>
      </trkpt>
      <trkpt lat="47.15337" lon="-1.40038">
        <ele>35</ele>
        <time>2022-08-29T20:17:25.175Z</time>
      </trkpt>
      <trkpt lat="47.15337" lon="-1.40038">
        <ele>35</ele>
        <time>2022-08-29T20:17:32.157Z</time>
      </trkpt>
      <trkpt lat="47.1529" lon="-1.40064">
        <ele>34</ele>
        <time>2022-08-29T20:17:39.147Z</time>
      </trkpt>
      <trkpt lat="47.15281" lon="-1.40074">
        <ele>34</ele>
        <time>2022-08-29T20:17:46.139Z</time>
      </trkpt>
      <trkpt lat="47.15262" lon="-1.40099">
        <ele>34</ele>
        <time>2022-08-29T20:17:53.135Z</time>
      </trkpt>
      <trkpt lat="47.15252" lon="-1.40123">
        <ele>33</ele>
        <time>2022-08-29T20:18:00.134Z</time>
      </trkpt>
      <trkpt lat="47.15246" lon="-1.40137">
        <ele>32</ele>
        <time>2022-08-29T20:18:07.135Z</time>
      </trkpt>
      <trkpt lat="47.15237" lon="-1.40189">
        <ele>32</ele>
        <time>2022-08-29T20:18:14.142Z</time>
      </trkpt>
      <trkpt lat="47.15221" lon="-1.40288">
        <ele>31</ele>
        <time>2022-08-29T20:18:21.160Z</time>
      </trkpt>
      <trkpt lat="47.15214" lon="-1.40307">
        <ele>30</ele>
        <time>2022-08-29T20:18:28.180Z</time>
      </trkpt>
      <trkpt lat="47.15207" lon="-1.40324">
        <ele>30</ele>
        <time>2022-08-29T20:18:35.202Z</time>
      </trkpt>
      <trkpt lat="47.15199" lon="-1.40332">
        <ele>29</ele>
        <time>2022-08-29T20:18:42.226Z</time>
      </trkpt>
      <trkpt lat="47.15189" lon="-1.4034">
        <ele>28</ele>
        <time>2022-08-29T20:18:49.251Z</time>
      </trkpt>
      <trkpt lat="47.15171" lon="-1.40348">
        <ele>27</ele>
        <time>2022-08-29T20:18:56.280Z</time>
      </trkpt>
      <trkpt lat="47.1514" lon="-1.40347">
        <ele>27</ele>
        <time>2022-08-29T20:19:03.314Z</time>
      </trkpt>
      <trkpt lat="47.15125" lon="-1.4034">
        <ele>26</ele>
        <time>2022-08-29T20:19:10.350Z</time>
      </trkpt>
      <trkpt lat="47.15113" lon="-1.40327">
        <ele>25</ele>
        <time>2022-08-29T20:19:17.388Z</time>
      </trkpt>
      <trkpt lat="47.15102" lon="-1.40309">
        <ele>24</ele>
        <time>2022-08-29T20:19:24.429Z</time>
      </trkpt>
      <trkpt lat="47.15094" lon="-1.40287">
        <ele>23</ele>
        <time>2022-08-29T20:19:31.473Z</time>
      </trkpt>
      <trkpt lat="47.15084" lon="-1.40245">
        <ele>22</ele>
        <time>2022-08-29T20:19:38.522Z</time>
      </trkpt>
      <trkpt lat="47.15083" lon="-1.40239">
        <ele>22</ele>
        <time>2022-08-29T20:19:45.571Z</time>
      </trkpt>
      <trkpt lat="47.15078" lon="-1.40209">
        <ele>20</ele>
        <time>2022-08-29T20:19:52.624Z</time>
      </trkpt>
      <trkpt lat="47.15067" lon="-1.40182">
        <ele>19</ele>
        <time>2022-08-29T20:19:59.680Z</time>
      </trkpt>
      <trkpt lat="47.15058" lon="-1.40165">
        <ele>18</ele>
        <time>2022-08-29T20:20:06.738Z</time>
      </trkpt>
      <trkpt lat="47.15028" lon="-1.40119">
        <ele>17</ele>
        <time>2022-08-29T20:20:13.803Z</time>
      </trkpt>
      <trkpt lat="47.15024" lon="-1.40109">
        <ele>17</ele>
        <time>2022-08-29T20:20:20.870Z</time>
      </trkpt>
      <trkpt lat="47.15018" lon="-1.40091">
        <ele>16</ele>
        <time>2022-08-29T20:20:27.939Z</time>
      </trkpt>
      <trkpt lat="47.15015" lon="-1.4007">
        <ele>15</ele>
        <time>2022-08-29T20:20:35.010Z</time>
      </trkpt>
      <trkpt lat="47.15013" lon="-1.40056">
        <ele>15</ele>
        <time>2022-08-29T20:20:42.083Z</time>
      </trkpt>
      <trkpt lat="47.15015" lon="-1.40017">
        <ele>15</ele>
        <time>2022-08-29T20:20:49.160Z</time>
      </trkpt>
      <trkpt lat="47.15011" lon="-1.39997">
        <ele>14</ele>
        <time>2022-08-29T20:20:56.239Z</time>
      </trkpt>
      <trkpt lat="47.15011" lon="-1.39997">
        <ele>14</ele>
        <time>2022-08-29T20:21:03.318Z</time>
      </trkpt>
      <trkpt lat="47.15004" lon="-1.39981">
        <ele>14</ele>
        <time>2022-08-29T20:21:10.399Z</time>
      </trkpt>
      <trkpt lat="47.14997" lon="-1.39972">
        <ele>14</ele>
        <time>2022-08-29T20:21:17.482Z</time>
      </trkpt>
      <trkpt lat="47.14987" lon="-1.39965">
        <ele>15</ele>
        <time>2022-08-29T20:21:24.567Z</time>
      </trkpt>
      <trkpt lat="47.14921" lon="-1.39954">
        <ele>15</ele>
        <time>2022-08-29T20:21:31.662Z</time>
      </trkpt>
      <trkpt lat="47.14877" lon="-1.39949">
        <ele>15</ele>
        <time>2022-08-29T20:21:38.764Z</time>
      </trkpt>
      <trkpt lat="47.14869" lon="-1.39951">
        <ele>16</ele>
        <time>2022-08-29T20:21:45.868Z</time>
      </trkpt>
      <trkpt lat="47.14851" lon="-1.39959">
        <ele>17</ele>
        <time>2022-08-29T20:21:52.975Z</time>
      </trkpt>
      <trkpt lat="47.14831" lon="-1.39977">
        <ele>19</ele>
        <time>2022-08-29T20:22:00.085Z</time>
      </trkpt>
      <trkpt lat="47.14768" lon="-1.40055">
        <ele>20</ele>
        <time>2022-08-29T20:22:07.209Z</time>
      </trkpt>
      <trkpt lat="47.14692" lon="-1.40138">
        <ele>22</ele>
        <time>2022-08-29T20:22:14.348Z</time>
      </trkpt>
      <trkpt lat="47.14655" lon="-1.40162">
        <ele>24</ele>
        <time>2022-08-29T20:22:21.493Z</time>
      </trkpt>
      <trkpt lat="47.14613" lon="-1.40179">
        <ele>26</ele>
        <time>2022-08-29T20:22:28.645Z</time>
      </trkpt>
      <trkpt lat="47.14591" lon="-1.40193">
        <ele>27</ele>
        <time>2022-08-29T20:22:35.801Z</time>
      </trkpt>
      <trkpt lat="47.14574" lon="-1.40206">
        <ele>29</ele>
        <time>2022-08-29T20:22:42.960Z</time>
      </trkpt>
      <trkpt lat="47.14533" lon="-1.40248">
        <ele>30</ele>
        <time>2022-08-29T20:22:50.127Z</time>
      </trkpt>
      <trkpt lat="47.14481" lon="-1.403">
        <ele>32</ele>
        <time>2022-08-29T20:22:57.304Z</time>
      </trkpt>
      <trkpt lat="47.14457" lon="-1.40321">
        <ele>33</ele>
        <time>2022-08-29T20:23:04.486Z</time>
      </trkpt>
      <trkpt lat="47.14434" lon="-1.40338">
        <ele>35</ele>
        <time>2022-08-29T20:23:11.672Z</time>
      </trkpt>
      <trkpt lat="47.14388" lon="-1.40361">
        <ele>36</ele>
        <time>2022-08-29T20:23:18.866Z</time>
      </trkpt>
      <trkpt lat="47.14362" lon="-1.40376">
        <ele>37</ele>
        <time>2022-08-29T20:23:26.064Z</time>
      </trkpt>
      <trkpt lat="47.1431" lon="-1.40403">
        <ele>38</ele>
        <time>2022-08-29T20:23:33.271Z</time>
      </trkpt>
      <trkpt lat="47.14297" lon="-1.40407">
        <ele>40</ele>
        <time>2022-08-29T20:23:40.480Z</time>
      </trkpt>
      <trkpt lat="47.14303" lon="-1.40443">
        <ele>40</ele>
        <time>2022-08-29T20:23:47.693Z</time>
      </trkpt>
      <trkpt lat="47.1431" lon="-1.40454">
        <ele>41</ele>
        <time>2022-08-29T20:23:54.908Z</time>
      </trkpt>
      <trkpt lat="47.14357" lon="-1.40517">
        <ele>42</ele>
        <time>2022-08-29T20:24:02.133Z</time>
      </trkpt>
      <trkpt lat="47.14369" lon="-1.40536">
        <ele>43</ele>
        <time>2022-08-29T20:24:09.361Z</time>
      </trkpt>
      <trkpt lat="47.14374" lon="-1.40553">
        <ele>43</ele>
        <time>2022-08-29T20:24:16.591Z</time>
      </trkpt>
      <trkpt lat="47.14376" lon="-1.40568">
        <ele>44</ele>
        <time>2022-08-29T20:24:23.822Z</time>
      </trkpt>
      <trkpt lat="47.14375" lon="-1.40698">
        <ele>45</ele>
        <time>2022-08-29T20:24:31.068Z</time>
      </trkpt>
      <trkpt lat="47.14395" lon="-1.40861">
        <ele>45</ele>
        <time>2022-08-29T20:24:38.332Z</time>
      </trkpt>
      <trkpt lat="47.14408" lon="-1.40938">
        <ele>46</ele>
        <time>2022-08-29T20:24:45.604Z</time>
      </trkpt>
      <trkpt lat="47.1441" lon="-1.4098">
        <ele>46</ele>
        <time>2022-08-29T20:24:52.881Z</time>
      </trkpt>
      <trkpt lat="47.14408" lon="-1.40993">
        <ele>46</ele>
        <time>2022-08-29T20:25:00.159Z</time>
      </trkpt>
      <trkpt lat="47.14405" lon="-1.41005">
        <ele>47</ele>
        <time>2022-08-29T20:25:07.439Z</time>
      </trkpt>
      <trkpt lat="47.14402" lon="-1.41009">
        <ele>47</ele>
        <time>2022-08-29T20:25:14.720Z</time>
      </trkpt>
      <trkpt lat="47.14406" lon="-1.41033">
        <ele>48</ele>
        <time>2022-08-29T20:25:22.003Z</time>
      </trkpt>
      <trkpt lat="47.14406" lon="-1.41048">
        <ele>48</ele>
        <time>2022-08-29T20:25:29.288Z</time>
      </trkpt>
      <trkpt lat="47.14397" lon="-1.41232">
        <ele>48</ele>
        <time>2022-08-29T20:25:36.593Z</time>
      </trkpt>
      <trkpt lat="47.14393" lon="-1.41275">
        <ele>48</ele>
        <time>2022-08-29T20:25:43.903Z</time>
      </trkpt>
      <trkpt lat="47.14392" lon="-1.41319">
        <ele>49</ele>
        <time>2022-08-29T20:25:51.218Z</time>
      </trkpt>
      <trkpt lat="47.14393" lon="-1.41413">
        <ele>49</ele>
        <time>2022-08-29T20:25:58.543Z</time>
      </trkpt>
      <trkpt lat="47.14393" lon="-1.41423">
        <ele>49</ele>
        <time>2022-08-29T20:26:05.869Z</time>
      </trkpt>
      <trkpt lat="47.14395" lon="-1.41513">
        <ele>49</ele>
        <time>2022-08-29T20:26:13.205Z</time>
      </trkpt>
      <trkpt lat="47.14395" lon="-1.41577">
        <ele>49</ele>
        <time>2022-08-29T20:26:20.548Z</time>
      </trkpt>
      <trkpt lat="47.14394" lon="-1.41585">
        <ele>48</ele>
        <time>2022-08-29T20:26:27.892Z</time>
      </trkpt>
      <trkpt lat="47.1439" lon="-1.41604">
        <ele>48</ele>
        <time>2022-08-29T20:26:35.238Z</time>
      </trkpt>
      <trkpt lat="47.14383" lon="-1.41599">
        <ele>46</ele>
        <time>2022-08-29T20:26:42.585Z</time>
      </trkpt>
      <trkpt lat="47.14374" lon="-1.41597">
        <ele>45</ele>
        <time>2022-08-29T20:26:49.933Z</time>
      </trkpt>
      <trkpt lat="47.14349" lon="-1.41602">
        <ele>44</ele>
        <time>2022-08-29T20:26:57.285Z</time>
      </trkpt>
      <trkpt lat="47.1432" lon="-1.41612">
        <ele>43</ele>
        <time>2022-08-29T20:27:04.642Z</time>
      </trkpt>
      <trkpt lat="47.143" lon="-1.41627">
        <ele>41</ele>
        <time>2022-08-29T20:27:12.003Z</time>
      </trkpt>
      <trkpt lat="47.14288" lon="-1.41641">
        <ele>40</ele>
        <time>2022-08-29T20:27:19.366Z</time>
      </trkpt>
      <trkpt lat="47.14252" lon="-1.41668">
        <ele>38</ele>
        <time>2022-08-29T20:27:26.736Z</time>
      </trkpt>
      <trkpt lat="47.14246" lon="-1.41668">
        <ele>36</ele>
        <time>2022-08-29T20:27:34.107Z</time>
      </trkpt>
      <trkpt lat="47.14241" lon="-1.41678">
        <ele>33</ele>
        <time>2022-08-29T20:27:41.479Z</time>
      </trkpt>
      <trkpt lat="47.14202" lon="-1.41703">
        <ele>31</ele>
        <time>2022-08-29T20:27:48.858Z</time>
      </trkpt>
      <trkpt lat="47.14176" lon="-1.41723">
        <ele>28</ele>
        <time>2022-08-29T20:27:56.242Z</time>
      </trkpt>
      <trkpt lat="47.14128" lon="-1.41764">
        <ele>26</ele>
        <time>2022-08-29T20:28:03.634Z</time>
      </trkpt>
      <trkpt lat="47.14042" lon="-1.4184">
        <ele>22</ele>
        <time>2022-08-29T20:28:11.042Z</time>
      </trkpt>
      <trkpt lat="47.1403" lon="-1.41845">
        <ele>20</ele>
        <time>2022-08-29T20:28:18.453Z</time>
      </trkpt>
      <trkpt lat="47.1401" lon="-1.41845">
        <ele>18</ele>
        <time>2022-08-29T20:28:25.867Z</time>
      </trkpt>
      <trkpt lat="47.13987" lon="-1.41835">
        <ele>15</ele>
        <time>2022-08-29T20:28:33.285Z</time>
      </trkpt>
      <trkpt lat="47.13947" lon="-1.41812">
        <ele>14</ele>
        <time>2022-08-29T20:28:40.709Z</time>
      </trkpt>
      <trkpt lat="47.13943" lon="-1.41807">
        <ele>12</ele>
        <time>2022-08-29T20:28:48.134Z</time>
      </trkpt>
      <trkpt lat="47.13812" lon="-1.42035">
        <ele>10</ele>
        <time>2022-08-29T20:28:55.592Z</time>
      </trkpt>
      <trkpt lat="47.13805" lon="-1.42047">
        <ele>9</ele>
        <time>2022-08-29T20:29:03.051Z</time>
      </trkpt>
      <trkpt lat="47.13799" lon="-1.42055">
        <ele>8</ele>
        <time>2022-08-29T20:29:10.512Z</time>
      </trkpt>
      <trkpt lat="47.13792" lon="-1.42061">
        <ele>7</ele>
        <time>2022-08-29T20:29:17.974Z</time>
      </trkpt>
      <trkpt lat="47.13777" lon="-1.42063">
        <ele>7</ele>
        <time>2022-08-29T20:29:25.438Z</time>
      </trkpt>
      <trkpt lat="47.13768" lon="-1.42059">
        <ele>7</ele>
        <time>2022-08-29T20:29:32.904Z</time>
      </trkpt>
      <trkpt lat="47.13759" lon="-1.42051">
        <ele>7</ele>
        <time>2022-08-29T20:29:40.372Z</time>
      </trkpt>
      <trkpt lat="47.13754" lon="-1.4204">
        <ele>7</ele>
        <time>2022-08-29T20:29:47.841Z</time>
      </trkpt>
      <trkpt lat="47.13744" lon="-1.42007">
        <ele>7</ele>
        <time>2022-08-29T20:29:55.314Z</time>
      </trkpt>
      <trkpt lat="47.13736" lon="-1.41985">
        <ele>8</ele>
        <time>2022-08-29T20:30:02.790Z</time>
      </trkpt>
      <trkpt lat="47.13726" lon="-1.41972">
        <ele>9</ele>
        <time>2022-08-29T20:30:10.268Z</time>
      </trkpt>
      <trkpt lat="47.13714" lon="-1.41962">
        <ele>10</ele>
        <time>2022-08-29T20:30:17.748Z</time>
      </trkpt>
      <trkpt lat="47.13639" lon="-1.41915">
        <ele>11</ele>
        <time>2022-08-29T20:30:25.241Z</time>
      </trkpt>
      <trkpt lat="47.13619" lon="-1.41908">
        <ele>12</ele>
        <time>2022-08-29T20:30:32.738Z</time>
      </trkpt>
      <trkpt lat="47.13602" lon="-1.41909">
        <ele>14</ele>
        <time>2022-08-29T20:30:40.237Z</time>
      </trkpt>
      <trkpt lat="47.13586" lon="-1.41915">
        <ele>15</ele>
        <time>2022-08-29T20:30:47.739Z</time>
      </trkpt>
      <trkpt lat="47.13577" lon="-1.4192">
        <ele>17</ele>
        <time>2022-08-29T20:30:55.242Z</time>
      </trkpt>
      <trkpt lat="47.13563" lon="-1.41934">
        <ele>18</ele>
        <time>2022-08-29T20:31:02.748Z</time>
      </trkpt>
      <trkpt lat="47.13535" lon="-1.41977">
        <ele>20</ele>
        <time>2022-08-29T20:31:10.261Z</time>
      </trkpt>
      <trkpt lat="47.13514" lon="-1.42015">
        <ele>22</ele>
        <time>2022-08-29T20:31:17.779Z</time>
      </trkpt>
      <trkpt lat="47.13497" lon="-1.42038">
        <ele>24</ele>
        <time>2022-08-29T20:31:25.301Z</time>
      </trkpt>
      <trkpt lat="47.13477" lon="-1.42064">
        <ele>26</ele>
        <time>2022-08-29T20:31:32.827Z</time>
      </trkpt>
      <trkpt lat="47.13423" lon="-1.42121">
        <ele>28</ele>
        <time>2022-08-29T20:31:40.364Z</time>
      </trkpt>
      <trkpt lat="47.13359" lon="-1.42188">
        <ele>29</ele>
        <time>2022-08-29T20:31:47.913Z</time>
      </trkpt>
      <trkpt lat="47.13333" lon="-1.42215">
        <ele>31</ele>
        <time>2022-08-29T20:31:55.467Z</time>
      </trkpt>
      <trkpt lat="47.13272" lon="-1.42278">
        <ele>33</ele>
        <time>2022-08-29T20:32:03.033Z</time>
      </trkpt>
      <trkpt lat="47.13224" lon="-1.42317">
        <ele>35</ele>
        <time>2022-08-29T20:32:10.608Z</time>
      </trkpt>
      <trkpt lat="47.13224" lon="-1.42317">
        <ele>36</ele>
        <time>2022-08-29T20:32:18.183Z</time>
      </trkpt>
      <trkpt lat="47.13213" lon="-1.42321">
        <ele>38</ele>
        <time>2022-08-29T20:32:25.760Z</time>
      </trkpt>
      <trkpt lat="47.13166" lon="-1.42319">
        <ele>40</ele>
        <time>2022-08-29T20:32:33.344Z</time>
      </trkpt>
      <trkpt lat="47.1308" lon="-1.42315">
        <ele>41</ele>
        <time>2022-08-29T20:32:40.942Z</time>
      </trkpt>
      <trkpt lat="47.13005" lon="-1.42307">
        <ele>43</ele>
        <time>2022-08-29T20:32:48.552Z</time>
      </trkpt>
      <trkpt lat="47.12945" lon="-1.42299">
        <ele>44</ele>
        <time>2022-08-29T20:32:56.172Z</time>
      </trkpt>
      <trkpt lat="47.12866" lon="-1.42278">
        <ele>46</ele>
        <time>2022-08-29T20:33:03.805Z</time>
      </trkpt>
      <trkpt lat="47.12789" lon="-1.4226">
        <ele>47</ele>
        <time>2022-08-29T20:33:11.450Z</time>
      </trkpt>
      <trkpt lat="47.1274" lon="-1.42246">
        <ele>48</ele>
        <time>2022-08-29T20:33:19.103Z</time>
      </trkpt>
      <trkpt lat="47.12727" lon="-1.42248">
        <ele>50</ele>
        <time>2022-08-29T20:33:26.758Z</time>
      </trkpt>
      <trkpt lat="47.12719" lon="-1.42255">
        <ele>51</ele>
        <time>2022-08-29T20:33:34.415Z</time>
      </trkpt>
      <trkpt lat="47.12715" lon="-1.4226">
        <ele>51</ele>
        <time>2022-08-29T20:33:42.073Z</time>
      </trkpt>
      <trkpt lat="47.1271" lon="-1.42264">
        <ele>52</ele>
        <time>2022-08-29T20:33:49.732Z</time>
      </trkpt>
      <trkpt lat="47.12704" lon="-1.42263">
        <ele>53</ele>
        <time>2022-08-29T20:33:57.392Z</time>
      </trkpt>
      <trkpt lat="47.12699" lon="-1.42259">
        <ele>54</ele>
        <time>2022-08-29T20:34:05.052Z</time>
      </trkpt>
      <trkpt lat="47.12681" lon="-1.42252">
        <ele>55</ele>
        <time>2022-08-29T20:34:12.715Z</time>
      </trkpt>
      <trkpt lat="47.1266" lon="-1.42256">
        <ele>55</ele>
        <time>2022-08-29T20:34:20.382Z</time>
      </trkpt>
      <trkpt lat="47.12635" lon="-1.42269">
        <ele>56</ele>
        <time>2022-08-29T20:34:28.053Z</time>
      </trkpt>
      <trkpt lat="47.12624" lon="-1.42278">
        <ele>57</ele>
        <time>2022-08-29T20:34:35.726Z</time>
      </trkpt>
      <trkpt lat="47.12612" lon="-1.42291">
        <ele>57</ele>
        <time>2022-08-29T20:34:43.401Z</time>
      </trkpt>
      <trkpt lat="47.12594" lon="-1.42306">
        <ele>58</ele>
        <time>2022-08-29T20:34:51.080Z</time>
      </trkpt>
      <trkpt lat="47.12553" lon="-1.42332">
        <ele>58</ele>
        <time>2022-08-29T20:34:58.766Z</time>
      </trkpt>
      <trkpt lat="47.12546" lon="-1.42336">
        <ele>58</ele>
        <time>2022-08-29T20:35:06.453Z</time>
      </trkpt>
      <trkpt lat="47.12522" lon="-1.42345">
        <ele>58</ele>
        <time>2022-08-29T20:35:14.144Z</time>
      </trkpt>
      <trkpt lat="47.12509" lon="-1.42353">
        <ele>59</ele>
        <time>2022-08-29T20:35:21.837Z</time>
      </trkpt>
      <trkpt lat="47.12509" lon="-1.42353">
        <ele>59</ele>
        <time>2022-08-29T20:35:29.530Z</time>
      </trkpt>
      <trkpt lat="47.12462" lon="-1.42381">
        <ele>59</ele>
        <time>2022-08-29T20:35:37.232Z</time>
      </trkpt>
      <trkpt lat="47.1245" lon="-1.42388">
        <ele>59</ele>
        <time>2022-08-29T20:35:44.936Z</time>
      </trkpt>
      <trkpt lat="47.12442" lon="-1.42389">
        <ele>59</ele>
        <time>2022-08-29T20:35:52.641Z</time>
      </trkpt>
      <trkpt lat="47.12441" lon="-1.42408">
        <ele>59</ele>
        <time>2022-08-29T20:36:00.348Z</time>
      </trkpt>
      <trkpt lat="47.12449" lon="-1.42475">
        <ele>59</ele>
        <time>2022-08-29T20:36:08.062Z</time>
      </trkpt>
      <trkpt lat="47.1245" lon="-1.425">
        <ele>58</ele>
        <time>2022-08-29T20:36:15.779Z</time>
      </trkpt>
      <trkpt lat="47.12456" lon="-1.42614">
        <ele>58</ele>
        <time>2022-08-29T20:36:23.509Z</time>
      </trkpt>
      <trkpt lat="47.12454" lon="-1.42655">
        <ele>58</ele>
        <time>2022-08-29T20:36:31.243Z</time>
      </trkpt>
      <trkpt lat="47.12452" lon="-1.42715">
        <ele>58</ele>
        <time>2022-08-29T20:36:38.984Z</time>
      </trkpt>
      <trkpt lat="47.12455" lon="-1.42738">
        <ele>58</ele>
        <time>2022-08-29T20:36:46.727Z</time>
      </trkpt>
      <trkpt lat="47.1247" lon="-1.42782">
        <ele>58</ele>
        <time>2022-08-29T20:36:54.476Z</time>
      </trkpt>
      <trkpt lat="47.12567" lon="-1.42971">
        <ele>58</ele>
        <time>2022-08-29T20:37:02.251Z</time>
      </trkpt>
      <trkpt lat="47.12622" lon="-1.43112">
        <ele>58</ele>
        <time>2022-08-29T20:37:10.043Z</time>
      </trkpt>
      <trkpt lat="47.12627" lon="-1.43106">
        <ele>58</ele>
        <time>2022-08-29T20:37:17.836Z</time>
      </trkpt>
      <trkpt lat="47.12657" lon="-1.43074">
        <ele>57</ele>
        <time>2022-08-29T20:37:25.635Z</time>
      </trkpt>
      <trkpt lat="47.12694" lon="-1.43038">
        <ele>57</ele>
        <time>2022-08-29T20:37:33.441Z</time>
      </trkpt>
      <trkpt lat="47.12698" lon="-1.43039">
        <ele>57</ele>
        <time>2022-08-29T20:37:41.248Z</time>
      </trkpt>
      <trkpt lat="47.12713" lon="-1.43071">
        <ele>57</ele>
        <time>2022-08-29T20:37:49.059Z</time>
      </trkpt>
    </trkseg>
  </trk>
</gpx>